PWSweather.com
Personal Weather Stations
Station Observations
WOODBURYWX
Lighthouse Rd, Woodbury, Woodbury, CT 06798

Lighthouse Rd, WoodburyWoodbury, CT 06798

Lat: 41.553333, Lon: -73.224167

Elevation: 437

Station Type: Ambient Weather WS-1090

Latest ConditionsUpdated 4:39:00 PM EDT Friday, May 6, 2016
Currently Today's Max Today's Min Today's Average
Temperature 52.7°F11.5°C 58.8°F14.9°C 46.0°F7.8°C 50.3°F10.2°C
Dew Point 52.2°F11.2°C 52.9°F11.6°C 43.0°F6.1°C 47.2°F8.4°C
Winds 2.6 mph SW4.2 kmh SW 7.4 mph N11.9 kmh N - 4.1 mph 6.6 kmh
Wind Gusts 3.5 mph5.6 kmh 10.5 mph16.9 kmh - -
Humidity 98% 99% 75% 90%
Pressure 29.78 in1008.5 mb 29.78 in1008.5 mb 29.62 in1003.0 mb -
Precipitation - 0.40 in10.2 mm - -
Hour Temp Dew Point Humidity Winds Wind Gusts Pressure Precip Precip Rate Daily Precip Total
04:39 PM 52.7°F11.5°C 52.2°F11.2°C 98% 2.6 mph SW4.2 kmh SW 3.5 mph5.6 kmh 29.78 in1008.5 mb 0.00 in0.0 mm 0.00 in0.0 mm 0.40 in10.2 mm
04:38 PM 52.5°F11.4°C 52.0°F11.1°C 98% 2.6 mph SW4.2 kmh SW 3.5 mph5.6 kmh 29.78 in1008.5 mb 0.00 in0.0 mm 0.00 in0.0 mm 0.40 in10.2 mm
04:37 PM 52.5°F11.4°C 52.0°F11.1°C 98% 2.6 mph SW4.2 kmh SW 3.5 mph5.6 kmh 29.78 in1008.5 mb 0.01 in0.3 mm 0.00 in0.0 mm 0.40 in10.2 mm
04:36 PM 52.5°F11.4°C 52.0°F11.1°C 98% 2.5 mph SW4.0 kmh SW 3.5 mph5.6 kmh 29.78 in1008.5 mb 0.01 in0.3 mm 0.00 in0.0 mm 0.40 in10.2 mm
04:35 PM 52.9°F11.6°C 52.3°F11.3°C 98% 2.2 mph SW3.5 kmh SW 3.5 mph5.6 kmh 29.78 in1008.5 mb 0.01 in0.3 mm 0.00 in0.0 mm 0.40 in10.2 mm
04:34 PM 52.9°F11.6°C 52.3°F11.3°C 98% 1.9 mph SSW3.1 kmh SSW 3.5 mph5.6 kmh 29.78 in1008.5 mb 0.01 in0.3 mm 0.00 in0.0 mm 0.40 in10.2 mm
04:33 PM 52.9°F11.6°C 52.3°F11.3°C 98% 1.8 mph SSW2.9 kmh SSW 3.5 mph5.6 kmh 29.78 in1008.5 mb 0.01 in0.3 mm 0.00 in0.0 mm 0.40 in10.2 mm
04:32 PM 52.7°F11.5°C 52.2°F11.2°C 98% 1.6 mph SSW2.6 kmh SSW 3.5 mph5.6 kmh 29.78 in1008.5 mb 0.01 in0.3 mm 0.00 in0.0 mm 0.40 in10.2 mm
04:31 PM 52.7°F11.5°C 52.2°F11.2°C 98% 1.5 mph SSW2.4 kmh SSW 3.5 mph5.6 kmh 29.78 in1008.5 mb 0.01 in0.3 mm 0.00 in0.0 mm 0.40 in10.2 mm
04:30 PM 52.5°F11.4°C 52.0°F11.1°C 98% 1.5 mph SSW2.4 kmh SSW 3.5 mph5.6 kmh 29.78 in1008.5 mb 0.01 in0.3 mm 0.00 in0.0 mm 0.40 in10.2 mm
04:29 PM 52.5°F11.4°C 52.0°F11.1°C 98% 1.4 mph SW2.3 kmh SW 3.5 mph5.6 kmh 29.78 in1008.5 mb 0.01 in0.3 mm 0.00 in0.0 mm 0.40 in10.2 mm
04:28 PM 52.3°F11.3°C 51.8°F11.0°C 98% 1.4 mph SW2.3 kmh SW 3.5 mph5.6 kmh 29.78 in1008.5 mb 0.01 in0.3 mm 0.00 in0.0 mm 0.40 in10.2 mm
04:27 PM 52.3°F11.3°C 51.8°F11.0°C 98% 1.5 mph SW2.4 kmh SW 3.5 mph5.6 kmh 29.78 in1008.5 mb 0.01 in0.3 mm 0.00 in0.0 mm 0.40 in10.2 mm
04:26 PM 52.5°F11.4°C 52.0°F11.1°C 98% 1.4 mph SW2.3 kmh SW 3.5 mph5.6 kmh 29.78 in1008.5 mb 0.01 in0.3 mm 0.00 in0.0 mm 0.40 in10.2 mm
04:25 PM 52.5°F11.4°C 52.0°F11.1°C 98% 1.6 mph SW2.6 kmh SW 3.5 mph5.6 kmh 29.78 in1008.5 mb 0.01 in0.3 mm 0.00 in0.0 mm 0.40 in10.2 mm
04:24 PM 52.2°F11.2°C 51.6°F10.9°C 98% 1.8 mph SW2.9 kmh SW 3.5 mph5.6 kmh 29.78 in1008.5 mb 0.01 in0.3 mm 0.00 in0.0 mm 0.40 in10.2 mm
04:23 PM 52.3°F11.3°C 51.8°F11.0°C 98% 2.0 mph SW3.2 kmh SW 3.5 mph5.6 kmh 29.78 in1008.5 mb 0.01 in0.3 mm 0.00 in0.0 mm 0.40 in10.2 mm
04:22 PM 52.2°F11.2°C 51.6°F10.9°C 98% 2.1 mph SSW3.4 kmh SSW 3.5 mph5.6 kmh 29.78 in1008.5 mb 0.01 in0.3 mm 0.00 in0.0 mm 0.40 in10.2 mm
04:21 PM 52.2°F11.2°C 51.6°F10.9°C 98% 2.1 mph SSW3.4 kmh SSW 3.5 mph5.6 kmh 29.78 in1008.5 mb 0.01 in0.3 mm 0.00 in0.0 mm 0.40 in10.2 mm
04:20 PM 51.8°F11.0°C 51.3°F10.7°C 98% 2.2 mph SSW3.5 kmh SSW 3.5 mph5.6 kmh 29.78 in1008.5 mb 0.01 in0.3 mm 0.00 in0.0 mm 0.40 in10.2 mm
04:19 PM 52.3°F11.3°C 51.8°F11.0°C 98% 2.2 mph SSW3.5 kmh SSW 3.5 mph5.6 kmh 29.78 in1008.5 mb 0.01 in0.3 mm 0.00 in0.0 mm 0.40 in10.2 mm
04:18 PM 52.2°F11.2°C 51.6°F10.9°C 98% 2.2 mph SSW3.5 kmh SSW 2.6 mph4.2 kmh 29.78 in1008.5 mb 0.01 in0.3 mm 0.00 in0.0 mm 0.40 in10.2 mm
04:17 PM 52.2°F11.2°C 51.6°F10.9°C 98% 2.1 mph SSW3.4 kmh SSW 2.6 mph4.2 kmh 29.78 in1008.5 mb 0.01 in0.3 mm 0.00 in0.0 mm 0.40 in10.2 mm
04:16 PM 52.3°F11.3°C 51.8°F11.0°C 98% 2.2 mph SSW3.5 kmh SSW 2.6 mph4.2 kmh 29.78 in1008.5 mb 0.01 in0.3 mm 0.00 in0.0 mm 0.40 in10.2 mm
04:15 PM 52.3°F11.3°C 51.8°F11.0°C 98% 2.3 mph SSW3.7 kmh SSW 3.5 mph5.6 kmh 29.78 in1008.5 mb 0.01 in0.3 mm 0.00 in0.0 mm 0.40 in10.2 mm
04:14 PM 52.2°F11.2°C 51.6°F10.9°C 98% 2.4 mph SSW3.9 kmh SSW 3.5 mph5.6 kmh 29.78 in1008.5 mb 0.01 in0.3 mm 0.00 in0.0 mm 0.40 in10.2 mm
04:13 PM 52.3°F11.3°C 51.8°F11.0°C 98% 2.3 mph SSW3.7 kmh SSW 3.5 mph5.6 kmh 29.78 in1008.5 mb 0.01 in0.3 mm 0.00 in0.0 mm 0.40 in10.2 mm
04:12 PM 52.3°F11.3°C 51.8°F11.0°C 98% 2.3 mph SSW3.7 kmh SSW 3.5 mph5.6 kmh 29.78 in1008.5 mb 0.01 in0.3 mm 0.00 in0.0 mm 0.40 in10.2 mm
04:11 PM 52.3°F11.3°C 51.8°F11.0°C 98% 2.3 mph SSW3.7 kmh SSW 3.5 mph5.6 kmh 29.78 in1008.5 mb 0.01 in0.3 mm 0.00 in0.0 mm 0.40 in10.2 mm
04:10 PM 52.3°F11.3°C 51.8°F11.0°C 98% 2.3 mph SSW3.7 kmh SSW 3.5 mph5.6 kmh 29.78 in1008.5 mb 0.01 in0.3 mm 0.00 in0.0 mm 0.40 in10.2 mm
04:09 PM 52.2°F11.2°C 51.6°F10.9°C 98% 2.3 mph SSW3.7 kmh SSW 3.5 mph5.6 kmh 29.78 in1008.5 mb 0.01 in0.3 mm 0.00 in0.0 mm 0.40 in10.2 mm
04:08 PM 52.3°F11.3°C 51.8°F11.0°C 98% 2.1 mph SSW3.4 kmh SSW 3.5 mph5.6 kmh 29.78 in1008.5 mb 0.01 in0.3 mm 0.00 in0.0 mm 0.40 in10.2 mm
04:07 PM 52.3°F11.3°C 51.8°F11.0°C 98% 2.1 mph SSW3.4 kmh SSW 3.5 mph5.6 kmh 29.77 in1008.1 mb 0.01 in0.3 mm 0.00 in0.0 mm 0.40 in10.2 mm
04:06 PM 52.3°F11.3°C 51.8°F11.0°C 98% 2.0 mph SSW3.2 kmh SSW 3.5 mph5.6 kmh 29.77 in1008.1 mb 0.01 in0.3 mm 0.00 in0.0 mm 0.40 in10.2 mm
04:05 PM 52.2°F11.2°C 51.6°F10.9°C 98% 2.0 mph SSW3.2 kmh SSW 3.5 mph5.6 kmh 29.77 in1008.1 mb 0.01 in0.3 mm 0.00 in0.0 mm 0.40 in10.2 mm
04:04 PM 52.0°F11.1°C 51.4°F10.8°C 98% 1.9 mph S3.1 kmh S 3.5 mph5.6 kmh 29.78 in1008.5 mb 0.01 in0.3 mm 0.00 in0.0 mm 0.40 in10.2 mm
04:03 PM 52.0°F11.1°C 51.4°F10.8°C 98% 1.8 mph S2.9 kmh S 3.5 mph5.6 kmh 29.77 in1008.1 mb 0.01 in0.3 mm 0.00 in0.0 mm 0.40 in10.2 mm
04:02 PM 52.0°F11.1°C 51.4°F10.8°C 98% 1.7 mph S2.7 kmh S 3.5 mph5.6 kmh 29.77 in1008.1 mb 0.01 in0.3 mm 0.00 in0.0 mm 0.40 in10.2 mm
04:01 PM 51.8°F11.0°C 51.3°F10.7°C 98% 1.6 mph S2.6 kmh S 3.5 mph5.6 kmh 29.77 in1008.1 mb 0.01 in0.3 mm 0.00 in0.0 mm 0.40 in10.2 mm
04:00 PM 52.0°F11.1°C 51.4°F10.8°C 98% 1.6 mph S2.6 kmh S 3.5 mph5.6 kmh 29.78 in1008.5 mb 0.01 in0.3 mm 0.00 in0.0 mm 0.40 in10.2 mm
03:59 PM 51.8°F11.0°C 51.3°F10.7°C 98% 1.6 mph S2.6 kmh S 3.5 mph5.6 kmh 29.78 in1008.5 mb 0.01 in0.3 mm 0.00 in0.0 mm 0.40 in10.2 mm
03:58 PM 52.0°F11.1°C 51.4°F10.8°C 98% 1.8 mph S2.9 kmh S 3.5 mph5.6 kmh 29.77 in1008.1 mb 0.01 in0.3 mm 0.00 in0.0 mm 0.40 in10.2 mm
03:57 PM 52.0°F11.1°C 51.4°F10.8°C 98% 1.8 mph SSW2.9 kmh SSW 3.5 mph5.6 kmh 29.77 in1008.1 mb 0.01 in0.3 mm 0.00 in0.0 mm 0.40 in10.2 mm
03:56 PM 52.0°F11.1°C 51.4°F10.8°C 98% 1.9 mph SSW3.1 kmh SSW 3.5 mph5.6 kmh 29.77 in1008.1 mb 0.01 in0.3 mm 0.00 in0.0 mm 0.40 in10.2 mm
03:55 PM 52.2°F11.2°C 51.6°F10.9°C 98% 1.7 mph SSW2.7 kmh SSW 2.6 mph4.2 kmh 29.77 in1008.1 mb 0.01 in0.3 mm 0.00 in0.0 mm 0.40 in10.2 mm
03:54 PM 52.2°F11.2°C 51.6°F10.9°C 98% 1.8 mph S2.9 kmh S 2.6 mph4.2 kmh 29.77 in1008.1 mb 0.01 in0.3 mm 0.00 in0.0 mm 0.40 in10.2 mm
03:53 PM 52.0°F11.1°C 51.4°F10.8°C 98% 2.0 mph S3.2 kmh S 2.6 mph4.2 kmh 29.77 in1008.1 mb 0.01 in0.3 mm 0.00 in0.0 mm 0.40 in10.2 mm
03:52 PM 52.0°F11.1°C 51.4°F10.8°C 98% 1.9 mph S3.1 kmh S 2.6 mph4.2 kmh 29.78 in1008.5 mb 0.01 in0.3 mm 0.00 in0.0 mm 0.40 in10.2 mm
03:51 PM 51.8°F11.0°C 51.3°F10.7°C 98% 2.2 mph S3.5 kmh S 3.5 mph5.6 kmh 29.78 in1008.5 mb 0.01 in0.3 mm 0.00 in0.0 mm 0.40 in10.2 mm
03:50 PM 52.0°F11.1°C 51.4°F10.8°C 98% 2.3 mph S3.7 kmh S 3.5 mph5.6 kmh 29.78 in1008.5 mb 0.01 in0.3 mm 0.00 in0.0 mm 0.40 in10.2 mm
03:49 PM 52.3°F11.3°C 51.8°F11.0°C 98% 2.4 mph S3.9 kmh S 3.5 mph5.6 kmh 29.78 in1008.5 mb 0.01 in0.3 mm 0.00 in0.0 mm 0.40 in10.2 mm
03:48 PM 52.3°F11.3°C 51.8°F11.0°C 98% 2.5 mph S4.0 kmh S 5.2 mph8.4 kmh 29.78 in1008.5 mb 0.01 in0.3 mm 0.00 in0.0 mm 0.40 in10.2 mm
03:47 PM 52.3°F11.3°C 51.8°F11.0°C 98% 2.8 mph S4.5 kmh S 5.2 mph8.4 kmh 29.78 in1008.5 mb 0.01 in0.3 mm 0.00 in0.0 mm 0.40 in10.2 mm
03:46 PM 52.2°F11.2°C 51.6°F10.9°C 98% 2.9 mph S4.7 kmh S 5.2 mph8.4 kmh 29.78 in1008.5 mb 0.01 in0.3 mm 0.00 in0.0 mm 0.40 in10.2 mm
03:45 PM 52.0°F11.1°C 51.4°F10.8°C 98% 3.0 mph S4.8 kmh S 5.2 mph8.4 kmh 29.78 in1008.5 mb 0.01 in0.3 mm 0.00 in0.0 mm 0.40 in10.2 mm
03:44 PM 52.0°F11.1°C 51.4°F10.8°C 98% 3.1 mph S5.0 kmh S 5.2 mph8.4 kmh 29.77 in1008.1 mb 0.01 in0.3 mm 0.00 in0.0 mm 0.40 in10.2 mm
03:43 PM 51.8°F11.0°C 51.3°F10.7°C 98% 3.1 mph S5.0 kmh S 5.2 mph8.4 kmh 29.77 in1008.1 mb 0.01 in0.3 mm 0.00 in0.0 mm 0.40 in10.2 mm
03:42 PM 51.8°F11.0°C 51.3°F10.7°C 98% 3.3 mph S5.3 kmh S 5.2 mph8.4 kmh 29.78 in1008.5 mb 0.01 in0.3 mm 0.00 in0.0 mm 0.40 in10.2 mm
03:41 PM 51.8°F11.0°C 51.3°F10.7°C 98% 3.4 mph S5.5 kmh S 5.2 mph8.4 kmh 29.78 in1008.5 mb 0.01 in0.3 mm 0.00 in0.0 mm 0.40 in10.2 mm
03:40 PM 52.3°F11.3°C 51.5°F10.8°C 97% 3.4 mph S5.5 kmh S 5.2 mph8.4 kmh 29.78 in1008.5 mb 0.01 in0.3 mm 0.00 in0.0 mm 0.40 in10.2 mm
03:39 PM 52.0°F11.1°C 51.2°F10.7°C 97% 3.5 mph S5.6 kmh S 5.2 mph8.4 kmh 29.78 in1008.5 mb 0.01 in0.3 mm 0.60 in15.2 mm 0.40 in10.2 mm
03:38 PM 52.3°F11.3°C 51.5°F10.8°C 97% 3.4 mph S5.5 kmh S 5.2 mph8.4 kmh 29.78 in1008.5 mb 0.00 in0.0 mm 0.00 in0.0 mm 0.39 in9.9 mm
03:37 PM 52.3°F11.3°C 51.5°F10.8°C 97% 3.6 mph SSW5.8 kmh SSW 7.0 mph11.3 kmh 29.78 in1008.5 mb 0.00 in0.0 mm 0.00 in0.0 mm 0.39 in9.9 mm
03:36 PM 52.5°F11.4°C 51.4°F10.8°C 96% 3.9 mph SSW6.3 kmh SSW 7.0 mph11.3 kmh 29.77 in1008.1 mb 0.00 in0.0 mm 0.00 in0.0 mm 0.39 in9.9 mm
03:35 PM 52.5°F11.4°C 51.4°F10.8°C 96% 4.2 mph SSW6.8 kmh SSW 7.0 mph11.3 kmh 29.78 in1008.5 mb 0.00 in0.0 mm 0.00 in0.0 mm 0.39 in9.9 mm
03:34 PM 52.7°F11.5°C 51.6°F10.9°C 96% 4.5 mph SSW7.2 kmh SSW 7.0 mph11.3 kmh 29.78 in1008.5 mb 0.00 in0.0 mm 0.00 in0.0 mm 0.39 in9.9 mm
03:33 PM 52.5°F11.4°C 51.1°F10.6°C 95% 4.8 mph SSW7.7 kmh SSW 7.0 mph11.3 kmh 29.78 in1008.5 mb 0.00 in0.0 mm 0.00 in0.0 mm 0.39 in9.9 mm
03:32 PM 52.5°F11.4°C 51.1°F10.6°C 95% 5.0 mph SSW8.0 kmh SSW 7.0 mph11.3 kmh 29.77 in1008.1 mb 0.00 in0.0 mm 0.00 in0.0 mm 0.39 in9.9 mm
03:31 PM 52.7°F11.5°C 51.3°F10.7°C 95% 5.1 mph SSW8.2 kmh SSW 7.0 mph11.3 kmh 29.77 in1008.1 mb 0.00 in0.0 mm 0.00 in0.0 mm 0.39 in9.9 mm
03:30 PM 52.7°F11.5°C 51.3°F10.7°C 95% 5.3 mph SSW8.5 kmh SSW 7.0 mph11.3 kmh 29.77 in1008.1 mb 0.00 in0.0 mm 0.00 in0.0 mm 0.39 in9.9 mm
03:29 PM 52.7°F11.5°C 51.0°F10.6°C 94% 5.3 mph SSW8.5 kmh SSW 7.0 mph11.3 kmh 29.78 in1008.5 mb 0.00 in0.0 mm 0.00 in0.0 mm 0.39 in9.9 mm
03:28 PM 52.5°F11.4°C 50.8°F10.4°C 94% 5.4 mph SSW8.7 kmh SSW 7.0 mph11.3 kmh 29.77 in1008.1 mb 0.00 in0.0 mm 0.00 in0.0 mm 0.39 in9.9 mm
03:27 PM 52.7°F11.5°C 51.0°F10.6°C 94% 5.3 mph S8.5 kmh S 7.0 mph11.3 kmh 29.77 in1008.1 mb 0.00 in0.0 mm 0.00 in0.0 mm 0.39 in9.9 mm
03:26 PM 52.5°F11.4°C 50.8°F10.4°C 94% 5.3 mph SSW8.5 kmh SSW 7.0 mph11.3 kmh 29.78 in1008.5 mb 0.00 in0.0 mm 0.00 in0.0 mm 0.39 in9.9 mm
03:25 PM 53.1°F11.7°C 51.1°F10.6°C 93% 5.2 mph SSW8.4 kmh SSW 7.0 mph11.3 kmh 29.78 in1008.5 mb 0.00 in0.0 mm 0.00 in0.0 mm 0.39 in9.9 mm
03:24 PM 53.1°F11.7°C 51.1°F10.6°C 93% 5.1 mph S8.2 kmh S 7.0 mph11.3 kmh 29.78 in1008.5 mb 0.00 in0.0 mm 0.00 in0.0 mm 0.39 in9.9 mm
03:23 PM 53.1°F11.7°C 51.1°F10.6°C 93% 5.1 mph SSW8.2 kmh SSW 7.0 mph11.3 kmh 29.77 in1008.1 mb 0.00 in0.0 mm 0.00 in0.0 mm 0.39 in9.9 mm
03:22 PM 53.4°F11.9°C 51.4°F10.8°C 93% 5.2 mph SSW8.4 kmh SSW 7.0 mph11.3 kmh 29.77 in1008.1 mb 0.00 in0.0 mm 0.00 in0.0 mm 0.39 in9.9 mm
03:21 PM 53.6°F12.0°C 51.0°F10.6°C 91% 5.3 mph SSW8.5 kmh SSW 7.0 mph11.3 kmh 29.78 in1008.5 mb 0.00 in0.0 mm 0.00 in0.0 mm 0.39 in9.9 mm
03:20 PM 53.4°F11.9°C 50.9°F10.5°C 91% 5.4 mph SSW8.7 kmh SSW 7.0 mph11.3 kmh 29.78 in1008.5 mb 0.00 in0.0 mm 0.00 in0.0 mm 0.39 in9.9 mm
03:19 PM 53.6°F12.0°C 50.7°F10.4°C 90% 5.6 mph SSW9.0 kmh SSW 7.0 mph11.3 kmh 29.77 in1008.1 mb 0.00 in0.0 mm 0.00 in0.0 mm 0.39 in9.9 mm
03:18 PM 53.8°F12.1°C 50.6°F10.3°C 89% 5.8 mph SSW9.3 kmh SSW 7.0 mph11.3 kmh 29.77 in1008.1 mb 0.00 in0.0 mm 0.00 in0.0 mm 0.39 in9.9 mm
03:17 PM 54.0°F12.2°C 50.8°F10.4°C 89% 6.0 mph SW9.7 kmh SW 7.0 mph11.3 kmh 29.77 in1008.1 mb 0.00 in0.0 mm 0.00 in0.0 mm 0.39 in9.9 mm
03:16 PM 54.1°F12.3°C 50.7°F10.4°C 88% 6.0 mph SSW9.7 kmh SSW 7.0 mph11.3 kmh 29.77 in1008.1 mb 0.00 in0.0 mm 0.00 in0.0 mm 0.39 in9.9 mm
03:15 PM 54.3°F12.4°C 50.8°F10.4°C 88% 6.0 mph SSW9.7 kmh SSW 7.0 mph11.3 kmh 29.77 in1008.1 mb 0.00 in0.0 mm 0.00 in0.0 mm 0.39 in9.9 mm
03:14 PM 54.5°F12.5°C 50.7°F10.4°C 87% 5.9 mph SW9.5 kmh SW 7.0 mph11.3 kmh 29.77 in1008.1 mb 0.00 in0.0 mm 0.00 in0.0 mm 0.39 in9.9 mm
03:13 PM 54.7°F12.6°C 50.3°F10.2°C 85% 5.7 mph SSW9.2 kmh SSW 7.0 mph11.3 kmh 29.76 in1007.8 mb 0.00 in0.0 mm 0.00 in0.0 mm 0.39 in9.9 mm
03:12 PM 54.9°F12.7°C 50.1°F10.1°C 84% 5.4 mph SSW8.7 kmh SSW 7.0 mph11.3 kmh 29.76 in1007.8 mb 0.00 in0.0 mm 0.00 in0.0 mm 0.39 in9.9 mm
03:11 PM 55.6°F13.1°C 50.5°F10.3°C 83% 5.3 mph S8.5 kmh S 7.0 mph11.3 kmh 29.76 in1007.8 mb 0.00 in0.0 mm 0.00 in0.0 mm 0.39 in9.9 mm
03:10 PM 55.6°F13.1°C 50.2°F10.1°C 82% 5.1 mph SE8.2 kmh SE 7.0 mph11.3 kmh 29.76 in1007.8 mb 0.00 in0.0 mm 0.00 in0.0 mm 0.39 in9.9 mm
03:09 PM 56.8°F13.8°C 51.4°F10.8°C 82% 5.0 mph ESE8.0 kmh ESE 7.0 mph11.3 kmh 29.77 in1008.1 mb 0.00 in0.0 mm 0.00 in0.0 mm 0.39 in9.9 mm
03:08 PM 58.5°F14.7°C 52.0°F11.1°C 79% 4.7 mph E7.6 kmh E 7.0 mph11.3 kmh 29.76 in1007.8 mb 0.00 in0.0 mm 0.00 in0.0 mm 0.39 in9.9 mm
03:07 PM 58.6°F14.8°C 52.1°F11.2°C 79% 4.4 mph E7.1 kmh E 6.1 mph9.8 kmh 29.76 in1007.8 mb 0.00 in0.0 mm 0.00 in0.0 mm 0.39 in9.9 mm
03:06 PM 58.5°F14.7°C 52.3°F11.3°C 80% 4.0 mph ENE6.4 kmh ENE 6.1 mph9.8 kmh 29.76 in1007.8 mb 0.00 in0.0 mm 0.00 in0.0 mm 0.39 in9.9 mm
03:05 PM 58.8°F14.9°C 52.3°F11.3°C 79% 3.7 mph ENE6.0 kmh ENE 5.2 mph8.4 kmh 29.76 in1007.8 mb 0.00 in0.0 mm 0.00 in0.0 mm 0.39 in9.9 mm
03:04 PM 58.6°F14.8°C 51.8°F11.0°C 78% 3.6 mph E5.8 kmh E 5.2 mph8.4 kmh 29.76 in1007.8 mb 0.00 in0.0 mm 0.00 in0.0 mm 0.39 in9.9 mm
03:03 PM 58.6°F14.8°C 51.8°F11.0°C 78% 3.6 mph E5.8 kmh E 5.2 mph8.4 kmh 29.76 in1007.8 mb 0.00 in0.0 mm 0.00 in0.0 mm 0.39 in9.9 mm
03:02 PM 58.6°F14.8°C 51.8°F11.0°C 78% 3.8 mph E6.1 kmh E 5.2 mph8.4 kmh 29.75 in1007.5 mb 0.00 in0.0 mm 0.00 in0.0 mm 0.39 in9.9 mm
03:01 PM 58.6°F14.8°C 51.8°F11.0°C 78% 3.7 mph E6.0 kmh E 5.2 mph8.4 kmh 29.75 in1007.5 mb 0.00 in0.0 mm 0.00 in0.0 mm 0.39 in9.9 mm
03:00 PM 58.6°F14.8°C 51.8°F11.0°C 78% 3.5 mph E5.6 kmh E 5.2 mph8.4 kmh 29.75 in1007.5 mb 0.00 in0.0 mm 0.00 in0.0 mm 0.39 in9.9 mm
02:59 PM 58.6°F14.8°C 51.8°F11.0°C 78% 3.3 mph E5.3 kmh E 5.2 mph8.4 kmh 29.75 in1007.5 mb 0.00 in0.0 mm 0.00 in0.0 mm 0.39 in9.9 mm
02:58 PM 58.5°F14.7°C 51.6°F10.9°C 78% 3.4 mph E5.5 kmh E 5.2 mph8.4 kmh 29.75 in1007.5 mb 0.00 in0.0 mm 0.00 in0.0 mm 0.39 in9.9 mm
02:57 PM 58.5°F14.7°C 51.6°F10.9°C 78% 3.3 mph E5.3 kmh E 5.2 mph8.4 kmh 29.76 in1007.8 mb 0.00 in0.0 mm 0.00 in0.0 mm 0.39 in9.9 mm
02:56 PM 58.5°F14.7°C 52.0°F11.1°C 79% 3.4 mph E5.5 kmh E 5.2 mph8.4 kmh 29.76 in1007.8 mb 0.00 in0.0 mm 0.00 in0.0 mm 0.39 in9.9 mm
02:55 PM 58.5°F14.7°C 51.6°F10.9°C 78% 3.3 mph E5.3 kmh E 5.2 mph8.4 kmh 29.76 in1007.8 mb 0.00 in0.0 mm 0.00 in0.0 mm 0.39 in9.9 mm
02:54 PM 58.5°F14.7°C 51.6°F10.9°C 78% 3.3 mph ENE5.3 kmh ENE 5.2 mph8.4 kmh 29.75 in1007.5 mb 0.00 in0.0 mm 0.00 in0.0 mm 0.39 in9.9 mm
02:53 PM 58.5°F14.7°C 51.6°F10.9°C 78% 3.2 mph NE5.1 kmh NE 5.2 mph8.4 kmh 29.75 in1007.5 mb 0.00 in0.0 mm 0.00 in0.0 mm 0.39 in9.9 mm
02:52 PM 58.6°F14.8°C 51.8°F11.0°C 78% 3.0 mph NE4.8 kmh NE 4.4 mph7.1 kmh 29.75 in1007.5 mb 0.00 in0.0 mm 0.00 in0.0 mm 0.39 in9.9 mm
02:51 PM 58.6°F14.8°C 51.8°F11.0°C 78% 2.9 mph NE4.7 kmh NE 4.4 mph7.1 kmh 29.75 in1007.5 mb 0.00 in0.0 mm 0.00 in0.0 mm 0.39 in9.9 mm
02:50 PM 58.5°F14.7°C 52.0°F11.1°C 79% 2.9 mph NE4.7 kmh NE 4.4 mph7.1 kmh 29.75 in1007.5 mb 0.00 in0.0 mm 0.00 in0.0 mm 0.39 in9.9 mm
02:49 PM 58.5°F14.7°C 52.3°F11.3°C 80% 2.9 mph NE4.7 kmh NE 4.4 mph7.1 kmh 29.75 in1007.5 mb 0.00 in0.0 mm 0.00 in0.0 mm 0.39 in9.9 mm
02:48 PM 58.5°F14.7°C 52.3°F11.3°C 80% 2.8 mph NE4.5 kmh NE 4.4 mph7.1 kmh 29.75 in1007.5 mb 0.00 in0.0 mm 0.00 in0.0 mm 0.39 in9.9 mm
02:47 PM 58.3°F14.6°C 52.1°F11.2°C 80% 3.0 mph ENE4.8 kmh ENE 5.2 mph8.4 kmh 29.75 in1007.5 mb 0.00 in0.0 mm 0.00 in0.0 mm 0.39 in9.9 mm
02:46 PM 58.1°F14.5°C 52.0°F11.1°C 80% 3.1 mph E5.0 kmh E 5.2 mph8.4 kmh 29.75 in1007.5 mb 0.00 in0.0 mm 0.00 in0.0 mm 0.39 in9.9 mm
02:45 PM 58.1°F14.5°C 52.3°F11.3°C 81% 3.2 mph E5.1 kmh E 5.2 mph8.4 kmh 29.75 in1007.5 mb 0.00 in0.0 mm 0.00 in0.0 mm 0.39 in9.9 mm
02:44 PM 58.1°F14.5°C 52.3°F11.3°C 81% 3.1 mph ESE5.0 kmh ESE 5.2 mph8.4 kmh 29.75 in1007.5 mb 0.00 in0.0 mm 0.00 in0.0 mm 0.39 in9.9 mm
02:43 PM 57.9°F14.4°C 52.1°F11.2°C 81% 3.1 mph ESE5.0 kmh ESE 5.2 mph8.4 kmh 29.75 in1007.5 mb 0.00 in0.0 mm 0.00 in0.0 mm 0.39 in9.9 mm
02:42 PM 58.1°F14.5°C 52.3°F11.3°C 81% 3.0 mph ESE4.8 kmh ESE 5.2 mph8.4 kmh 29.75 in1007.5 mb 0.00 in0.0 mm 0.00 in0.0 mm 0.39 in9.9 mm
02:41 PM 58.1°F14.5°C 52.3°F11.3°C 81% 3.0 mph ESE4.8 kmh ESE 5.2 mph8.4 kmh 29.75 in1007.5 mb 0.00 in0.0 mm 0.00 in0.0 mm 0.39 in9.9 mm
02:40 PM 58.1°F14.5°C 52.3°F11.3°C 81% 2.9 mph ESE4.7 kmh ESE 5.2 mph8.4 kmh 29.75 in1007.5 mb 0.00 in0.0 mm 0.00 in0.0 mm 0.39 in9.9 mm
02:39 PM 57.9°F14.4°C 52.1°F11.2°C 81% 2.9 mph SE4.7 kmh SE 5.2 mph8.4 kmh 29.76 in1007.8 mb 0.00 in0.0 mm 0.00 in0.0 mm 0.39 in9.9 mm
02:38 PM 57.7°F14.3°C 52.3°F11.3°C 82% 2.9 mph SE4.7 kmh SE 5.2 mph8.4 kmh 29.76 in1007.8 mb 0.00 in0.0 mm 0.00 in0.0 mm 0.39 in9.9 mm
02:37 PM 57.6°F14.2°C 52.1°F11.2°C 82% 2.7 mph SE4.3 kmh SE 5.2 mph8.4 kmh 29.75 in1007.5 mb 0.00 in0.0 mm 0.00 in0.0 mm 0.39 in9.9 mm
02:36 PM 57.7°F14.3°C 52.3°F11.3°C 82% 2.3 mph SE3.7 kmh SE 3.5 mph5.6 kmh 29.75 in1007.5 mb 0.00 in0.0 mm 0.00 in0.0 mm 0.39 in9.9 mm
02:35 PM 57.7°F14.3°C 52.3°F11.3°C 82% 2.2 mph SE3.5 kmh SE 3.5 mph5.6 kmh 29.75 in1007.5 mb 0.00 in0.0 mm 0.00 in0.0 mm 0.39 in9.9 mm
02:34 PM 57.9°F14.4°C 52.1°F11.2°C 81% 2.1 mph SSE3.4 kmh SSE 2.6 mph4.2 kmh 29.75 in1007.5 mb 0.00 in0.0 mm 0.00 in0.0 mm 0.39 in9.9 mm
02:33 PM 57.9°F14.4°C 52.1°F11.2°C 81% 2.2 mph SSE3.5 kmh SSE 3.5 mph5.6 kmh 29.75 in1007.5 mb 0.00 in0.0 mm 0.00 in0.0 mm 0.39 in9.9 mm
02:32 PM 57.6°F14.2°C 52.1°F11.2°C 82% 2.2 mph S3.5 kmh S 3.5 mph5.6 kmh 29.75 in1007.5 mb 0.00 in0.0 mm 0.00 in0.0 mm 0.39 in9.9 mm
02:31 PM 57.6°F14.2°C 52.4°F11.3°C 83% 2.3 mph SSE3.7 kmh SSE 3.5 mph5.6 kmh 29.75 in1007.5 mb 0.00 in0.0 mm 0.00 in0.0 mm 0.39 in9.9 mm
02:30 PM 57.6°F14.2°C 52.4°F11.3°C 83% 2.6 mph SSE4.2 kmh SSE 4.4 mph7.1 kmh 29.75 in1007.5 mb 0.00 in0.0 mm 0.00 in0.0 mm 0.39 in9.9 mm
02:29 PM 57.4°F14.1°C 52.3°F11.3°C 83% 2.6 mph SE4.2 kmh SE 4.4 mph7.1 kmh 29.75 in1007.5 mb 0.00 in0.0 mm 0.00 in0.0 mm 0.39 in9.9 mm
02:28 PM 57.7°F14.3°C 52.3°F11.3°C 82% 2.7 mph SE4.3 kmh SE 4.4 mph7.1 kmh 29.75 in1007.5 mb 0.00 in0.0 mm 0.00 in0.0 mm 0.39 in9.9 mm
02:27 PM 57.6°F14.2°C 51.8°F11.0°C 81% 2.7 mph SE4.3 kmh SE 4.4 mph7.1 kmh 29.75 in1007.5 mb 0.00 in0.0 mm 0.00 in0.0 mm 0.39 in9.9 mm
02:26 PM 57.6°F14.2°C 51.8°F11.0°C 81% 2.8 mph SE4.5 kmh SE 4.4 mph7.1 kmh 29.76 in1007.8 mb 0.00 in0.0 mm 0.00 in0.0 mm 0.39 in9.9 mm
02:25 PM 57.6°F14.2°C 51.8°F11.0°C 81% 3.1 mph SE5.0 kmh SE 4.4 mph7.1 kmh 29.75 in1007.5 mb 0.00 in0.0 mm 0.00 in0.0 mm 0.39 in9.9 mm
02:24 PM 57.7°F14.3°C 51.3°F10.7°C 79% 3.2 mph SE5.1 kmh SE 4.4 mph7.1 kmh 29.75 in1007.5 mb 0.00 in0.0 mm 0.00 in0.0 mm 0.39 in9.9 mm
02:23 PM 57.9°F14.4°C 51.4°F10.8°C 79% 3.3 mph SE5.3 kmh SE 4.4 mph7.1 kmh 29.75 in1007.5 mb 0.00 in0.0 mm 0.00 in0.0 mm 0.39 in9.9 mm
02:22 PM 57.9°F14.4°C 51.4°F10.8°C 79% 3.3 mph SE5.3 kmh SE 4.4 mph7.1 kmh 29.75 in1007.5 mb 0.00 in0.0 mm 0.00 in0.0 mm 0.39 in9.9 mm
02:21 PM 57.7°F14.3°C 51.3°F10.7°C 79% 3.3 mph SE5.3 kmh SE 4.4 mph7.1 kmh 29.75 in1007.5 mb 0.00 in0.0 mm 0.00 in0.0 mm 0.39 in9.9 mm
02:20 PM 57.7°F14.3°C 51.6°F10.9°C 80% 3.1 mph SE5.0 kmh SE 4.4 mph7.1 kmh 29.75 in1007.5 mb 0.00 in0.0 mm 0.00 in0.0 mm 0.39 in9.9 mm
02:19 PM 57.6°F14.2°C 51.8°F11.0°C 81% 3.1 mph SE5.0 kmh SE 4.4 mph7.1 kmh 29.75 in1007.5 mb 0.00 in0.0 mm 0.00 in0.0 mm 0.39 in9.9 mm
02:18 PM 57.6°F14.2°C 51.8°F11.0°C 81% 3.0 mph SSE4.8 kmh SSE 4.4 mph7.1 kmh 29.75 in1007.5 mb 0.00 in0.0 mm 0.00 in0.0 mm 0.39 in9.9 mm
02:17 PM 57.6°F14.2°C 51.8°F11.0°C 81% 3.0 mph SSE4.8 kmh SSE 4.4 mph7.1 kmh 29.75 in1007.5 mb 0.00 in0.0 mm 0.00 in0.0 mm 0.39 in9.9 mm
02:16 PM 57.4°F14.1°C 51.9°F11.1°C 82% 2.9 mph SSE4.7 kmh SSE 4.4 mph7.1 kmh 29.75 in1007.5 mb 0.00 in0.0 mm 0.00 in0.0 mm 0.39 in9.9 mm
02:15 PM 57.2°F14.0°C 51.8°F11.0°C 82% 2.6 mph S4.2 kmh S 3.5 mph5.6 kmh 29.75 in1007.5 mb 0.00 in0.0 mm 0.00 in0.0 mm 0.39 in9.9 mm
02:14 PM 57.2°F14.0°C 51.8°F11.0°C 82% 2.3 mph SSE3.7 kmh SSE 3.5 mph5.6 kmh 29.75 in1007.5 mb 0.00 in0.0 mm 0.00 in0.0 mm 0.39 in9.9 mm
02:13 PM 57.2°F14.0°C 52.1°F11.2°C 83% 2.1 mph S3.4 kmh S 3.5 mph5.6 kmh 29.75 in1007.5 mb 0.00 in0.0 mm 0.00 in0.0 mm 0.39 in9.9 mm
02:12 PM 57.0°F13.9°C 52.6°F11.4°C 85% 2.0 mph S3.2 kmh S 3.5 mph5.6 kmh 29.75 in1007.5 mb 0.00 in0.0 mm 0.00 in0.0 mm 0.39 in9.9 mm
02:11 PM 57.0°F13.9°C 52.6°F11.4°C 85% 1.9 mph S3.1 kmh S 3.5 mph5.6 kmh 29.75 in1007.5 mb 0.00 in0.0 mm 0.00 in0.0 mm 0.39 in9.9 mm
02:10 PM 56.8°F13.8°C 52.4°F11.3°C 85% 2.0 mph S3.2 kmh S 3.5 mph5.6 kmh 29.74 in1007.1 mb 0.00 in0.0 mm 0.00 in0.0 mm 0.39 in9.9 mm
02:09 PM 56.8°F13.8°C 52.4°F11.3°C 85% 2.2 mph SSE3.5 kmh SSE 5.2 mph8.4 kmh 29.74 in1007.1 mb 0.00 in0.0 mm 0.00 in0.0 mm 0.39 in9.9 mm
02:08 PM 57.0°F13.9°C 52.6°F11.4°C 85% 2.4 mph SSE3.9 kmh SSE 5.2 mph8.4 kmh 29.74 in1007.1 mb 0.00 in0.0 mm 0.00 in0.0 mm 0.39 in9.9 mm
02:07 PM 57.0°F13.9°C 52.6°F11.4°C 85% 2.4 mph SE3.9 kmh SE 5.2 mph8.4 kmh 29.74 in1007.1 mb 0.00 in0.0 mm 0.00 in0.0 mm 0.39 in9.9 mm
02:06 PM 56.8°F13.8°C 52.1°F11.2°C 84% 2.5 mph SE4.0 kmh SE 5.2 mph8.4 kmh 29.75 in1007.5 mb 0.00 in0.0 mm 0.00 in0.0 mm 0.39 in9.9 mm
02:05 PM 57.0°F13.9°C 52.2°F11.2°C 84% 2.6 mph SE4.2 kmh SE 5.2 mph8.4 kmh 29.75 in1007.5 mb 0.00 in0.0 mm 0.00 in0.0 mm 0.39 in9.9 mm
02:04 PM 57.2°F14.0°C 51.4°F10.8°C 81% 2.8 mph SE4.5 kmh SE 5.2 mph8.4 kmh 29.74 in1007.1 mb 0.00 in0.0 mm 0.00 in0.0 mm 0.39 in9.9 mm
02:03 PM 57.0°F13.9°C 51.6°F10.9°C 82% 3.0 mph SE4.8 kmh SE 5.2 mph8.4 kmh 29.74 in1007.1 mb 0.00 in0.0 mm 0.00 in0.0 mm 0.39 in9.9 mm
02:02 PM 57.2°F14.0°C 51.1°F10.6°C 80% 3.5 mph E5.6 kmh E 7.0 mph11.3 kmh 29.74 in1007.1 mb 0.00 in0.0 mm 0.00 in0.0 mm 0.39 in9.9 mm
02:01 PM 57.2°F14.0°C 50.7°F10.4°C 79% 3.7 mph ENE6.0 kmh ENE 7.0 mph11.3 kmh 29.75 in1007.5 mb 0.00 in0.0 mm 0.00 in0.0 mm 0.39 in9.9 mm
02:00 PM 57.2°F14.0°C 50.4°F10.2°C 78% 4.0 mph NE6.4 kmh NE 7.0 mph11.3 kmh 29.74 in1007.1 mb 0.00 in0.0 mm 0.00 in0.0 mm 0.39 in9.9 mm
01:59 PM 57.2°F14.0°C 50.1°F10.1°C 77% 4.2 mph NNE6.8 kmh NNE 7.0 mph11.3 kmh 29.74 in1007.1 mb 0.00 in0.0 mm 0.00 in0.0 mm 0.39 in9.9 mm
01:58 PM 57.4°F14.1°C 50.2°F10.1°C 77% 4.3 mph N6.9 kmh N 7.0 mph11.3 kmh 29.74 in1007.1 mb 0.00 in0.0 mm 0.00 in0.0 mm 0.39 in9.9 mm
01:57 PM 57.4°F14.1°C 50.2°F10.1°C 77% 4.7 mph N7.6 kmh N 7.0 mph11.3 kmh 29.74 in1007.1 mb 0.00 in0.0 mm 0.00 in0.0 mm 0.39 in9.9 mm
01:56 PM 57.4°F14.1°C 49.9°F9.9°C 76% 5.2 mph N8.4 kmh N 7.0 mph11.3 kmh 29.74 in1007.1 mb 0.00 in0.0 mm 0.00 in0.0 mm 0.39 in9.9 mm
01:55 PM 57.4°F14.1°C 49.5°F9.7°C 75% 5.5 mph N8.9 kmh N 7.0 mph11.3 kmh 29.74 in1007.1 mb 0.00 in0.0 mm 0.00 in0.0 mm 0.39 in9.9 mm
01:54 PM 57.6°F14.2°C 49.7°F9.8°C 75% 5.8 mph N9.3 kmh N 7.0 mph11.3 kmh 29.74 in1007.1 mb 0.00 in0.0 mm 0.00 in0.0 mm 0.39 in9.9 mm
01:53 PM 57.6°F14.2°C 49.7°F9.8°C 75% 6.1 mph N9.8 kmh N 8.7 mph14.0 kmh 29.73 in1006.8 mb 0.00 in0.0 mm 0.00 in0.0 mm 0.39 in9.9 mm
01:52 PM 57.4°F14.1°C 49.5°F9.7°C 75% 6.2 mph N10.0 kmh N 8.7 mph14.0 kmh 29.74 in1007.1 mb 0.00 in0.0 mm 0.00 in0.0 mm 0.39 in9.9 mm
01:51 PM 57.4°F14.1°C 49.5°F9.7°C 75% 6.1 mph N9.8 kmh N 8.7 mph14.0 kmh 29.73 in1006.8 mb 0.00 in0.0 mm 0.00 in0.0 mm 0.39 in9.9 mm
01:50 PM 57.4°F14.1°C 49.5°F9.7°C 75% 6.5 mph N10.5 kmh N 8.7 mph14.0 kmh 29.73 in1006.8 mb 0.00 in0.0 mm 0.00 in0.0 mm 0.39 in9.9 mm
01:49 PM 57.4°F14.1°C 49.5°F9.7°C 75% 6.4 mph N10.3 kmh N 8.7 mph14.0 kmh 29.73 in1006.8 mb 0.00 in0.0 mm 0.00 in0.0 mm 0.39 in9.9 mm
01:48 PM 57.6°F14.2°C 50.0°F10.0°C 76% 6.4 mph N10.3 kmh N 8.7 mph14.0 kmh 29.73 in1006.8 mb 0.00 in0.0 mm 0.00 in0.0 mm 0.39 in9.9 mm
01:47 PM 57.6°F14.2°C 50.0°F10.0°C 76% 6.4 mph N10.3 kmh N 8.7 mph14.0 kmh 29.73 in1006.8 mb 0.00 in0.0 mm 0.00 in0.0 mm 0.39 in9.9 mm
01:46 PM 57.6°F14.2°C 50.0°F10.0°C 76% 6.7 mph N10.8 kmh N 9.6 mph15.4 kmh 29.73 in1006.8 mb 0.00 in0.0 mm 0.00 in0.0 mm 0.39 in9.9 mm
01:45 PM 57.4°F14.1°C 49.9°F9.9°C 76% 7.1 mph N11.4 kmh N 10.5 mph16.9 kmh 29.73 in1006.8 mb 0.00 in0.0 mm 0.00 in0.0 mm 0.39 in9.9 mm
01:44 PM 57.4°F14.1°C 49.5°F9.7°C 75% 7.2 mph N11.6 kmh N 10.5 mph16.9 kmh 29.73 in1006.8 mb 0.00 in0.0 mm 0.00 in0.0 mm 0.39 in9.9 mm
01:43 PM 57.6°F14.2°C 49.7°F9.8°C 75% 7.2 mph N11.6 kmh N 10.5 mph16.9 kmh 29.73 in1006.8 mb 0.00 in0.0 mm 0.00 in0.0 mm 0.39 in9.9 mm
01:42 PM 57.4°F14.1°C 49.5°F9.7°C 75% 7.2 mph NNE11.6 kmh NNE 10.5 mph16.9 kmh 29.73 in1006.8 mb 0.00 in0.0 mm 0.00 in0.0 mm 0.39 in9.9 mm
01:41 PM 57.4°F14.1°C 49.5°F9.7°C 75% 7.1 mph NNE11.4 kmh NNE 10.5 mph16.9 kmh 29.73 in1006.8 mb 0.00 in0.0 mm 0.00 in0.0 mm 0.39 in9.9 mm
01:40 PM 57.4°F14.1°C 49.5°F9.7°C 75% 6.8 mph NNE10.9 kmh NNE 10.5 mph16.9 kmh 29.73 in1006.8 mb 0.00 in0.0 mm 0.00 in0.0 mm 0.39 in9.9 mm
01:39 PM 57.4°F14.1°C 49.5°F9.7°C 75% 7.1 mph NNE11.4 kmh NNE 10.5 mph16.9 kmh 29.73 in1006.8 mb 0.00 in0.0 mm 0.00 in0.0 mm 0.39 in9.9 mm
01:38 PM 57.4°F14.1°C 49.5°F9.7°C 75% 7.1 mph NNE11.4 kmh NNE 10.5 mph16.9 kmh 29.73 in1006.8 mb 0.00 in0.0 mm 0.00 in0.0 mm 0.39 in9.9 mm
01:37 PM 57.2°F14.0°C 49.3°F9.6°C 75% 7.3 mph NNE11.7 kmh NNE 10.5 mph16.9 kmh 29.73 in1006.8 mb 0.00 in0.0 mm 0.00 in0.0 mm 0.39 in9.9 mm
01:36 PM 57.2°F14.0°C 49.3°F9.6°C 75% 7.1 mph NNE11.4 kmh NNE 10.5 mph16.9 kmh 29.73 in1006.8 mb 0.00 in0.0 mm 0.00 in0.0 mm 0.39 in9.9 mm
01:35 PM 57.2°F14.0°C 49.3°F9.6°C 75% 6.8 mph NNE10.9 kmh NNE 9.6 mph15.4 kmh 29.74 in1007.1 mb 0.00 in0.0 mm 0.00 in0.0 mm 0.39 in9.9 mm
01:34 PM 57.2°F14.0°C 49.3°F9.6°C 75% 6.5 mph NNE10.5 kmh NNE 9.6 mph15.4 kmh 29.73 in1006.8 mb 0.00 in0.0 mm 0.00 in0.0 mm 0.39 in9.9 mm
01:33 PM 57.4°F14.1°C 49.5°F9.7°C 75% 6.3 mph NNE10.1 kmh NNE 9.6 mph15.4 kmh 29.73 in1006.8 mb 0.00 in0.0 mm 0.00 in0.0 mm 0.39 in9.9 mm
01:32 PM 57.2°F14.0°C 49.3°F9.6°C 75% 6.2 mph N10.0 kmh N 9.6 mph15.4 kmh 29.73 in1006.8 mb 0.00 in0.0 mm 0.00 in0.0 mm 0.39 in9.9 mm
01:31 PM 57.2°F14.0°C 49.7°F9.8°C 76% 6.4 mph N10.3 kmh N 9.6 mph15.4 kmh 29.74 in1007.1 mb 0.00 in0.0 mm 0.00 in0.0 mm 0.39 in9.9 mm
01:30 PM 57.2°F14.0°C 49.7°F9.8°C 76% 6.5 mph N10.5 kmh N 9.6 mph15.4 kmh 29.74 in1007.1 mb 0.00 in0.0 mm 0.00 in0.0 mm 0.39 in9.9 mm
01:29 PM 57.2°F14.0°C 49.7°F9.8°C 76% 6.3 mph N10.1 kmh N 9.6 mph15.4 kmh 29.74 in1007.1 mb 0.00 in0.0 mm 0.00 in0.0 mm 0.39 in9.9 mm
01:28 PM 57.2°F14.0°C 49.7°F9.8°C 76% 6.1 mph N9.8 kmh N 8.7 mph14.0 kmh 29.74 in1007.1 mb 0.00 in0.0 mm 0.00 in0.0 mm 0.39 in9.9 mm
01:27 PM 57.0°F13.9°C 49.9°F9.9°C 77% 5.7 mph N9.2 kmh N 7.9 mph12.7 kmh 29.74 in1007.1 mb 0.00 in0.0 mm 0.00 in0.0 mm 0.39 in9.9 mm
01:26 PM 57.2°F14.0°C 49.7°F9.8°C 76% 5.5 mph N8.9 kmh N 7.0 mph11.3 kmh 29.74 in1007.1 mb 0.00 in0.0 mm 0.00 in0.0 mm 0.39 in9.9 mm
01:25 PM 57.2°F14.0°C 49.7°F9.8°C 76% 5.4 mph N8.7 kmh N 7.0 mph11.3 kmh 29.74 in1007.1 mb 0.00 in0.0 mm 0.00 in0.0 mm 0.39 in9.9 mm
01:24 PM 57.0°F13.9°C 50.2°F10.1°C 78% 5.4 mph N8.7 kmh N 7.0 mph11.3 kmh 29.74 in1007.1 mb 0.00 in0.0 mm 0.00 in0.0 mm 0.39 in9.9 mm
01:23 PM 57.0°F13.9°C 50.2°F10.1°C 78% 5.7 mph N9.2 kmh N 8.7 mph14.0 kmh 29.75 in1007.5 mb 0.00 in0.0 mm 0.00 in0.0 mm 0.39 in9.9 mm
01:22 PM 57.0°F13.9°C 50.2°F10.1°C 78% 5.9 mph N9.5 kmh N 8.7 mph14.0 kmh 29.75 in1007.5 mb 0.00 in0.0 mm 0.00 in0.0 mm 0.39 in9.9 mm
01:21 PM 57.0°F13.9°C 50.2°F10.1°C 78% 5.8 mph N9.3 kmh N 8.7 mph14.0 kmh 29.75 in1007.5 mb 0.00 in0.0 mm 0.00 in0.0 mm 0.39 in9.9 mm
01:20 PM 57.4°F14.1°C 50.6°F10.3°C 78% 5.8 mph NNE9.3 kmh NNE 8.7 mph14.0 kmh 29.75 in1007.5 mb 0.00 in0.0 mm 0.00 in0.0 mm 0.39 in9.9 mm
01:19 PM 57.4°F14.1°C 50.6°F10.3°C 78% 5.7 mph NNE9.2 kmh NNE 8.7 mph14.0 kmh 29.75 in1007.5 mb 0.00 in0.0 mm 0.00 in0.0 mm 0.39 in9.9 mm
01:18 PM 57.4°F14.1°C 50.6°F10.3°C 78% 5.7 mph N9.2 kmh N 8.7 mph14.0 kmh 29.75 in1007.5 mb 0.00 in0.0 mm 0.00 in0.0 mm 0.39 in9.9 mm
01:17 PM 57.2°F14.0°C 50.4°F10.2°C 78% 5.8 mph N9.3 kmh N 8.7 mph14.0 kmh 29.75 in1007.5 mb 0.00 in0.0 mm 0.00 in0.0 mm 0.39 in9.9 mm
01:16 PM 57.0°F13.9°C 50.6°F10.3°C 79% 5.8 mph N9.3 kmh N 8.7 mph14.0 kmh 29.75 in1007.5 mb 0.00 in0.0 mm 0.00 in0.0 mm 0.39 in9.9 mm
01:15 PM 56.8°F13.8°C 50.4°F10.2°C 79% 5.9 mph N9.5 kmh N 8.7 mph14.0 kmh 29.75 in1007.5 mb 0.00 in0.0 mm 0.00 in0.0 mm 0.39 in9.9 mm
01:14 PM 56.8°F13.8°C 50.7°F10.4°C 80% 5.9 mph N9.5 kmh N 8.7 mph14.0 kmh 29.75 in1007.5 mb 0.00 in0.0 mm 0.00 in0.0 mm 0.39 in9.9 mm
01:13 PM 57.0°F13.9°C 51.2°F10.7°C 81% 5.6 mph N9.0 kmh N 8.7 mph14.0 kmh 29.75 in1007.5 mb 0.00 in0.0 mm 0.00 in0.0 mm 0.39 in9.9 mm
01:12 PM 57.2°F14.0°C 51.1°F10.6°C 80% 5.3 mph N8.5 kmh N 7.9 mph12.7 kmh 29.75 in1007.5 mb 0.00 in0.0 mm 0.00 in0.0 mm 0.39 in9.9 mm
01:11 PM 56.8°F13.8°C 51.4°F10.8°C 82% 5.1 mph N8.2 kmh N 7.9 mph12.7 kmh 29.75 in1007.5 mb 0.00 in0.0 mm 0.00 in0.0 mm 0.39 in9.9 mm
01:10 PM 56.8°F13.8°C 51.1°F10.6°C 81% 5.0 mph N8.0 kmh N 7.0 mph11.3 kmh 29.75 in1007.5 mb 0.00 in0.0 mm 0.00 in0.0 mm 0.39 in9.9 mm
01:09 PM 57.0°F13.9°C 50.9°F10.5°C 80% 4.9 mph N7.9 kmh N 7.0 mph11.3 kmh 29.75 in1007.5 mb 0.00 in0.0 mm 0.00 in0.0 mm 0.39 in9.9 mm
01:08 PM 56.8°F13.8°C 51.1°F10.6°C 81% 4.9 mph NNE7.9 kmh NNE 7.0 mph11.3 kmh 29.75 in1007.5 mb 0.00 in0.0 mm 0.00 in0.0 mm 0.39 in9.9 mm
01:07 PM 56.7°F13.7°C 51.2°F10.7°C 82% 5.0 mph NNE8.0 kmh NNE 7.0 mph11.3 kmh 29.75 in1007.5 mb 0.00 in0.0 mm 0.00 in0.0 mm 0.39 in9.9 mm
01:06 PM 56.5°F13.6°C 51.1°F10.6°C 82% 5.1 mph NNE8.2 kmh NNE 7.0 mph11.3 kmh 29.75 in1007.5 mb 0.00 in0.0 mm 0.00 in0.0 mm 0.39 in9.9 mm
01:05 PM 56.5°F13.6°C 51.1°F10.6°C 82% 5.0 mph N8.0 kmh N 7.0 mph11.3 kmh 29.75 in1007.5 mb 0.00 in0.0 mm 0.00 in0.0 mm 0.39 in9.9 mm
01:04 PM 56.5°F13.6°C 51.1°F10.6°C 82% 5.1 mph NNE8.2 kmh NNE 7.0 mph11.3 kmh 29.75 in1007.5 mb 0.00 in0.0 mm 0.00 in0.0 mm 0.39 in9.9 mm
01:03 PM 56.5°F13.6°C 51.1°F10.6°C 82% 5.3 mph NNE8.5 kmh NNE 7.0 mph11.3 kmh 29.74 in1007.1 mb 0.00 in0.0 mm 0.00 in0.0 mm 0.39 in9.9 mm
01:02 PM 56.5°F13.6°C 51.1°F10.6°C 82% 5.2 mph NNE8.4 kmh NNE 7.0 mph11.3 kmh 29.75 in1007.5 mb 0.00 in0.0 mm 0.00 in0.0 mm 0.39 in9.9 mm
01:01 PM 56.3°F13.5°C 50.9°F10.5°C 82% 5.3 mph N8.5 kmh N 7.0 mph11.3 kmh 29.75 in1007.5 mb 0.00 in0.0 mm 0.00 in0.0 mm 0.39 in9.9 mm
01:00 PM 56.1°F13.4°C 50.7°F10.4°C 82% 5.3 mph N8.5 kmh N 7.0 mph11.3 kmh 29.75 in1007.5 mb 0.00 in0.0 mm 0.00 in0.0 mm 0.39 in9.9 mm
12:59 PM 55.8°F13.2°C 50.3°F10.2°C 82% 5.4 mph N8.7 kmh N 7.0 mph11.3 kmh 29.75 in1007.5 mb 0.00 in0.0 mm 0.00 in0.0 mm 0.39 in9.9 mm
12:58 PM 55.8°F13.2°C 50.3°F10.2°C 82% 5.7 mph N9.2 kmh N 8.7 mph14.0 kmh 29.74 in1007.1 mb 0.00 in0.0 mm 0.00 in0.0 mm 0.39 in9.9 mm
12:57 PM 55.8°F13.2°C 50.3°F10.2°C 82% 5.8 mph N9.3 kmh N 9.6 mph15.4 kmh 29.75 in1007.5 mb 0.00 in0.0 mm 0.00 in0.0 mm 0.39 in9.9 mm
12:56 PM 55.9°F13.3°C 50.5°F10.3°C 82% 5.9 mph N9.5 kmh N 9.6 mph15.4 kmh 29.74 in1007.1 mb 0.00 in0.0 mm 0.00 in0.0 mm 0.39 in9.9 mm
12:55 PM 55.9°F13.3°C 50.5°F10.3°C 82% 5.8 mph N9.3 kmh N 9.6 mph15.4 kmh 29.74 in1007.1 mb 0.00 in0.0 mm 0.00 in0.0 mm 0.39 in9.9 mm
12:54 PM 55.6°F13.1°C 50.2°F10.1°C 82% 5.9 mph N9.5 kmh N 9.6 mph15.4 kmh 29.75 in1007.5 mb 0.00 in0.0 mm 0.00 in0.0 mm 0.39 in9.9 mm
12:53 PM 55.8°F13.2°C 50.3°F10.2°C 82% 6.0 mph N9.7 kmh N 9.6 mph15.4 kmh 29.74 in1007.1 mb 0.00 in0.0 mm 0.00 in0.0 mm 0.39 in9.9 mm
12:52 PM 55.6°F13.1°C 50.2°F10.1°C 82% 6.2 mph N10.0 kmh N 9.6 mph15.4 kmh 29.75 in1007.5 mb 0.00 in0.0 mm 0.00 in0.0 mm 0.39 in9.9 mm
12:51 PM 55.6°F13.1°C 50.2°F10.1°C 82% 6.3 mph N10.1 kmh N 9.6 mph15.4 kmh 29.75 in1007.5 mb 0.00 in0.0 mm 0.00 in0.0 mm 0.39 in9.9 mm
12:50 PM 55.4°F13.0°C 50.0°F10.0°C 82% 6.3 mph N10.1 kmh N 9.6 mph15.4 kmh 29.74 in1007.1 mb 0.00 in0.0 mm 0.00 in0.0 mm 0.39 in9.9 mm
12:49 PM 55.4°F13.0°C 50.0°F10.0°C 82% 6.2 mph N10.0 kmh N 9.6 mph15.4 kmh 29.74 in1007.1 mb 0.00 in0.0 mm 0.00 in0.0 mm 0.39 in9.9 mm
12:48 PM 55.6°F13.1°C 50.2°F10.1°C 82% 5.8 mph N9.3 kmh N 9.6 mph15.4 kmh 29.75 in1007.5 mb 0.00 in0.0 mm 0.00 in0.0 mm 0.39 in9.9 mm
12:47 PM 55.6°F13.1°C 50.2°F10.1°C 82% 5.4 mph N8.7 kmh N 9.6 mph15.4 kmh 29.75 in1007.5 mb 0.00 in0.0 mm 0.00 in0.0 mm 0.39 in9.9 mm
12:46 PM 55.8°F13.2°C 50.3°F10.2°C 82% 5.2 mph N8.4 kmh N 7.0 mph11.3 kmh 29.75 in1007.5 mb 0.00 in0.0 mm 0.00 in0.0 mm 0.39 in9.9 mm
12:45 PM 55.8°F13.2°C 50.3°F10.2°C 82% 5.1 mph NNE8.2 kmh NNE 7.0 mph11.3 kmh 29.75 in1007.5 mb 0.00 in0.0 mm 0.00 in0.0 mm 0.39 in9.9 mm
12:44 PM 55.6°F13.1°C 50.5°F10.3°C 83% 5.0 mph N8.0 kmh N 7.0 mph11.3 kmh 29.75 in1007.5 mb 0.00 in0.0 mm 0.00 in0.0 mm 0.39 in9.9 mm
12:43 PM 55.8°F13.2°C 50.7°F10.4°C 83% 4.8 mph N7.7 kmh N 7.0 mph11.3 kmh 29.74 in1007.1 mb 0.00 in0.0 mm 0.00 in0.0 mm 0.39 in9.9 mm
12:42 PM 55.9°F13.3°C 51.2°F10.7°C 84% 4.9 mph NNE7.9 kmh NNE 7.0 mph11.3 kmh 29.74 in1007.1 mb 0.00 in0.0 mm 0.00 in0.0 mm 0.39 in9.9 mm
12:41 PM 55.9°F13.3°C 51.2°F10.7°C 84% 5.0 mph NNE8.0 kmh NNE 7.0 mph11.3 kmh 29.75 in1007.5 mb 0.00 in0.0 mm 0.00 in0.0 mm 0.39 in9.9 mm
12:40 PM 55.9°F13.3°C 51.5°F10.8°C 85% 5.1 mph NNE8.2 kmh NNE 7.0 mph11.3 kmh 29.74 in1007.1 mb 0.00 in0.0 mm 0.00 in0.0 mm 0.39 in9.9 mm
12:39 PM 55.6°F13.1°C 50.8°F10.4°C 84% 5.3 mph NNE8.5 kmh NNE 7.0 mph11.3 kmh 29.74 in1007.1 mb 0.00 in0.0 mm 0.00 in0.0 mm 0.39 in9.9 mm
12:38 PM 55.6°F13.1°C 50.8°F10.4°C 84% 5.7 mph N9.2 kmh N 8.7 mph14.0 kmh 29.75 in1007.5 mb 0.00 in0.0 mm 0.00 in0.0 mm 0.39 in9.9 mm
12:37 PM 55.6°F13.1°C 50.8°F10.4°C 84% 5.9 mph N9.5 kmh N 8.7 mph14.0 kmh 29.75 in1007.5 mb 0.00 in0.0 mm 0.00 in0.0 mm 0.39 in9.9 mm
12:36 PM 55.4°F13.0°C 51.0°F10.6°C 85% 6.0 mph N9.7 kmh N 8.7 mph14.0 kmh 29.75 in1007.5 mb 0.00 in0.0 mm 0.00 in0.0 mm 0.39 in9.9 mm
12:35 PM 55.0°F12.8°C 50.9°F10.5°C 86% 6.0 mph N9.7 kmh N 8.7 mph14.0 kmh 29.75 in1007.5 mb 0.00 in0.0 mm 0.00 in0.0 mm 0.39 in9.9 mm
12:34 PM 55.0°F12.8°C 50.9°F10.5°C 86% 6.0 mph N9.7 kmh N 8.7 mph14.0 kmh 29.75 in1007.5 mb 0.00 in0.0 mm 0.00 in0.0 mm 0.39 in9.9 mm
12:33 PM 55.0°F12.8°C 50.9°F10.5°C 86% 6.2 mph N10.0 kmh N 8.7 mph14.0 kmh 29.75 in1007.5 mb 0.00 in0.0 mm 0.00 in0.0 mm 0.39 in9.9 mm
12:32 PM 55.4°F13.0°C 51.3°F10.7°C 86% 6.5 mph N10.5 kmh N 8.7 mph14.0 kmh 29.75 in1007.5 mb 0.00 in0.0 mm 0.00 in0.0 mm 0.39 in9.9 mm
12:31 PM 54.7°F12.6°C 50.6°F10.3°C 86% 6.7 mph N10.8 kmh N 9.6 mph15.4 kmh 29.75 in1007.5 mb 0.00 in0.0 mm 0.00 in0.0 mm 0.39 in9.9 mm
12:30 PM 54.7°F12.6°C 50.9°F10.5°C 87% 6.7 mph N10.8 kmh N 9.6 mph15.4 kmh 29.75 in1007.5 mb 0.00 in0.0 mm 0.00 in0.0 mm 0.39 in9.9 mm
12:29 PM 54.5°F12.5°C 50.7°F10.4°C 87% 7.1 mph N11.4 kmh N 9.6 mph15.4 kmh 29.75 in1007.5 mb 0.00 in0.0 mm 0.00 in0.0 mm 0.39 in9.9 mm
12:28 PM 54.3°F12.4°C 50.5°F10.3°C 87% 7.0 mph N11.3 kmh N 9.6 mph15.4 kmh 29.75 in1007.5 mb 0.00 in0.0 mm 0.00 in0.0 mm 0.39 in9.9 mm
12:27 PM 54.5°F12.5°C 51.0°F10.6°C 88% 7.1 mph N11.4 kmh N 9.6 mph15.4 kmh 29.75 in1007.5 mb 0.00 in0.0 mm 0.00 in0.0 mm 0.39 in9.9 mm
12:26 PM 54.3°F12.4°C 50.5°F10.3°C 87% 7.0 mph N11.3 kmh N 9.6 mph15.4 kmh 29.75 in1007.5 mb 0.00 in0.0 mm 0.00 in0.0 mm 0.39 in9.9 mm
12:25 PM 54.1°F12.3°C 50.4°F10.2°C 87% 6.9 mph N11.1 kmh N 9.6 mph15.4 kmh 29.75 in1007.5 mb 0.00 in0.0 mm 0.00 in0.0 mm 0.39 in9.9 mm
12:24 PM 54.1°F12.3°C 50.0°F10.0°C 86% 6.8 mph N10.9 kmh N 9.6 mph15.4 kmh 29.75 in1007.5 mb 0.00 in0.0 mm 0.00 in0.0 mm 0.39 in9.9 mm
12:23 PM 54.1°F12.3°C 50.4°F10.2°C 87% 6.7 mph N10.8 kmh N 9.6 mph15.4 kmh 29.75 in1007.5 mb 0.01 in0.3 mm 0.00 in0.0 mm 0.39 in9.9 mm
12:22 PM 54.1°F12.3°C 50.4°F10.2°C 87% 6.6 mph N10.6 kmh N 9.6 mph15.4 kmh 29.75 in1007.5 mb 0.01 in0.3 mm 0.00 in0.0 mm 0.39 in9.9 mm
12:21 PM 54.5°F12.5°C 50.7°F10.4°C 87% 6.3 mph N10.1 kmh N 9.6 mph15.4 kmh 29.75 in1007.5 mb 0.01 in0.3 mm 0.00 in0.0 mm 0.39 in9.9 mm
12:20 PM 54.7°F12.6°C 51.2°F10.7°C 88% 6.4 mph NNE10.3 kmh NNE 9.6 mph15.4 kmh 29.75 in1007.5 mb 0.01 in0.3 mm 0.00 in0.0 mm 0.39 in9.9 mm
12:19 PM 54.7°F12.6°C 51.2°F10.7°C 88% 6.3 mph NNE10.1 kmh NNE 9.6 mph15.4 kmh 29.75 in1007.5 mb 0.01 in0.3 mm 0.00 in0.0 mm 0.39 in9.9 mm
12:18 PM 55.0°F12.8°C 51.9°F11.1°C 89% 6.4 mph NNE10.3 kmh NNE 8.7 mph14.0 kmh 29.75 in1007.5 mb 0.01 in0.3 mm 0.00 in0.0 mm 0.39 in9.9 mm
12:17 PM 54.9°F12.7°C 51.7°F10.9°C 89% 6.5 mph NE10.5 kmh NE 8.7 mph14.0 kmh 29.75 in1007.5 mb 0.02 in0.5 mm 0.00 in0.0 mm 0.39 in9.9 mm
12:16 PM 54.5°F12.5°C 51.0°F10.6°C 88% 6.6 mph NE10.6 kmh NE 8.7 mph14.0 kmh 29.75 in1007.5 mb 0.04 in1.0 mm 0.00 in0.0 mm 0.39 in9.9 mm
12:15 PM 54.5°F12.5°C 51.0°F10.6°C 88% 6.8 mph NE10.9 kmh NE 8.7 mph14.0 kmh 29.75 in1007.5 mb 0.04 in1.0 mm 0.00 in0.0 mm 0.39 in9.9 mm
12:14 PM 54.5°F12.5°C 51.0°F10.6°C 88% 7.0 mph NE11.3 kmh NE 8.7 mph14.0 kmh 29.75 in1007.5 mb 0.04 in1.0 mm 0.00 in0.0 mm 0.39 in9.9 mm
12:13 PM 54.1°F12.3°C 50.7°F10.4°C 88% 7.1 mph NE11.4 kmh NE 8.7 mph14.0 kmh 29.75 in1007.5 mb 0.04 in1.0 mm 0.00 in0.0 mm 0.39 in9.9 mm
12:12 PM 53.8°F12.1°C 50.3°F10.2°C 88% 7.1 mph NNE11.4 kmh NNE 8.7 mph14.0 kmh 29.75 in1007.5 mb 0.05 in1.3 mm 0.00 in0.0 mm 0.39 in9.9 mm
12:11 PM 53.8°F12.1°C 50.3°F10.2°C 88% 7.0 mph NNE11.3 kmh NNE 8.7 mph14.0 kmh 29.75 in1007.5 mb 0.05 in1.3 mm 0.00 in0.0 mm 0.39 in9.9 mm
12:10 PM 53.8°F12.1°C 50.6°F10.3°C 89% 6.8 mph NNE10.9 kmh NNE 8.7 mph14.0 kmh 29.75 in1007.5 mb 0.05 in1.3 mm 0.00 in0.0 mm 0.39 in9.9 mm
12:09 PM 54.1°F12.3°C 51.3°F10.7°C 90% 6.5 mph NNE10.5 kmh NNE 8.7 mph14.0 kmh 29.75 in1007.5 mb 0.05 in1.3 mm 0.00 in0.0 mm 0.39 in9.9 mm
12:08 PM 53.8°F12.1°C 51.2°F10.7°C 91% 6.3 mph NNE10.1 kmh NNE 7.9 mph12.7 kmh 29.75 in1007.5 mb 0.05 in1.3 mm 0.00 in0.0 mm 0.39 in9.9 mm
12:07 PM 53.6°F12.0°C 51.0°F10.6°C 91% 6.5 mph N10.5 kmh N 10.5 mph16.9 kmh 29.75 in1007.5 mb 0.05 in1.3 mm 0.00 in0.0 mm 0.39 in9.9 mm
12:06 PM 54.0°F12.2°C 51.7°F10.9°C 92% 6.8 mph N10.9 kmh N 10.5 mph16.9 kmh 29.75 in1007.5 mb 0.05 in1.3 mm 0.00 in0.0 mm 0.39 in9.9 mm
12:05 PM 53.6°F12.0°C 51.3°F10.7°C 92% 7.1 mph N11.4 kmh N 10.5 mph16.9 kmh 29.75 in1007.5 mb 0.05 in1.3 mm 0.00 in0.0 mm 0.39 in9.9 mm
12:04 PM 53.6°F12.0°C 51.6°F10.9°C 93% 7.4 mph N11.9 kmh N 10.5 mph16.9 kmh 29.75 in1007.5 mb 0.05 in1.3 mm 0.00 in0.0 mm 0.39 in9.9 mm
12:03 PM 53.2°F11.8°C 51.6°F10.9°C 94% 7.3 mph N11.7 kmh N 10.5 mph16.9 kmh 29.75 in1007.5 mb 0.05 in1.3 mm 0.00 in0.0 mm 0.39 in9.9 mm
12:02 PM 53.8°F12.1°C 51.8°F11.0°C 93% 7.2 mph N11.6 kmh N 10.5 mph16.9 kmh 29.75 in1007.5 mb 0.05 in1.3 mm 0.00 in0.0 mm 0.39 in9.9 mm
12:01 PM 53.2°F11.8°C 51.6°F10.9°C 94% 7.3 mph N11.7 kmh N 10.5 mph16.9 kmh 29.75 in1007.5 mb 0.05 in1.3 mm 0.00 in0.0 mm 0.39 in9.9 mm
12:00 PM 52.7°F11.5°C 51.0°F10.6°C 94% 7.3 mph N11.7 kmh N 10.5 mph16.9 kmh 29.75 in1007.5 mb 0.05 in1.3 mm 0.00 in0.0 mm 0.39 in9.9 mm
11:59 AM 52.5°F11.4°C 50.8°F10.4°C 94% 7.1 mph N11.4 kmh N 10.5 mph16.9 kmh 29.75 in1007.5 mb 0.05 in1.3 mm 0.00 in0.0 mm 0.39 in9.9 mm
11:58 AM 52.5°F11.4°C 50.8°F10.4°C 94% 6.8 mph N10.9 kmh N 10.5 mph16.9 kmh 29.75 in1007.5 mb 0.05 in1.3 mm 0.00 in0.0 mm 0.39 in9.9 mm
11:57 AM 52.5°F11.4°C 51.1°F10.6°C 95% 6.2 mph N10.0 kmh N 10.5 mph16.9 kmh 29.75 in1007.5 mb 0.05 in1.3 mm 0.00 in0.0 mm 0.39 in9.9 mm
11:56 AM 52.5°F11.4°C 51.7°F10.9°C 97% 5.6 mph N9.0 kmh N 10.5 mph16.9 kmh 29.75 in1007.5 mb 0.05 in1.3 mm 0.00 in0.0 mm 0.39 in9.9 mm
11:55 AM 52.5°F11.4°C 52.0°F11.1°C 98% 5.1 mph N8.2 kmh N 10.5 mph16.9 kmh 29.75 in1007.5 mb 0.05 in1.3 mm 0.00 in0.0 mm 0.39 in9.9 mm
11:54 AM 52.9°F11.6°C 52.3°F11.3°C 98% 4.6 mph N7.4 kmh N 10.5 mph16.9 kmh 29.75 in1007.5 mb 0.05 in1.3 mm 0.00 in0.0 mm 0.39 in9.9 mm
11:53 AM 52.3°F11.3°C 51.8°F11.0°C 98% 4.3 mph N6.9 kmh N 6.1 mph9.8 kmh 29.75 in1007.5 mb 0.05 in1.3 mm 0.00 in0.0 mm 0.39 in9.9 mm
11:52 AM 52.9°F11.6°C 52.3°F11.3°C 98% 4.0 mph N6.4 kmh N 6.1 mph9.8 kmh 29.75 in1007.5 mb 0.05 in1.3 mm 0.00 in0.0 mm 0.39 in9.9 mm
11:51 AM 52.7°F11.5°C 52.2°F11.2°C 98% 4.1 mph N6.6 kmh N 6.1 mph9.8 kmh 29.75 in1007.5 mb 0.05 in1.3 mm 0.00 in0.0 mm 0.39 in9.9 mm
11:50 AM 53.4°F11.9°C 52.9°F11.6°C 98% 4.0 mph N6.4 kmh N 6.1 mph9.8 kmh 29.75 in1007.5 mb 0.05 in1.3 mm 0.00 in0.0 mm 0.39 in9.9 mm
11:49 AM 52.9°F11.6°C 52.3°F11.3°C 98% 3.9 mph N6.3 kmh N 6.1 mph9.8 kmh 29.75 in1007.5 mb 0.05 in1.3 mm 0.00 in0.0 mm 0.39 in9.9 mm
11:48 AM 51.8°F11.0°C 51.3°F10.7°C 98% 4.1 mph N6.6 kmh N 6.1 mph9.8 kmh 29.75 in1007.5 mb 0.05 in1.3 mm 0.00 in0.0 mm 0.39 in9.9 mm
11:47 AM 51.8°F11.0°C 51.3°F10.7°C 98% 4.4 mph N7.1 kmh N 6.1 mph9.8 kmh 29.75 in1007.5 mb 0.05 in1.3 mm 0.00 in0.0 mm 0.39 in9.9 mm
11:46 AM 51.6°F10.9°C 51.3°F10.7°C 99% 4.5 mph N7.2 kmh N 6.1 mph9.8 kmh 29.75 in1007.5 mb 0.05 in1.3 mm 0.00 in0.0 mm 0.39 in9.9 mm
11:45 AM 51.4°F10.8°C 51.2°F10.7°C 99% 4.7 mph N7.6 kmh N 6.1 mph9.8 kmh 29.75 in1007.5 mb 0.05 in1.3 mm 0.00 in0.0 mm 0.39 in9.9 mm
11:44 AM 51.1°F10.6°C 50.8°F10.4°C 99% 4.7 mph N7.6 kmh N 6.1 mph9.8 kmh 29.75 in1007.5 mb 0.05 in1.3 mm 0.00 in0.0 mm 0.39 in9.9 mm
11:43 AM 50.7°F10.4°C 50.4°F10.2°C 99% 4.7 mph N7.6 kmh N 6.1 mph9.8 kmh 29.75 in1007.5 mb 0.05 in1.3 mm 0.00 in0.0 mm 0.39 in9.9 mm
11:42 AM 50.7°F10.4°C 50.4°F10.2°C 99% 4.9 mph N7.9 kmh N 6.1 mph9.8 kmh 29.75 in1007.5 mb 0.05 in1.3 mm 0.00 in0.0 mm 0.39 in9.9 mm
11:41 AM 50.7°F10.4°C 50.4°F10.2°C 99% 4.7 mph N7.6 kmh N 6.1 mph9.8 kmh 29.75 in1007.5 mb 0.05 in1.3 mm 0.00 in0.0 mm 0.39 in9.9 mm
11:40 AM 50.4°F10.2°C 50.1°F10.1°C 99% 4.7 mph N7.6 kmh N 6.1 mph9.8 kmh 29.74 in1007.1 mb 0.05 in1.3 mm 0.00 in0.0 mm 0.39 in9.9 mm
11:39 AM 50.4°F10.2°C 50.1°F10.1°C 99% 4.9 mph N7.9 kmh N 6.1 mph9.8 kmh 29.75 in1007.5 mb 0.05 in1.3 mm 0.00 in0.0 mm 0.39 in9.9 mm
11:38 AM 50.0°F10.0°C 49.7°F9.8°C 99% 5.1 mph N8.2 kmh N 6.1 mph9.8 kmh 29.75 in1007.5 mb 0.05 in1.3 mm 0.00 in0.0 mm 0.39 in9.9 mm
11:37 AM 50.4°F10.2°C 50.1°F10.1°C 99% 5.1 mph N8.2 kmh N 7.0 mph11.3 kmh 29.75 in1007.5 mb 0.05 in1.3 mm 0.00 in0.0 mm 0.39 in9.9 mm
11:36 AM 50.0°F10.0°C 49.7°F9.8°C 99% 5.2 mph N8.4 kmh N 7.0 mph11.3 kmh 29.74 in1007.1 mb 0.05 in1.3 mm 0.00 in0.0 mm 0.39 in9.9 mm
11:35 AM 50.0°F10.0°C 49.7°F9.8°C 99% 5.2 mph N8.4 kmh N 7.0 mph11.3 kmh 29.74 in1007.1 mb 0.05 in1.3 mm 0.00 in0.0 mm 0.39 in9.9 mm
11:34 AM 49.8°F9.9°C 49.6°F9.8°C 99% 5.1 mph N8.2 kmh N 7.0 mph11.3 kmh 29.75 in1007.5 mb 0.05 in1.3 mm 0.00 in0.0 mm 0.39 in9.9 mm
11:33 AM 49.8°F9.9°C 49.6°F9.8°C 99% 5.3 mph N8.5 kmh N 7.0 mph11.3 kmh 29.75 in1007.5 mb 0.05 in1.3 mm 0.00 in0.0 mm 0.39 in9.9 mm
11:32 AM 50.0°F10.0°C 49.7°F9.8°C 99% 5.5 mph N8.9 kmh N 7.0 mph11.3 kmh 29.74 in1007.1 mb 0.05 in1.3 mm 0.00 in0.0 mm 0.39 in9.9 mm
11:31 AM 50.0°F10.0°C 49.7°F9.8°C 99% 5.6 mph N9.0 kmh N 7.0 mph11.3 kmh 29.74 in1007.1 mb 0.05 in1.3 mm 0.00 in0.0 mm 0.39 in9.9 mm
11:30 AM 50.0°F10.0°C 49.7°F9.8°C 99% 5.7 mph N9.2 kmh N 7.0 mph11.3 kmh 29.74 in1007.1 mb 0.05 in1.3 mm 0.00 in0.0 mm 0.39 in9.9 mm
11:29 AM 49.8°F9.9°C 49.6°F9.8°C 99% 5.7 mph N9.2 kmh N 7.0 mph11.3 kmh 29.73 in1006.8 mb 0.05 in1.3 mm 0.00 in0.0 mm 0.39 in9.9 mm
11:28 AM 49.8°F9.9°C 49.6°F9.8°C 99% 5.8 mph N9.3 kmh N 7.0 mph11.3 kmh 29.74 in1007.1 mb 0.05 in1.3 mm 0.00 in0.0 mm 0.39 in9.9 mm
11:27 AM 50.0°F10.0°C 49.5°F9.7°C 98% 5.8 mph N9.3 kmh N 7.0 mph11.3 kmh 29.73 in1006.8 mb 0.05 in1.3 mm 0.00 in0.0 mm 0.39 in9.9 mm
11:26 AM 49.8°F9.9°C 49.6°F9.8°C 99% 5.9 mph N9.5 kmh N 7.9 mph12.7 kmh 29.73 in1006.8 mb 0.05 in1.3 mm 0.00 in0.0 mm 0.39 in9.9 mm
11:25 AM 50.0°F10.0°C 49.5°F9.7°C 98% 6.0 mph N9.7 kmh N 7.9 mph12.7 kmh 29.74 in1007.1 mb 0.05 in1.3 mm 0.00 in0.0 mm 0.39 in9.9 mm
11:24 AM 49.8°F9.9°C 49.6°F9.8°C 99% 6.0 mph N9.7 kmh N 7.9 mph12.7 kmh 29.74 in1007.1 mb 0.05 in1.3 mm 0.60 in15.2 mm 0.39 in9.9 mm
11:23 AM 49.6°F9.8°C 49.4°F9.7°C 99% 5.8 mph N9.3 kmh N 7.9 mph12.7 kmh 29.74 in1007.1 mb 0.04 in1.0 mm 0.00 in0.0 mm 0.38 in9.7 mm
11:22 AM 50.0°F10.0°C 49.5°F9.7°C 98% 5.4 mph N8.7 kmh N 7.9 mph12.7 kmh 29.74 in1007.1 mb 0.04 in1.0 mm 0.00 in0.0 mm 0.38 in9.7 mm
11:21 AM 49.8°F9.9°C 49.3°F9.6°C 98% 5.2 mph N8.4 kmh N 7.9 mph12.7 kmh 29.74 in1007.1 mb 0.04 in1.0 mm 0.00 in0.0 mm 0.38 in9.7 mm
11:20 AM 49.6°F9.8°C 49.1°F9.5°C 98% 5.0 mph N8.0 kmh N 7.9 mph12.7 kmh 29.74 in1007.1 mb 0.04 in1.0 mm 0.00 in0.0 mm 0.38 in9.7 mm
11:19 AM 49.6°F9.8°C 49.1°F9.5°C 98% 4.9 mph N7.9 kmh N 7.9 mph12.7 kmh 29.74 in1007.1 mb 0.04 in1.0 mm 0.00 in0.0 mm 0.38 in9.7 mm
11:18 AM 49.6°F9.8°C 49.1°F9.5°C 98% 4.6 mph N7.4 kmh N 7.9 mph12.7 kmh 29.74 in1007.1 mb 0.04 in1.0 mm 1.20 in30.5 mm 0.38 in9.7 mm
11:17 AM 49.6°F9.8°C 49.1°F9.5°C 98% 4.2 mph N6.8 kmh N 7.9 mph12.7 kmh 29.75 in1007.5 mb 0.02 in0.5 mm 0.60 in15.2 mm 0.37 in9.4 mm
11:16 AM 49.8°F9.9°C 49.0°F9.4°C 97% 3.8 mph NNE6.1 kmh NNE 6.1 mph9.8 kmh 29.75 in1007.5 mb 0.01 in0.3 mm 0.00 in0.0 mm 0.35 in8.9 mm
11:15 AM 49.8°F9.9°C 49.0°F9.4°C 97% 3.5 mph NNE5.6 kmh NNE 5.2 mph8.4 kmh 29.75 in1007.5 mb 0.01 in0.3 mm 0.00 in0.0 mm 0.35 in8.9 mm
11:14 AM 50.0°F10.0°C 48.9°F9.4°C 96% 3.4 mph NNE5.5 kmh NNE 5.2 mph8.4 kmh 29.75 in1007.5 mb 0.01 in0.3 mm 0.00 in0.0 mm 0.35 in8.9 mm
11:13 AM 50.0°F10.0°C 48.6°F9.2°C 95% 3.4 mph NNE5.5 kmh NNE 5.2 mph8.4 kmh 29.75 in1007.5 mb 0.01 in0.3 mm 0.60 in15.2 mm 0.35 in8.9 mm
11:12 AM 50.0°F10.0°C 48.6°F9.2°C 95% 3.6 mph NNE5.8 kmh NNE 5.2 mph8.4 kmh 29.76 in1007.8 mb 0.00 in0.0 mm 0.00 in0.0 mm 0.34 in8.6 mm
11:11 AM 50.0°F10.0°C 48.6°F9.2°C 95% 4.0 mph NNE6.4 kmh NNE 7.9 mph12.7 kmh 29.75 in1007.5 mb 0.00 in0.0 mm 0.00 in0.0 mm 0.34 in8.6 mm
11:10 AM 50.0°F10.0°C 48.6°F9.2°C 95% 4.4 mph NNE7.1 kmh NNE 7.9 mph12.7 kmh 29.75 in1007.5 mb 0.00 in0.0 mm 0.00 in0.0 mm 0.34 in8.6 mm
11:09 AM 50.0°F10.0°C 48.6°F9.2°C 95% 4.6 mph N7.4 kmh N 7.9 mph12.7 kmh 29.75 in1007.5 mb 0.00 in0.0 mm 0.00 in0.0 mm 0.34 in8.6 mm
11:08 AM 50.0°F10.0°C 48.6°F9.2°C 95% 4.9 mph N7.9 kmh N 7.9 mph12.7 kmh 29.75 in1007.5 mb 0.00 in0.0 mm 0.00 in0.0 mm 0.34 in8.6 mm
11:07 AM 50.0°F10.0°C 48.6°F9.2°C 95% 5.3 mph N8.5 kmh N 7.9 mph12.7 kmh 29.75 in1007.5 mb 0.01 in0.3 mm 0.00 in0.0 mm 0.34 in8.6 mm
11:06 AM 50.0°F10.0°C 48.6°F9.2°C 95% 5.4 mph N8.7 kmh N 7.9 mph12.7 kmh 29.75 in1007.5 mb 0.01 in0.3 mm 0.00 in0.0 mm 0.34 in8.6 mm
11:05 AM 50.0°F10.0°C 48.6°F9.2°C 95% 5.9 mph N9.5 kmh N 8.7 mph14.0 kmh 29.75 in1007.5 mb 0.01 in0.3 mm 0.00 in0.0 mm 0.34 in8.6 mm
11:04 AM 50.0°F10.0°C 48.6°F9.2°C 95% 6.3 mph N10.1 kmh N 8.7 mph14.0 kmh 29.74 in1007.1 mb 0.01 in0.3 mm 0.00 in0.0 mm 0.34 in8.6 mm
11:03 AM 50.0°F10.0°C 48.6°F9.2°C 95% 6.3 mph N10.1 kmh N 8.7 mph14.0 kmh 29.74 in1007.1 mb 0.01 in0.3 mm 0.00 in0.0 mm 0.34 in8.6 mm
11:02 AM 50.0°F10.0°C 48.6°F9.2°C 95% 6.1 mph N9.8 kmh N 8.7 mph14.0 kmh 29.74 in1007.1 mb 0.01 in0.3 mm 0.00 in0.0 mm 0.34 in8.6 mm
11:01 AM 50.0°F10.0°C 48.6°F9.2°C 95% 5.8 mph N9.3 kmh N 8.7 mph14.0 kmh 29.74 in1007.1 mb 0.01 in0.3 mm 0.00 in0.0 mm 0.34 in8.6 mm
11:00 AM 50.0°F10.0°C 48.9°F9.4°C 96% 5.5 mph NNE8.9 kmh NNE 8.7 mph14.0 kmh 29.74 in1007.1 mb 0.01 in0.3 mm 0.00 in0.0 mm 0.34 in8.6 mm
10:59 AM 50.0°F10.0°C 48.9°F9.4°C 96% 5.6 mph NNE9.0 kmh NNE 8.7 mph14.0 kmh 29.73 in1006.8 mb 0.01 in0.3 mm 0.00 in0.0 mm 0.34 in8.6 mm
10:58 AM 50.0°F10.0°C 48.9°F9.4°C 96% 5.6 mph NNE9.0 kmh NNE 8.7 mph14.0 kmh 29.74 in1007.1 mb 0.01 in0.3 mm 0.00 in0.0 mm 0.34 in8.6 mm
10:57 AM 50.0°F10.0°C 48.9°F9.4°C 96% 5.5 mph NNE8.9 kmh NNE 8.7 mph14.0 kmh 29.73 in1006.8 mb 0.01 in0.3 mm 0.00 in0.0 mm 0.34 in8.6 mm
10:56 AM 50.0°F10.0°C 48.9°F9.4°C 96% 5.5 mph NNE8.9 kmh NNE 8.7 mph14.0 kmh 29.73 in1006.8 mb 0.01 in0.3 mm 0.00 in0.0 mm 0.34 in8.6 mm
10:55 AM 49.8°F9.9°C 49.0°F9.4°C 97% 5.2 mph NNE8.4 kmh NNE 8.7 mph14.0 kmh 29.73 in1006.8 mb 0.01 in0.3 mm 0.00 in0.0 mm 0.34 in8.6 mm
10:54 AM 50.0°F10.0°C 48.9°F9.4°C 96% 4.8 mph NNE7.7 kmh NNE 7.9 mph12.7 kmh 29.73 in1006.8 mb 0.01 in0.3 mm 0.00 in0.0 mm 0.34 in8.6 mm
10:53 AM 50.0°F10.0°C 48.9°F9.4°C 96% 4.9 mph NNE7.9 kmh NNE 7.9 mph12.7 kmh 29.73 in1006.8 mb 0.01 in0.3 mm 0.00 in0.0 mm 0.34 in8.6 mm
10:52 AM 50.0°F10.0°C 48.9°F9.4°C 96% 5.1 mph NNE8.2 kmh NNE 7.9 mph12.7 kmh 29.73 in1006.8 mb 0.01 in0.3 mm 0.00 in0.0 mm 0.34 in8.6 mm
10:51 AM 50.0°F10.0°C 49.2°F9.6°C 97% 5.2 mph NNE8.4 kmh NNE 7.9 mph12.7 kmh 29.73 in1006.8 mb 0.01 in0.3 mm 0.00 in0.0 mm 0.34 in8.6 mm
10:50 AM 49.8°F9.9°C 49.3°F9.6°C 98% 5.3 mph N8.5 kmh N 7.9 mph12.7 kmh 29.73 in1006.8 mb 0.01 in0.3 mm 0.00 in0.0 mm 0.34 in8.6 mm
10:49 AM 50.0°F10.0°C 49.2°F9.6°C 97% 5.2 mph N8.4 kmh N 7.9 mph12.7 kmh 29.73 in1006.8 mb 0.01 in0.3 mm 0.00 in0.0 mm 0.34 in8.6 mm
10:48 AM 49.8°F9.9°C 49.3°F9.6°C 98% 4.8 mph N7.7 kmh N 7.0 mph11.3 kmh 29.73 in1006.8 mb 0.01 in0.3 mm 0.00 in0.0 mm 0.34 in8.6 mm
10:47 AM 50.0°F10.0°C 49.2°F9.6°C 97% 4.7 mph N7.6 kmh N 7.0 mph11.3 kmh 29.73 in1006.8 mb 0.02 in0.5 mm 0.00 in0.0 mm 0.34 in8.6 mm
10:46 AM 50.0°F10.0°C 49.2°F9.6°C 97% 4.8 mph N7.7 kmh N 7.0 mph11.3 kmh 29.73 in1006.8 mb 0.02 in0.5 mm 0.00 in0.0 mm 0.34 in8.6 mm
10:45 AM 50.0°F10.0°C 49.2°F9.6°C 97% 4.8 mph N7.7 kmh N 7.0 mph11.3 kmh 29.73 in1006.8 mb 0.02 in0.5 mm 0.00 in0.0 mm 0.34 in8.6 mm
10:44 AM 50.0°F10.0°C 49.5°F9.7°C 98% 4.9 mph N7.9 kmh N 7.0 mph11.3 kmh 29.73 in1006.8 mb 0.02 in0.5 mm 0.00 in0.0 mm 0.34 in8.6 mm
10:43 AM 50.0°F10.0°C 49.5°F9.7°C 98% 4.9 mph N7.9 kmh N 7.0 mph11.3 kmh 29.73 in1006.8 mb 0.02 in0.5 mm 0.00 in0.0 mm 0.34 in8.6 mm
10:42 AM 49.8°F9.9°C 49.6°F9.8°C 99% 4.9 mph N7.9 kmh N 7.0 mph11.3 kmh 29.73 in1006.8 mb 0.02 in0.5 mm 0.00 in0.0 mm 0.34 in8.6 mm
10:41 AM 50.0°F10.0°C 49.7°F9.8°C 99% 4.9 mph N7.9 kmh N 7.0 mph11.3 kmh 29.72 in1006.4 mb 0.02 in0.5 mm 0.00 in0.0 mm 0.34 in8.6 mm
10:40 AM 50.0°F10.0°C 49.7°F9.8°C 99% 4.6 mph N7.4 kmh N 5.2 mph8.4 kmh 29.73 in1006.8 mb 0.02 in0.5 mm 0.00 in0.0 mm 0.34 in8.6 mm
10:39 AM 50.2°F10.1°C 49.9°F9.9°C 99% 4.5 mph N7.2 kmh N 5.2 mph8.4 kmh 29.73 in1006.8 mb 0.02 in0.5 mm 0.00 in0.0 mm 0.34 in8.6 mm
10:38 AM 50.2°F10.1°C 49.9°F9.9°C 99% 4.5 mph N7.2 kmh N 5.2 mph8.4 kmh 29.72 in1006.4 mb 0.02 in0.5 mm 0.00 in0.0 mm 0.34 in8.6 mm
10:37 AM 50.0°F10.0°C 49.7°F9.8°C 99% 4.5 mph N7.2 kmh N 5.2 mph8.4 kmh 29.73 in1006.8 mb 0.02 in0.5 mm 0.00 in0.0 mm 0.34 in8.6 mm
10:36 AM 50.2°F10.1°C 49.9°F9.9°C 99% 4.3 mph N6.9 kmh N 5.2 mph8.4 kmh 29.73 in1006.8 mb 0.02 in0.5 mm 0.00 in0.0 mm 0.34 in8.6 mm
10:35 AM 50.0°F10.0°C 49.7°F9.8°C 99% 4.2 mph N6.8 kmh N 5.2 mph8.4 kmh 29.72 in1006.4 mb 0.04 in1.0 mm 0.00 in0.0 mm 0.34 in8.6 mm
10:34 AM 50.0°F10.0°C 49.7°F9.8°C 99% 4.3 mph N6.9 kmh N 5.2 mph8.4 kmh 29.72 in1006.4 mb 0.04 in1.0 mm 0.00 in0.0 mm 0.34 in8.6 mm
10:33 AM 49.8°F9.9°C 49.6°F9.8°C 99% 4.3 mph N6.9 kmh N 5.2 mph8.4 kmh 29.72 in1006.4 mb 0.04 in1.0 mm 0.00 in0.0 mm 0.34 in8.6 mm
10:32 AM 49.8°F9.9°C 49.6°F9.8°C 99% 4.3 mph N6.9 kmh N 6.1 mph9.8 kmh 29.72 in1006.4 mb 0.04 in1.0 mm 0.00 in0.0 mm 0.34 in8.6 mm
10:31 AM 49.6°F9.8°C 49.4°F9.7°C 99% 4.5 mph N7.2 kmh N 6.1 mph9.8 kmh 29.73 in1006.8 mb 0.04 in1.0 mm 0.00 in0.0 mm 0.34 in8.6 mm
10:30 AM 49.6°F9.8°C 49.4°F9.7°C 99% 4.5 mph N7.2 kmh N 6.1 mph9.8 kmh 29.72 in1006.4 mb 0.04 in1.0 mm 0.00 in0.0 mm 0.34 in8.6 mm
10:29 AM 50.0°F10.0°C 49.7°F9.8°C 99% 4.5 mph N7.2 kmh N 6.1 mph9.8 kmh 29.72 in1006.4 mb 0.04 in1.0 mm 0.00 in0.0 mm 0.34 in8.6 mm
10:28 AM 49.8°F9.9°C 49.6°F9.8°C 99% 4.6 mph N7.4 kmh N 6.1 mph9.8 kmh 29.73 in1006.8 mb 0.04 in1.0 mm 0.00 in0.0 mm 0.34 in8.6 mm
10:27 AM 49.5°F9.7°C 49.2°F9.6°C 99% 4.6 mph N7.4 kmh N 6.1 mph9.8 kmh 29.72 in1006.4 mb 0.04 in1.0 mm 0.00 in0.0 mm 0.34 in8.6 mm
10:26 AM 49.6°F9.8°C 49.4°F9.7°C 99% 5.0 mph N8.0 kmh N 7.9 mph12.7 kmh 29.72 in1006.4 mb 0.04 in1.0 mm 0.00 in0.0 mm 0.34 in8.6 mm
10:25 AM 49.5°F9.7°C 49.2°F9.6°C 99% 5.2 mph N8.4 kmh N 7.9 mph12.7 kmh 29.72 in1006.4 mb 0.04 in1.0 mm 0.00 in0.0 mm 0.34 in8.6 mm
10:24 AM 49.1°F9.5°C 48.8°F9.3°C 99% 5.1 mph N8.2 kmh N 7.9 mph12.7 kmh 29.72 in1006.4 mb 0.04 in1.0 mm 0.00 in0.0 mm 0.34 in8.6 mm
10:23 AM 49.3°F9.6°C 49.0°F9.4°C 99% 5.1 mph N8.2 kmh N 7.9 mph12.7 kmh 29.72 in1006.4 mb 0.04 in1.0 mm 0.00 in0.0 mm 0.34 in8.6 mm
10:22 AM 49.1°F9.5°C 48.8°F9.3°C 99% 4.9 mph N7.9 kmh N 7.9 mph12.7 kmh 29.72 in1006.4 mb 0.04 in1.0 mm 0.00 in0.0 mm 0.34 in8.6 mm
10:21 AM 49.1°F9.5°C 48.8°F9.3°C 99% 4.8 mph N7.7 kmh N 7.9 mph12.7 kmh 29.73 in1006.8 mb 0.04 in1.0 mm 0.00 in0.0 mm 0.34 in8.6 mm
10:20 AM 49.1°F9.5°C 48.8°F9.3°C 99% 4.7 mph N7.6 kmh N 7.9 mph12.7 kmh 29.72 in1006.4 mb 0.04 in1.0 mm 0.00 in0.0 mm 0.34 in8.6 mm
10:19 AM 49.1°F9.5°C 48.8°F9.3°C 99% 4.7 mph N7.6 kmh N 7.9 mph12.7 kmh 29.73 in1006.8 mb 0.04 in1.0 mm 0.00 in0.0 mm 0.34 in8.6 mm
10:18 AM 48.9°F9.4°C 48.7°F9.3°C 99% 4.6 mph N7.4 kmh N 7.9 mph12.7 kmh 29.73 in1006.8 mb 0.04 in1.0 mm 0.00 in0.0 mm 0.34 in8.6 mm
10:17 AM 48.7°F9.3°C 48.5°F9.2°C 99% 4.6 mph N7.4 kmh N 7.9 mph12.7 kmh 29.72 in1006.4 mb 0.04 in1.0 mm 0.00 in0.0 mm 0.34 in8.6 mm
10:16 AM 48.9°F9.4°C 48.7°F9.3°C 99% 4.3 mph N6.9 kmh N 6.1 mph9.8 kmh 29.73 in1006.8 mb 0.04 in1.0 mm 0.00 in0.0 mm 0.34 in8.6 mm
10:15 AM 48.7°F9.3°C 48.5°F9.2°C 99% 4.1 mph N6.6 kmh N 5.2 mph8.4 kmh 29.73 in1006.8 mb 0.05 in1.3 mm 0.00 in0.0 mm 0.34 in8.6 mm
10:14 AM 48.9°F9.4°C 48.7°F9.3°C 99% 4.1 mph N6.6 kmh N 4.4 mph7.1 kmh 29.72 in1006.4 mb 0.05 in1.3 mm 0.00 in0.0 mm 0.34 in8.6 mm
10:13 AM 48.7°F9.3°C 48.5°F9.2°C 99% 4.2 mph N6.8 kmh N 7.0 mph11.3 kmh 29.73 in1006.8 mb 0.05 in1.3 mm 0.00 in0.0 mm 0.34 in8.6 mm
10:12 AM 48.7°F9.3°C 48.5°F9.2°C 99% 4.4 mph N7.1 kmh N 7.0 mph11.3 kmh 29.73 in1006.8 mb 0.05 in1.3 mm 0.00 in0.0 mm 0.34 in8.6 mm
10:11 AM 48.6°F9.2°C 48.3°F9.1°C 99% 4.3 mph N6.9 kmh N 7.0 mph11.3 kmh 29.73 in1006.8 mb 0.05 in1.3 mm 0.00 in0.0 mm 0.34 in8.6 mm
10:10 AM 48.7°F9.3°C 48.5°F9.2°C 99% 4.3 mph N6.9 kmh N 7.0 mph11.3 kmh 29.72 in1006.4 mb 0.05 in1.3 mm 0.00 in0.0 mm 0.34 in8.6 mm
10:09 AM 48.4°F9.1°C 48.1°F8.9°C 99% 4.2 mph N6.8 kmh N 7.0 mph11.3 kmh 29.73 in1006.8 mb 0.05 in1.3 mm 0.60 in15.2 mm 0.34 in8.6 mm
10:08 AM 48.4°F9.1°C 48.1°F8.9°C 99% 4.2 mph N6.8 kmh N 7.0 mph11.3 kmh 29.72 in1006.4 mb 0.04 in1.0 mm 0.00 in0.0 mm 0.33 in8.4 mm
10:07 AM 48.4°F9.1°C 48.1°F8.9°C 99% 4.3 mph N6.9 kmh N 7.0 mph11.3 kmh 29.72 in1006.4 mb 0.04 in1.0 mm 0.00 in0.0 mm 0.33 in8.4 mm
10:06 AM 48.4°F9.1°C 48.1°F8.9°C 99% 4.4 mph N7.1 kmh N 7.0 mph11.3 kmh 29.73 in1006.8 mb 0.05 in1.3 mm 0.00 in0.0 mm 0.33 in8.4 mm
10:05 AM 48.2°F9.0°C 47.9°F8.8°C 99% 4.6 mph N7.4 kmh N 7.0 mph11.3 kmh 29.73 in1006.8 mb 0.05 in1.3 mm 0.00 in0.0 mm 0.33 in8.4 mm
10:04 AM 48.2°F9.0°C 47.9°F8.8°C 99% 4.6 mph N7.4 kmh N 7.0 mph11.3 kmh 29.73 in1006.8 mb 0.05 in1.3 mm 0.00 in0.0 mm 0.33 in8.4 mm
10:03 AM 48.4°F9.1°C 48.1°F8.9°C 99% 4.6 mph N7.4 kmh N 7.0 mph11.3 kmh 29.73 in1006.8 mb 0.05 in1.3 mm 0.00 in0.0 mm 0.33 in8.4 mm
10:02 AM 48.2°F9.0°C 47.9°F8.8°C 99% 4.4 mph N7.1 kmh N 6.1 mph9.8 kmh 29.73 in1006.8 mb 0.05 in1.3 mm 0.00 in0.0 mm 0.33 in8.4 mm
10:01 AM 48.2°F9.0°C 47.9°F8.8°C 99% 4.8 mph N7.7 kmh N 7.9 mph12.7 kmh 29.73 in1006.8 mb 0.05 in1.3 mm 0.00 in0.0 mm 0.33 in8.4 mm
10:00 AM 48.2°F9.0°C 47.9°F8.8°C 99% 5.1 mph N8.2 kmh N 7.9 mph12.7 kmh 29.73 in1006.8 mb 0.05 in1.3 mm 0.00 in0.0 mm 0.33 in8.4 mm
09:59 AM 48.4°F9.1°C 48.1°F8.9°C 99% 5.1 mph N8.2 kmh N 7.9 mph12.7 kmh 29.72 in1006.4 mb 0.05 in1.3 mm 0.00 in0.0 mm 0.33 in8.4 mm
09:58 AM 48.2°F9.0°C 47.9°F8.8°C 99% 5.2 mph N8.4 kmh N 7.9 mph12.7 kmh 29.73 in1006.8 mb 0.05 in1.3 mm 0.00 in0.0 mm 0.33 in8.4 mm
09:57 AM 48.2°F9.0°C 47.9°F8.8°C 99% 5.2 mph N8.4 kmh N 7.9 mph12.7 kmh 29.73 in1006.8 mb 0.06 in1.5 mm 0.00 in0.0 mm 0.33 in8.4 mm
09:56 AM 48.0°F8.9°C 47.8°F8.8°C 99% 5.1 mph N8.2 kmh N 7.9 mph12.7 kmh 29.72 in1006.4 mb 0.06 in1.5 mm 0.00 in0.0 mm 0.33 in8.4 mm
09:55 AM 48.0°F8.9°C 47.8°F8.8°C 99% 5.3 mph N8.5 kmh N 7.9 mph12.7 kmh 29.73 in1006.8 mb 0.06 in1.5 mm 0.00 in0.0 mm 0.33 in8.4 mm
09:54 AM 48.2°F9.0°C 47.9°F8.8°C 99% 5.4 mph N8.7 kmh N 7.9 mph12.7 kmh 29.73 in1006.8 mb 0.06 in1.5 mm 0.00 in0.0 mm 0.33 in8.4 mm
09:53 AM 48.0°F8.9°C 47.8°F8.8°C 99% 5.5 mph N8.9 kmh N 7.9 mph12.7 kmh 29.73 in1006.8 mb 0.06 in1.5 mm 0.00 in0.0 mm 0.33 in8.4 mm
09:52 AM 47.8°F8.8°C 47.6°F8.7°C 99% 5.5 mph N8.9 kmh N 7.9 mph12.7 kmh 29.72 in1006.4 mb 0.06 in1.5 mm 0.00 in0.0 mm 0.33 in8.4 mm
09:51 AM 48.2°F9.0°C 47.9°F8.8°C 99% 5.1 mph N8.2 kmh N 7.9 mph12.7 kmh 29.72 in1006.4 mb 0.06 in1.5 mm 0.00 in0.0 mm 0.33 in8.4 mm
09:50 AM 48.0°F8.9°C 47.8°F8.8°C 99% 4.8 mph N7.7 kmh N 7.0 mph11.3 kmh 29.72 in1006.4 mb 0.06 in1.5 mm 0.00 in0.0 mm 0.33 in8.4 mm
09:49 AM 47.8°F8.8°C 47.6°F8.7°C 99% 5.0 mph N8.0 kmh N 7.0 mph11.3 kmh 29.72 in1006.4 mb 0.07 in1.8 mm 0.60 in15.2 mm 0.33 in8.4 mm
09:48 AM 48.0°F8.9°C 47.8°F8.8°C 99% 5.0 mph N8.0 kmh N 7.0 mph11.3 kmh 29.73 in1006.8 mb 0.06 in1.5 mm 0.00 in0.0 mm 0.32 in8.1 mm
09:47 AM 47.8°F8.8°C 47.6°F8.7°C 99% 5.0 mph N8.0 kmh N 7.0 mph11.3 kmh 29.73 in1006.8 mb 0.06 in1.5 mm 0.00 in0.0 mm 0.32 in8.1 mm
09:46 AM 47.8°F8.8°C 47.6°F8.7°C 99% 4.8 mph N7.7 kmh N 7.0 mph11.3 kmh 29.73 in1006.8 mb 0.06 in1.5 mm 0.00 in0.0 mm 0.32 in8.1 mm
09:45 AM 47.7°F8.7°C 47.4°F8.6°C 99% 4.5 mph N7.2 kmh N 7.0 mph11.3 kmh 29.73 in1006.8 mb 0.06 in1.5 mm 0.00 in0.0 mm 0.32 in8.1 mm
09:44 AM 47.7°F8.7°C 47.4°F8.6°C 99% 4.3 mph N6.9 kmh N 7.0 mph11.3 kmh 29.73 in1006.8 mb 0.06 in1.5 mm 0.00 in0.0 mm 0.32 in8.1 mm
09:43 AM 47.8°F8.8°C 47.6°F8.7°C 99% 4.1 mph N6.6 kmh N 7.0 mph11.3 kmh 29.73 in1006.8 mb 0.06 in1.5 mm 0.00 in0.0 mm 0.32 in8.1 mm
09:42 AM 47.8°F8.8°C 47.6°F8.7°C 99% 3.9 mph N6.3 kmh N 7.0 mph11.3 kmh 29.73 in1006.8 mb 0.06 in1.5 mm 0.00 in0.0 mm 0.32 in8.1 mm
09:41 AM 47.8°F8.8°C 47.6°F8.7°C 99% 4.2 mph N6.8 kmh N 7.0 mph11.3 kmh 29.73 in1006.8 mb 0.06 in1.5 mm 0.00 in0.0 mm 0.32 in8.1 mm
09:40 AM 47.8°F8.8°C 47.6°F8.7°C 99% 4.2 mph N6.8 kmh N 7.0 mph11.3 kmh 29.73 in1006.8 mb 0.06 in1.5 mm 0.00 in0.0 mm 0.32 in8.1 mm
09:39 AM 47.7°F8.7°C 47.4°F8.6°C 99% 4.0 mph N6.4 kmh N 6.1 mph9.8 kmh 29.73 in1006.8 mb 0.06 in1.5 mm 0.00 in0.0 mm 0.32 in8.1 mm
09:38 AM 48.2°F9.0°C 47.9°F8.8°C 99% 4.1 mph N6.6 kmh N 6.1 mph9.8 kmh 29.73 in1006.8 mb 0.06 in1.5 mm 0.00 in0.0 mm 0.32 in8.1 mm
09:37 AM 48.0°F8.9°C 47.8°F8.8°C 99% 4.1 mph N6.6 kmh N 6.1 mph9.8 kmh 29.74 in1007.1 mb 0.06 in1.5 mm 0.60 in15.2 mm 0.32 in8.1 mm
09:36 AM 47.8°F8.8°C 47.6°F8.7°C 99% 4.3 mph N6.9 kmh N 6.1 mph9.8 kmh 29.73 in1006.8 mb 0.05 in1.3 mm 0.00 in0.0 mm 0.31 in7.9 mm
09:35 AM 48.0°F8.9°C 47.8°F8.8°C 99% 4.4 mph N7.1 kmh N 6.1 mph9.8 kmh 29.73 in1006.8 mb 0.05 in1.3 mm 0.00 in0.0 mm 0.31 in7.9 mm
09:34 AM 48.0°F8.9°C 47.8°F8.8°C 99% 4.6 mph N7.4 kmh N 6.1 mph9.8 kmh 29.73 in1006.8 mb 0.05 in1.3 mm 0.00 in0.0 mm 0.31 in7.9 mm
09:33 AM 47.8°F8.8°C 47.6°F8.7°C 99% 4.7 mph N7.6 kmh N 6.1 mph9.8 kmh 29.73 in1006.8 mb 0.05 in1.3 mm 0.00 in0.0 mm 0.31 in7.9 mm
09:32 AM 47.8°F8.8°C 47.6°F8.7°C 99% 4.7 mph N7.6 kmh N 6.1 mph9.8 kmh 29.73 in1006.8 mb 0.05 in1.3 mm 0.00 in0.0 mm 0.31 in7.9 mm
09:31 AM 47.8°F8.8°C 47.6°F8.7°C 99% 4.3 mph N6.9 kmh N 6.1 mph9.8 kmh 29.73 in1006.8 mb 0.05 in1.3 mm 0.00 in0.0 mm 0.31 in7.9 mm
09:30 AM 47.8°F8.8°C 47.6°F8.7°C 99% 4.0 mph N6.4 kmh N 6.1 mph9.8 kmh 29.73 in1006.8 mb 0.05 in1.3 mm 0.00 in0.0 mm 0.31 in7.9 mm
09:29 AM 47.7°F8.7°C 47.4°F8.6°C 99% 4.1 mph N6.6 kmh N 6.1 mph9.8 kmh 29.73 in1006.8 mb 0.05 in1.3 mm 0.00 in0.0 mm 0.31 in7.9 mm
09:28 AM 47.8°F8.8°C 47.6°F8.7°C 99% 3.9 mph N6.3 kmh N 5.2 mph8.4 kmh 29.73 in1006.8 mb 0.05 in1.3 mm 0.00 in0.0 mm 0.31 in7.9 mm
09:27 AM 47.7°F8.7°C 47.4°F8.6°C 99% 4.0 mph N6.4 kmh N 5.2 mph8.4 kmh 29.73 in1006.8 mb 0.05 in1.3 mm 0.00 in0.0 mm 0.31 in7.9 mm
09:26 AM 47.5°F8.6°C 47.2°F8.4°C 99% 3.9 mph N6.3 kmh N 5.2 mph8.4 kmh 29.73 in1006.8 mb 0.05 in1.3 mm 0.00 in0.0 mm 0.31 in7.9 mm
09:25 AM 47.7°F8.7°C 47.4°F8.6°C 99% 3.9 mph N6.3 kmh N 5.2 mph8.4 kmh 29.73 in1006.8 mb 0.05 in1.3 mm 0.00 in0.0 mm 0.31 in7.9 mm
09:24 AM 47.7°F8.7°C 47.4°F8.6°C 99% 3.9 mph N6.3 kmh N 5.2 mph8.4 kmh 29.73 in1006.8 mb 0.05 in1.3 mm 0.00 in0.0 mm 0.31 in7.9 mm
09:23 AM 47.7°F8.7°C 47.4°F8.6°C 99% 3.7 mph N6.0 kmh N 5.2 mph8.4 kmh 29.73 in1006.8 mb 0.05 in1.3 mm 0.00 in0.0 mm 0.31 in7.9 mm
09:22 AM 47.7°F8.7°C 47.4°F8.6°C 99% 3.9 mph N6.3 kmh N 5.2 mph8.4 kmh 29.74 in1007.1 mb 0.05 in1.3 mm 0.00 in0.0 mm 0.31 in7.9 mm
09:21 AM 47.8°F8.8°C 47.6°F8.7°C 99% 4.2 mph N6.8 kmh N 5.2 mph8.4 kmh 29.73 in1006.8 mb 0.05 in1.3 mm 0.00 in0.0 mm 0.31 in7.9 mm
09:20 AM 47.7°F8.7°C 47.4°F8.6°C 99% 4.3 mph N6.9 kmh N 5.2 mph8.4 kmh 29.74 in1007.1 mb 0.05 in1.3 mm 0.00 in0.0 mm 0.31 in7.9 mm
09:19 AM 47.7°F8.7°C 47.4°F8.6°C 99% 4.4 mph N7.1 kmh N 5.2 mph8.4 kmh 29.74 in1007.1 mb 0.05 in1.3 mm 0.00 in0.0 mm 0.31 in7.9 mm
09:18 AM 47.7°F8.7°C 47.4°F8.6°C 99% 4.3 mph N6.9 kmh N 5.2 mph8.4 kmh 29.73 in1006.8 mb 0.05 in1.3 mm 0.00 in0.0 mm 0.31 in7.9 mm
09:17 AM 47.7°F8.7°C 47.4°F8.6°C 99% 4.2 mph N6.8 kmh N 5.2 mph8.4 kmh 29.74 in1007.1 mb 0.05 in1.3 mm 0.60 in15.2 mm 0.31 in7.9 mm
09:16 AM 47.7°F8.7°C 47.4°F8.6°C 99% 4.2 mph N6.8 kmh N 5.2 mph8.4 kmh 29.73 in1006.8 mb 0.04 in1.0 mm 0.00 in0.0 mm 0.30 in7.6 mm
09:15 AM 47.7°F8.7°C 47.4°F8.6°C 99% 4.0 mph N6.4 kmh N 5.2 mph8.4 kmh 29.73 in1006.8 mb 0.04 in1.0 mm 0.00 in0.0 mm 0.30 in7.6 mm
09:14 AM 47.8°F8.8°C 47.6°F8.7°C 99% 3.9 mph N6.3 kmh N 5.2 mph8.4 kmh 29.73 in1006.8 mb 0.04 in1.0 mm 0.00 in0.0 mm 0.30 in7.6 mm
09:13 AM 47.7°F8.7°C 47.4°F8.6°C 99% 4.0 mph N6.4 kmh N 5.2 mph8.4 kmh 29.73 in1006.8 mb 0.04 in1.0 mm 0.00 in0.0 mm 0.30 in7.6 mm
09:12 AM 47.5°F8.6°C 47.2°F8.4°C 99% 3.8 mph N6.1 kmh N 5.2 mph8.4 kmh 29.73 in1006.8 mb 0.04 in1.0 mm 0.00 in0.0 mm 0.30 in7.6 mm
09:11 AM 47.5°F8.6°C 47.2°F8.4°C 99% 3.6 mph N5.8 kmh N 5.2 mph8.4 kmh 29.73 in1006.8 mb 0.04 in1.0 mm 0.00 in0.0 mm 0.30 in7.6 mm
09:10 AM 47.5°F8.6°C 47.2°F8.4°C 99% 3.5 mph N5.6 kmh N 5.2 mph8.4 kmh 29.73 in1006.8 mb 0.04 in1.0 mm 0.00 in0.0 mm 0.30 in7.6 mm
09:09 AM 47.5°F8.6°C 47.2°F8.4°C 99% 3.3 mph N5.3 kmh N 5.2 mph8.4 kmh 29.73 in1006.8 mb 0.04 in1.0 mm 0.00 in0.0 mm 0.30 in7.6 mm
09:08 AM 47.5°F8.6°C 47.2°F8.4°C 99% 3.2 mph N5.1 kmh N 4.4 mph7.1 kmh 29.73 in1006.8 mb 0.04 in1.0 mm 1.20 in30.5 mm 0.30 in7.6 mm
09:07 AM 47.5°F8.6°C 47.2°F8.4°C 99% 3.2 mph N5.1 kmh N 4.4 mph7.1 kmh 29.73 in1006.8 mb 0.02 in0.5 mm 0.00 in0.0 mm 0.28 in7.1 mm
09:06 AM 47.5°F8.6°C 47.2°F8.4°C 99% 3.3 mph N5.3 kmh N 4.4 mph7.1 kmh 29.73 in1006.8 mb 0.02 in0.5 mm 0.00 in0.0 mm 0.28 in7.1 mm
09:05 AM 47.5°F8.6°C 47.2°F8.4°C 99% 3.4 mph N5.5 kmh N 4.4 mph7.1 kmh 29.73 in1006.8 mb 0.02 in0.5 mm 0.00 in0.0 mm 0.28 in7.1 mm
09:04 AM 47.7°F8.7°C 47.4°F8.6°C 99% 3.4 mph N5.5 kmh N 4.4 mph7.1 kmh 29.73 in1006.8 mb 0.02 in0.5 mm 0.00 in0.0 mm 0.28 in7.1 mm
09:03 AM 47.5°F8.6°C 47.2°F8.4°C 99% 3.5 mph N5.6 kmh N 4.4 mph7.1 kmh 29.73 in1006.8 mb 0.02 in0.5 mm 0.00 in0.0 mm 0.28 in7.1 mm
09:02 AM 47.5°F8.6°C 47.2°F8.4°C 99% 3.5 mph N5.6 kmh N 4.4 mph7.1 kmh 29.73 in1006.8 mb 0.02 in0.5 mm 0.00 in0.0 mm 0.28 in7.1 mm
09:01 AM 47.5°F8.6°C 47.2°F8.4°C 99% 3.8 mph N6.1 kmh N 6.1 mph9.8 kmh 29.73 in1006.8 mb 0.02 in0.5 mm 0.00 in0.0 mm 0.28 in7.1 mm
09:00 AM 47.5°F8.6°C 47.2°F8.4°C 99% 4.1 mph N6.6 kmh N 6.1 mph9.8 kmh 29.73 in1006.8 mb 0.02 in0.5 mm 0.00 in0.0 mm 0.28 in7.1 mm
08:59 AM 47.7°F8.7°C 47.4°F8.6°C 99% 4.1 mph N6.6 kmh N 6.1 mph9.8 kmh 29.73 in1006.8 mb 0.02 in0.5 mm 0.60 in15.2 mm 0.28 in7.1 mm
08:58 AM 47.5°F8.6°C 47.2°F8.4°C 99% 4.3 mph N6.9 kmh N 6.1 mph9.8 kmh 29.73 in1006.8 mb 0.01 in0.3 mm 0.00 in0.0 mm 0.27 in6.9 mm
08:57 AM 47.5°F8.6°C 47.2°F8.4°C 99% 4.3 mph N6.9 kmh N 6.1 mph9.8 kmh 29.73 in1006.8 mb 0.01 in0.3 mm 0.00 in0.0 mm 0.27 in6.9 mm
08:56 AM 47.5°F8.6°C 47.2°F8.4°C 99% 4.3 mph N6.9 kmh N 6.1 mph9.8 kmh 29.73 in1006.8 mb 0.02 in0.5 mm 0.00 in0.0 mm 0.27 in6.9 mm
08:55 AM 47.5°F8.6°C 47.2°F8.4°C 99% 4.3 mph N6.9 kmh N 6.1 mph9.8 kmh 29.73 in1006.8 mb 0.02 in0.5 mm 0.00 in0.0 mm 0.27 in6.9 mm
08:54 AM 47.7°F8.7°C 47.4°F8.6°C 99% 4.3 mph N6.9 kmh N 6.1 mph9.8 kmh 29.73 in1006.8 mb 0.02 in0.5 mm 0.00 in0.0 mm 0.27 in6.9 mm
08:53 AM 47.5°F8.6°C 47.2°F8.4°C 99% 4.2 mph N6.8 kmh N 6.1 mph9.8 kmh 29.73 in1006.8 mb 0.02 in0.5 mm 0.00 in0.0 mm 0.27 in6.9 mm
08:52 AM 47.5°F8.6°C 47.2°F8.4°C 99% 4.3 mph N6.9 kmh N 6.1 mph9.8 kmh 29.73 in1006.8 mb 0.02 in0.5 mm 0.00 in0.0 mm 0.27 in6.9 mm
08:51 AM 47.5°F8.6°C 47.2°F8.4°C 99% 4.3 mph N6.9 kmh N 6.1 mph9.8 kmh 29.72 in1006.4 mb 0.02 in0.5 mm 0.60 in15.2 mm 0.27 in6.9 mm
08:50 AM 47.5°F8.6°C 47.2°F8.4°C 99% 4.2 mph N6.8 kmh N 6.1 mph9.8 kmh 29.73 in1006.8 mb 0.01 in0.3 mm 0.00 in0.0 mm 0.26 in6.6 mm
08:49 AM 47.5°F8.6°C 47.2°F8.4°C 99% 4.4 mph N7.1 kmh N 7.0 mph11.3 kmh 29.72 in1006.4 mb 0.01 in0.3 mm 0.00 in0.0 mm 0.26 in6.6 mm
08:48 AM 47.5°F8.6°C 47.2°F8.4°C 99% 4.4 mph N7.1 kmh N 7.0 mph11.3 kmh 29.72 in1006.4 mb 0.01 in0.3 mm 0.00 in0.0 mm 0.26 in6.6 mm
08:47 AM 47.5°F8.6°C 47.2°F8.4°C 99% 4.6 mph N7.4 kmh N 7.0 mph11.3 kmh 29.72 in1006.4 mb 0.02 in0.5 mm 0.00 in0.0 mm 0.26 in6.6 mm
08:46 AM 47.5°F8.6°C 47.2°F8.4°C 99% 4.6 mph N7.4 kmh N 7.0 mph11.3 kmh 29.72 in1006.4 mb 0.02 in0.5 mm 0.00 in0.0 mm 0.26 in6.6 mm
08:45 AM 47.5°F8.6°C 47.2°F8.4°C 99% 4.8 mph N7.7 kmh N 7.0 mph11.3 kmh 29.72 in1006.4 mb 0.02 in0.5 mm 0.00 in0.0 mm 0.26 in6.6 mm
08:44 AM 47.3°F8.5°C 47.0°F8.3°C 99% 5.1 mph N8.2 kmh N 7.0 mph11.3 kmh 29.72 in1006.4 mb 0.02 in0.5 mm 0.00 in0.0 mm 0.26 in6.6 mm
08:43 AM 47.3°F8.5°C 47.0°F8.3°C 99% 5.3 mph N8.5 kmh N 7.0 mph11.3 kmh 29.72 in1006.4 mb 0.02 in0.5 mm 0.00 in0.0 mm 0.26 in6.6 mm
08:42 AM 47.3°F8.5°C 47.0°F8.3°C 99% 5.5 mph N8.9 kmh N 7.0 mph11.3 kmh 29.72 in1006.4 mb 0.04 in1.0 mm 0.00 in0.0 mm 0.26 in6.6 mm
08:41 AM 47.5°F8.6°C 47.2°F8.4°C 99% 5.5 mph N8.9 kmh N 7.0 mph11.3 kmh 29.72 in1006.4 mb 0.04 in1.0 mm 0.00 in0.0 mm 0.26 in6.6 mm
08:40 AM 47.5°F8.6°C 47.2°F8.4°C 99% 5.5 mph N8.9 kmh N 7.0 mph11.3 kmh 29.72 in1006.4 mb 0.05 in1.3 mm 0.00 in0.0 mm 0.26 in6.6 mm
08:39 AM 47.5°F8.6°C 47.2°F8.4°C 99% 5.5 mph N8.9 kmh N 7.0 mph11.3 kmh 29.72 in1006.4 mb 0.05 in1.3 mm 0.00 in0.0 mm 0.26 in6.6 mm
08:38 AM 47.3°F8.5°C 47.0°F8.3°C 99% 5.3 mph N8.5 kmh N 7.0 mph11.3 kmh 29.72 in1006.4 mb 0.05 in1.3 mm 0.00 in0.0 mm 0.26 in6.6 mm
08:37 AM 47.3°F8.5°C 47.0°F8.3°C 99% 5.2 mph N8.4 kmh N 7.0 mph11.3 kmh 29.71 in1006.1 mb 0.06 in1.5 mm 0.00 in0.0 mm 0.26 in6.6 mm
08:36 AM 47.3°F8.5°C 47.0°F8.3°C 99% 5.2 mph N8.4 kmh N 7.0 mph11.3 kmh 29.71 in1006.1 mb 0.07 in1.8 mm 0.00 in0.0 mm 0.26 in6.6 mm
08:35 AM 47.3°F8.5°C 47.0°F8.3°C 99% 5.2 mph N8.4 kmh N 7.0 mph11.3 kmh 29.71 in1006.1 mb 0.07 in1.8 mm 0.00 in0.0 mm 0.26 in6.6 mm
08:34 AM 47.3°F8.5°C 47.0°F8.3°C 99% 4.9 mph N7.9 kmh N 7.0 mph11.3 kmh 29.71 in1006.1 mb 0.07 in1.8 mm 0.00 in0.0 mm 0.26 in6.6 mm
08:33 AM 47.3°F8.5°C 47.0°F8.3°C 99% 4.7 mph N7.6 kmh N 7.0 mph11.3 kmh 29.71 in1006.1 mb 0.07 in1.8 mm 0.00 in0.0 mm 0.26 in6.6 mm
08:32 AM 47.3°F8.5°C 47.0°F8.3°C 99% 4.6 mph N7.4 kmh N 7.0 mph11.3 kmh 29.71 in1006.1 mb 0.08 in2.0 mm 0.00 in0.0 mm 0.26 in6.6 mm
08:31 AM 47.3°F8.5°C 47.0°F8.3°C 99% 4.6 mph N7.4 kmh N 7.0 mph11.3 kmh 29.71 in1006.1 mb 0.09 in2.3 mm 0.00 in0.0 mm 0.26 in6.6 mm
08:30 AM 47.3°F8.5°C 47.0°F8.3°C 99% 4.7 mph N7.6 kmh N 7.0 mph11.3 kmh 29.71 in1006.1 mb 0.09 in2.3 mm 0.00 in0.0 mm 0.26 in6.6 mm
08:29 AM 47.3°F8.5°C 47.0°F8.3°C 99% 4.9 mph N7.9 kmh N 8.7 mph14.0 kmh 29.72 in1006.4 mb 0.09 in2.3 mm 0.00 in0.0 mm 0.26 in6.6 mm
08:28 AM 47.3°F8.5°C 47.0°F8.3°C 99% 5.0 mph N8.0 kmh N 8.7 mph14.0 kmh 29.72 in1006.4 mb 0.09 in2.3 mm 0.00 in0.0 mm 0.26 in6.6 mm
08:27 AM 47.3°F8.5°C 47.0°F8.3°C 99% 4.8 mph N7.7 kmh N 8.7 mph14.0 kmh 29.71 in1006.1 mb 0.09 in2.3 mm 0.00 in0.0 mm 0.26 in6.6 mm
08:26 AM 47.3°F8.5°C 47.0°F8.3°C 99% 4.9 mph N7.9 kmh N 8.7 mph14.0 kmh 29.71 in1006.1 mb 0.09 in2.3 mm 0.00 in0.0 mm 0.26 in6.6 mm
08:25 AM 47.3°F8.5°C 47.0°F8.3°C 99% 4.9 mph N7.9 kmh N 8.7 mph14.0 kmh 29.71 in1006.1 mb 0.09 in2.3 mm 0.00 in0.0 mm 0.26 in6.6 mm
08:24 AM 47.3°F8.5°C 47.0°F8.3°C 99% 5.0 mph N8.0 kmh N 8.7 mph14.0 kmh 29.71 in1006.1 mb 0.09 in2.3 mm 0.00 in0.0 mm 0.26 in6.6 mm
08:23 AM 47.1°F8.4°C 46.9°F8.3°C 99% 5.2 mph N8.4 kmh N 8.7 mph14.0 kmh 29.71 in1006.1 mb 0.11 in2.8 mm 0.00 in0.0 mm 0.26 in6.6 mm
08:22 AM 47.1°F8.4°C 46.9°F8.3°C 99% 5.3 mph N8.5 kmh N 8.7 mph14.0 kmh 29.71 in1006.1 mb 0.11 in2.8 mm 0.00 in0.0 mm 0.26 in6.6 mm
08:21 AM 47.1°F8.4°C 46.9°F8.3°C 99% 5.2 mph N8.4 kmh N 8.7 mph14.0 kmh 29.71 in1006.1 mb 0.11 in2.8 mm 0.00 in0.0 mm 0.26 in6.6 mm
08:20 AM 47.1°F8.4°C 46.9°F8.3°C 99% 5.1 mph N8.2 kmh N 8.7 mph14.0 kmh 29.70 in1005.8 mb 0.11 in2.8 mm 0.00 in0.0 mm 0.26 in6.6 mm
08:19 AM 47.1°F8.4°C 46.9°F8.3°C 99% 4.9 mph N7.9 kmh N 8.7 mph14.0 kmh 29.71 in1006.1 mb 0.12 in3.0 mm 0.00 in0.0 mm 0.26 in6.6 mm
08:18 AM 47.1°F8.4°C 46.9°F8.3°C 99% 5.0 mph N8.0 kmh N 7.0 mph11.3 kmh 29.71 in1006.1 mb 0.12 in3.0 mm 0.00 in0.0 mm 0.26 in6.6 mm
08:17 AM 46.9°F8.3°C 46.7°F8.2°C 99% 5.4 mph N8.7 kmh N 7.9 mph12.7 kmh 29.71 in1006.1 mb 0.12 in3.0 mm 0.00 in0.0 mm 0.26 in6.6 mm
08:16 AM 47.1°F8.4°C 46.9°F8.3°C 99% 5.4 mph N8.7 kmh N 7.9 mph12.7 kmh 29.71 in1006.1 mb 0.12 in3.0 mm 0.00 in0.0 mm 0.26 in6.6 mm
08:15 AM 46.9°F8.3°C 46.7°F8.2°C 99% 5.3 mph N8.5 kmh N 7.9 mph12.7 kmh 29.70 in1005.8 mb 0.12 in3.0 mm 0.00 in0.0 mm 0.26 in6.6 mm
08:14 AM 46.9°F8.3°C 46.7°F8.2°C 99% 5.1 mph N8.2 kmh N 7.9 mph12.7 kmh 29.71 in1006.1 mb 0.12 in3.0 mm 0.00 in0.0 mm 0.26 in6.6 mm
08:13 AM 47.1°F8.4°C 46.9°F8.3°C 99% 5.0 mph N8.0 kmh N 7.9 mph12.7 kmh 29.71 in1006.1 mb 0.13 in3.3 mm 0.00 in0.0 mm 0.26 in6.6 mm
08:12 AM 47.1°F8.4°C 46.9°F8.3°C 99% 4.6 mph N7.4 kmh N 7.9 mph12.7 kmh 29.70 in1005.8 mb 0.13 in3.3 mm 0.00 in0.0 mm 0.26 in6.6 mm
08:11 AM 46.9°F8.3°C 46.7°F8.2°C 99% 4.6 mph N7.4 kmh N 7.9 mph12.7 kmh 29.71 in1006.1 mb 0.13 in3.3 mm 0.00 in0.0 mm 0.26 in6.6 mm
08:10 AM 46.9°F8.3°C 46.7°F8.2°C 99% 4.5 mph N7.2 kmh N 7.9 mph12.7 kmh 29.71 in1006.1 mb 0.13 in3.3 mm 0.00 in0.0 mm 0.26 in6.6 mm
08:09 AM 46.9°F8.3°C 46.7°F8.2°C 99% 4.4 mph N7.1 kmh N 7.9 mph12.7 kmh 29.71 in1006.1 mb 0.13 in3.3 mm 0.00 in0.0 mm 0.26 in6.6 mm
08:08 AM 46.9°F8.3°C 46.7°F8.2°C 99% 4.0 mph N6.4 kmh N 7.9 mph12.7 kmh 29.70 in1005.8 mb 0.13 in3.3 mm 0.00 in0.0 mm 0.26 in6.6 mm
08:07 AM 47.1°F8.4°C 46.9°F8.3°C 99% 3.8 mph N6.1 kmh N 5.2 mph8.4 kmh 29.71 in1006.1 mb 0.13 in3.3 mm 0.00 in0.0 mm 0.26 in6.6 mm
08:06 AM 46.9°F8.3°C 46.7°F8.2°C 99% 3.7 mph N6.0 kmh N 4.4 mph7.1 kmh 29.71 in1006.1 mb 0.13 in3.3 mm 0.00 in0.0 mm 0.26 in6.6 mm
08:05 AM 46.8°F8.2°C 46.5°F8.1°C 99% 3.6 mph N5.8 kmh N 4.4 mph7.1 kmh 29.71 in1006.1 mb 0.13 in3.3 mm 0.00 in0.0 mm 0.26 in6.6 mm
08:04 AM 46.8°F8.2°C 46.5°F8.1°C 99% 3.6 mph N5.8 kmh N 4.4 mph7.1 kmh 29.70 in1005.8 mb 0.14 in3.6 mm 0.00 in0.0 mm 0.26 in6.6 mm
08:03 AM 46.8°F8.2°C 46.5°F8.1°C 99% 3.7 mph N6.0 kmh N 4.4 mph7.1 kmh 29.70 in1005.8 mb 0.14 in3.6 mm 0.00 in0.0 mm 0.26 in6.6 mm
08:02 AM 46.8°F8.2°C 46.5°F8.1°C 99% 3.7 mph N6.0 kmh N 4.4 mph7.1 kmh 29.70 in1005.8 mb 0.14 in3.6 mm 0.00 in0.0 mm 0.26 in6.6 mm
08:01 AM 46.8°F8.2°C 46.5°F8.1°C 99% 3.7 mph N6.0 kmh N 5.2 mph8.4 kmh 29.70 in1005.8 mb 0.14 in3.6 mm 0.00 in0.0 mm 0.26 in6.6 mm
08:00 AM 46.8°F8.2°C 46.5°F8.1°C 99% 3.9 mph N6.3 kmh N 6.1 mph9.8 kmh 29.70 in1005.8 mb 0.14 in3.6 mm 0.00 in0.0 mm 0.26 in6.6 mm
07:59 AM 46.8°F8.2°C 46.5°F8.1°C 99% 4.1 mph N6.6 kmh N 6.1 mph9.8 kmh 29.70 in1005.8 mb 0.14 in3.6 mm 0.00 in0.0 mm 0.26 in6.6 mm
07:58 AM 46.6°F8.1°C 46.3°F7.9°C 99% 4.1 mph N6.6 kmh N 6.1 mph9.8 kmh 29.70 in1005.8 mb 0.14 in3.6 mm 0.00 in0.0 mm 0.26 in6.6 mm
07:57 AM 46.8°F8.2°C 46.5°F8.1°C 99% 4.2 mph N6.8 kmh N 6.1 mph9.8 kmh 29.70 in1005.8 mb 0.14 in3.6 mm 0.60 in15.2 mm 0.26 in6.6 mm
07:56 AM 46.8°F8.2°C 46.5°F8.1°C 99% 4.3 mph N6.9 kmh N 6.1 mph9.8 kmh 29.70 in1005.8 mb 0.13 in3.3 mm 0.00 in0.0 mm 0.25 in6.4 mm
07:55 AM 46.6°F8.1°C 46.3°F7.9°C 99% 4.2 mph N6.8 kmh N 6.1 mph9.8 kmh 29.71 in1006.1 mb 0.13 in3.3 mm 0.00 in0.0 mm 0.25 in6.4 mm
07:54 AM 46.8°F8.2°C 46.5°F8.1°C 99% 4.3 mph N6.9 kmh N 6.1 mph9.8 kmh 29.71 in1006.1 mb 0.13 in3.3 mm 0.00 in0.0 mm 0.25 in6.4 mm
07:53 AM 46.6°F8.1°C 46.3°F7.9°C 99% 4.3 mph N6.9 kmh N 6.1 mph9.8 kmh 29.71 in1006.1 mb 0.13 in3.3 mm 0.00 in0.0 mm 0.25 in6.4 mm
07:52 AM 46.6°F8.1°C 46.3°F7.9°C 99% 4.3 mph N6.9 kmh N 6.1 mph9.8 kmh 29.71 in1006.1 mb 0.13 in3.3 mm 0.00 in0.0 mm 0.25 in6.4 mm
07:51 AM 46.4°F8.0°C 46.1°F7.8°C 99% 4.3 mph N6.9 kmh N 6.1 mph9.8 kmh 29.70 in1005.8 mb 0.13 in3.3 mm 0.00 in0.0 mm 0.25 in6.4 mm
07:50 AM 46.4°F8.0°C 46.1°F7.8°C 99% 4.2 mph N6.8 kmh N 6.1 mph9.8 kmh 29.71 in1006.1 mb 0.13 in3.3 mm 0.00 in0.0 mm 0.25 in6.4 mm
07:49 AM 46.2°F7.9°C 45.4°F7.4°C 97% 4.0 mph N6.4 kmh N 5.2 mph8.4 kmh 29.71 in1006.1 mb 0.13 in3.3 mm 0.00 in0.0 mm 0.25 in6.4 mm
07:48 AM 46.4°F8.0°C 46.1°F7.8°C 99% 4.0 mph N6.4 kmh N 5.2 mph8.4 kmh 29.71 in1006.1 mb 0.13 in3.3 mm 0.60 in15.2 mm 0.25 in6.4 mm
07:47 AM 46.2°F7.9°C 45.4°F7.4°C 97% 3.9 mph N6.3 kmh N 4.4 mph7.1 kmh 29.71 in1006.1 mb 0.12 in3.0 mm 0.00 in0.0 mm 0.24 in6.1 mm
07:46 AM 46.2°F7.9°C 45.4°F7.4°C 97% 3.8 mph N6.1 kmh N 4.4 mph7.1 kmh 29.71 in1006.1 mb 0.12 in3.0 mm 0.00 in0.0 mm 0.24 in6.1 mm
07:45 AM 46.2°F7.9°C 45.4°F7.4°C 97% 3.7 mph N6.0 kmh N 4.4 mph7.1 kmh 29.71 in1006.1 mb 0.12 in3.0 mm 0.00 in0.0 mm 0.24 in6.1 mm
07:44 AM 46.2°F7.9°C 45.4°F7.4°C 97% 3.6 mph N5.8 kmh N 4.4 mph7.1 kmh 29.71 in1006.1 mb 0.12 in3.0 mm 0.00 in0.0 mm 0.24 in6.1 mm
07:43 AM 46.2°F7.9°C 45.4°F7.4°C 97% 3.5 mph N5.6 kmh N 4.4 mph7.1 kmh 29.71 in1006.1 mb 0.12 in3.0 mm 0.60 in15.2 mm 0.24 in6.1 mm
07:42 AM 46.2°F7.9°C 45.4°F7.4°C 97% 3.4 mph N5.5 kmh N 4.4 mph7.1 kmh 29.71 in1006.1 mb 0.11 in2.8 mm 0.00 in0.0 mm 0.22 in5.6 mm
07:41 AM 46.2°F7.9°C 45.4°F7.4°C 97% 3.5 mph N5.6 kmh N 6.1 mph9.8 kmh 29.71 in1006.1 mb 0.11 in2.8 mm 1.20 in30.5 mm 0.22 in5.6 mm
07:40 AM 46.4°F8.0°C 46.1°F7.8°C 99% 3.6 mph N5.8 kmh N 6.1 mph9.8 kmh 29.71 in1006.1 mb 0.09 in2.3 mm 0.00 in0.0 mm 0.21 in5.3 mm
07:39 AM 46.2°F7.9°C 45.4°F7.4°C 97% 3.7 mph N6.0 kmh N 6.1 mph9.8 kmh 29.71 in1006.1 mb 0.09 in2.3 mm 0.00 in0.0 mm 0.21 in5.3 mm
07:38 AM 46.2°F7.9°C 45.4°F7.4°C 97% 3.6 mph N5.8 kmh N 6.1 mph9.8 kmh 29.72 in1006.4 mb 0.09 in2.3 mm 0.60 in15.2 mm 0.21 in5.3 mm
07:37 AM 46.2°F7.9°C 45.4°F7.4°C 97% 3.5 mph N5.6 kmh N 6.1 mph9.8 kmh 29.72 in1006.4 mb 0.08 in2.0 mm 0.60 in15.2 mm 0.20 in5.1 mm
07:36 AM 46.2°F7.9°C 45.4°F7.4°C 97% 3.3 mph N5.3 kmh N 6.1 mph9.8 kmh 29.72 in1006.4 mb 0.07 in1.8 mm 0.00 in0.0 mm 0.19 in4.8 mm
07:35 AM 46.4°F8.0°C 46.1°F7.8°C 99% 3.3 mph N5.3 kmh N 6.1 mph9.8 kmh 29.72 in1006.4 mb 0.07 in1.8 mm 0.00 in0.0 mm 0.19 in4.8 mm
07:34 AM 46.4°F8.0°C 46.1°F7.8°C 99% 3.4 mph N5.5 kmh N 6.1 mph9.8 kmh 29.71 in1006.1 mb 0.07 in1.8 mm 0.00 in0.0 mm 0.19 in4.8 mm
07:33 AM 46.4°F8.0°C 46.1°F7.8°C 99% 3.3 mph N5.3 kmh N 6.1 mph9.8 kmh 29.72 in1006.4 mb 0.08 in2.0 mm 0.60 in15.2 mm 0.19 in4.8 mm
07:32 AM 46.4°F8.0°C 46.1°F7.8°C 99% 3.3 mph N5.3 kmh N 6.1 mph9.8 kmh 29.72 in1006.4 mb 0.07 in1.8 mm 0.60 in15.2 mm 0.18 in4.6 mm
07:31 AM 46.2°F7.9°C 45.4°F7.4°C 97% 3.0 mph N4.8 kmh N 6.1 mph9.8 kmh 29.73 in1006.8 mb 0.06 in1.5 mm 0.00 in0.0 mm 0.17 in4.3 mm
07:30 AM 46.2°F7.9°C 45.4°F7.4°C 97% 2.7 mph N4.3 kmh N 5.2 mph8.4 kmh 29.72 in1006.4 mb 0.07 in1.8 mm 0.00 in0.0 mm 0.17 in4.3 mm
07:29 AM 46.2°F7.9°C 45.4°F7.4°C 97% 2.4 mph N3.9 kmh N 5.2 mph8.4 kmh 29.72 in1006.4 mb 0.07 in1.8 mm 0.00 in0.0 mm 0.17 in4.3 mm
07:28 AM 46.2°F7.9°C 45.4°F7.4°C 97% 2.3 mph N3.7 kmh N 3.5 mph5.6 kmh 29.72 in1006.4 mb 0.07 in1.8 mm 0.00 in0.0 mm 0.17 in4.3 mm
07:27 AM 46.2°F7.9°C 45.4°F7.4°C 97% 2.2 mph N3.5 kmh N 3.5 mph5.6 kmh 29.72 in1006.4 mb 0.08 in2.0 mm 0.00 in0.0 mm 0.17 in4.3 mm
07:26 AM 46.2°F7.9°C 45.4°F7.4°C 97% 2.1 mph N3.4 kmh N 3.5 mph5.6 kmh 29.72 in1006.4 mb 0.08 in2.0 mm 0.00 in0.0 mm 0.17 in4.3 mm
07:25 AM 46.4°F8.0°C 46.1°F7.8°C 99% 2.1 mph N3.4 kmh N 3.5 mph5.6 kmh 29.72 in1006.4 mb 0.08 in2.0 mm 0.00 in0.0 mm 0.17 in4.3 mm
07:24 AM 46.4°F8.0°C 46.1°F7.8°C 99% 1.9 mph N3.1 kmh N 3.5 mph5.6 kmh 29.72 in1006.4 mb 0.08 in2.0 mm 0.60 in15.2 mm 0.17 in4.3 mm
07:23 AM 46.6°F8.1°C 46.3°F7.9°C 99% 2.1 mph N3.4 kmh N 3.5 mph5.6 kmh 29.71 in1006.1 mb 0.07 in1.8 mm 0.00 in0.0 mm 0.15 in3.8 mm
07:22 AM 46.6°F8.1°C 46.3°F7.9°C 99% 2.1 mph N3.4 kmh N 3.5 mph5.6 kmh 29.71 in1006.1 mb 0.07 in1.8 mm 0.00 in0.0 mm 0.15 in3.8 mm
07:21 AM 46.6°F8.1°C 46.3°F7.9°C 99% 2.2 mph N3.5 kmh N 3.5 mph5.6 kmh 29.71 in1006.1 mb 0.07 in1.8 mm 0.00 in0.0 mm 0.15 in3.8 mm
07:20 AM 46.6°F8.1°C 46.3°F7.9°C 99% 2.3 mph N3.7 kmh N 3.5 mph5.6 kmh 29.71 in1006.1 mb 0.07 in1.8 mm 0.00 in0.0 mm 0.15 in3.8 mm
07:19 AM 46.4°F8.0°C 46.1°F7.8°C 99% 2.4 mph N3.9 kmh N 3.5 mph5.6 kmh 29.71 in1006.1 mb 0.07 in1.8 mm 0.00 in0.0 mm 0.14 in3.6 mm
07:18 AM 46.2°F7.9°C 45.4°F7.4°C 97% 2.4 mph N3.9 kmh N 3.5 mph5.6 kmh 29.71 in1006.1 mb 0.07 in1.8 mm 0.00 in0.0 mm 0.14 in3.6 mm
07:17 AM 46.2°F7.9°C 45.4°F7.4°C 97% 2.6 mph N4.2 kmh N 3.5 mph5.6 kmh 29.71 in1006.1 mb 0.07 in1.8 mm 0.00 in0.0 mm 0.14 in3.6 mm
07:16 AM 46.4°F8.0°C 46.1°F7.8°C 99% 2.7 mph NNW4.3 kmh NNW 3.5 mph5.6 kmh 29.72 in1006.4 mb 0.07 in1.8 mm 0.00 in0.0 mm 0.14 in3.6 mm
07:15 AM 46.6°F8.1°C 46.3°F7.9°C 99% 2.8 mph NNW4.5 kmh NNW 3.5 mph5.6 kmh 29.71 in1006.1 mb 0.07 in1.8 mm 0.00 in0.0 mm 0.14 in3.6 mm
07:14 AM 46.6°F8.1°C 46.3°F7.9°C 99% 2.9 mph NNW4.7 kmh NNW 3.5 mph5.6 kmh 29.71 in1006.1 mb 0.07 in1.8 mm 0.60 in15.2 mm 0.14 in3.6 mm
07:13 AM 46.4°F8.0°C 46.1°F7.8°C 99% 2.8 mph N4.5 kmh N 3.5 mph5.6 kmh 29.71 in1006.1 mb 0.06 in1.5 mm 0.00 in0.0 mm 0.13 in3.3 mm
07:12 AM 46.6°F8.1°C 46.3°F7.9°C 99% 2.8 mph N4.5 kmh N 3.5 mph5.6 kmh 29.71 in1006.1 mb 0.06 in1.5 mm 0.00 in0.0 mm 0.13 in3.3 mm
07:11 AM 46.4°F8.0°C 46.1°F7.8°C 99% 3.0 mph NNW4.8 kmh NNW 5.2 mph8.4 kmh 29.71 in1006.1 mb 0.06 in1.5 mm 0.00 in0.0 mm 0.13 in3.3 mm
07:10 AM 46.6°F8.1°C 46.3°F7.9°C 99% 3.1 mph NNW5.0 kmh NNW 5.2 mph8.4 kmh 29.71 in1006.1 mb 0.06 in1.5 mm 0.00 in0.0 mm 0.13 in3.3 mm
07:09 AM 46.6°F8.1°C 46.3°F7.9°C 99% 3.0 mph NNW4.8 kmh NNW 5.2 mph8.4 kmh 29.71 in1006.1 mb 0.06 in1.5 mm 0.00 in0.0 mm 0.13 in3.3 mm
07:08 AM 46.4°F8.0°C 46.1°F7.8°C 99% 3.1 mph NNW5.0 kmh NNW 5.2 mph8.4 kmh 29.71 in1006.1 mb 0.06 in1.5 mm 0.00 in0.0 mm 0.13 in3.3 mm
07:07 AM 46.4°F8.0°C 46.1°F7.8°C 99% 3.1 mph NNW5.0 kmh NNW 5.2 mph8.4 kmh 29.71 in1006.1 mb 0.06 in1.5 mm 0.00 in0.0 mm 0.13 in3.3 mm
07:06 AM 46.6°F8.1°C 46.3°F7.9°C 99% 3.1 mph N5.0 kmh N 5.2 mph8.4 kmh 29.71 in1006.1 mb 0.06 in1.5 mm 0.00 in0.0 mm 0.13 in3.3 mm
07:05 AM 46.6°F8.1°C 46.3°F7.9°C 99% 2.9 mph N4.7 kmh N 5.2 mph8.4 kmh 29.71 in1006.1 mb 0.06 in1.5 mm 0.00 in0.0 mm 0.13 in3.3 mm
07:04 AM 46.4°F8.0°C 46.1°F7.8°C 99% 2.8 mph N4.5 kmh N 5.2 mph8.4 kmh 29.71 in1006.1 mb 0.06 in1.5 mm 0.00 in0.0 mm 0.12 in3.0 mm
07:03 AM 46.6°F8.1°C 46.3°F7.9°C 99% 2.8 mph N4.5 kmh N 5.2 mph8.4 kmh 29.72 in1006.4 mb 0.06 in1.5 mm 0.00 in0.0 mm 0.12 in3.0 mm
07:02 AM 46.4°F8.0°C 46.1°F7.8°C 99% 2.9 mph N4.7 kmh N 5.2 mph8.4 kmh 29.72 in1006.4 mb 0.06 in1.5 mm 0.00 in0.0 mm 0.12 in3.0 mm
07:01 AM 46.6°F8.1°C 46.3°F7.9°C 99% 2.8 mph N4.5 kmh N 5.2 mph8.4 kmh 29.72 in1006.4 mb 0.06 in1.5 mm 0.00 in0.0 mm 0.12 in3.0 mm
07:00 AM 46.6°F8.1°C 46.3°F7.9°C 99% 2.6 mph N4.2 kmh N 3.5 mph5.6 kmh 29.71 in1006.1 mb 0.06 in1.5 mm 0.00 in0.0 mm 0.12 in3.0 mm
06:59 AM 46.4°F8.0°C 46.1°F7.8°C 99% 2.5 mph N4.0 kmh N 3.5 mph5.6 kmh 29.71 in1006.1 mb 0.06 in1.5 mm 0.00 in0.0 mm 0.12 in3.0 mm
06:58 AM 46.2°F7.9°C 45.4°F7.4°C 97% 2.5 mph N4.0 kmh N 3.5 mph5.6 kmh 29.71 in1006.1 mb 0.06 in1.5 mm 0.00 in0.0 mm 0.12 in3.0 mm
06:57 AM 46.4°F8.0°C 46.1°F7.8°C 99% 2.5 mph N4.0 kmh N 3.5 mph5.6 kmh 29.71 in1006.1 mb 0.06 in1.5 mm 0.00 in0.0 mm 0.12 in3.0 mm
06:56 AM 46.4°F8.0°C 46.1°F7.8°C 99% 2.5 mph N4.0 kmh N 3.5 mph5.6 kmh 29.72 in1006.4 mb 0.06 in1.5 mm 0.00 in0.0 mm 0.12 in3.0 mm
06:55 AM 46.4°F8.0°C 46.1°F7.8°C 99% 2.6 mph N4.2 kmh N 3.5 mph5.6 kmh 29.71 in1006.1 mb 0.06 in1.5 mm 0.00 in0.0 mm 0.12 in3.0 mm
06:54 AM 46.2°F7.9°C 45.4°F7.4°C 97% 2.8 mph N4.5 kmh N 3.5 mph5.6 kmh 29.71 in1006.1 mb 0.06 in1.5 mm 0.00 in0.0 mm 0.12 in3.0 mm
06:53 AM 46.2°F7.9°C 45.4°F7.4°C 97% 2.9 mph N4.7 kmh N 3.5 mph5.6 kmh 29.71 in1006.1 mb 0.06 in1.5 mm 0.00 in0.0 mm 0.12 in3.0 mm
06:52 AM 46.4°F8.0°C 46.1°F7.8°C 99% 2.8 mph N4.5 kmh N 3.5 mph5.6 kmh 29.71 in1006.1 mb 0.06 in1.5 mm 0.00 in0.0 mm 0.12 in3.0 mm
06:51 AM 46.4°F8.0°C 46.1°F7.8°C 99% 2.8 mph N4.5 kmh N 3.5 mph5.6 kmh 29.72 in1006.4 mb 0.06 in1.5 mm 0.00 in0.0 mm 0.12 in3.0 mm
06:50 AM 46.4°F8.0°C 46.1°F7.8°C 99% 2.9 mph N4.7 kmh N 3.5 mph5.6 kmh 29.71 in1006.1 mb 0.06 in1.5 mm 0.00 in0.0 mm 0.12 in3.0 mm
06:49 AM 46.6°F8.1°C 46.3°F7.9°C 99% 3.0 mph N4.8 kmh N 3.5 mph5.6 kmh 29.71 in1006.1 mb 0.06 in1.5 mm 0.00 in0.0 mm 0.12 in3.0 mm
06:48 AM 46.4°F8.0°C 46.1°F7.8°C 99% 3.0 mph N4.8 kmh N 4.4 mph7.1 kmh 29.71 in1006.1 mb 0.06 in1.5 mm 0.00 in0.0 mm 0.12 in3.0 mm
06:47 AM 46.6°F8.1°C 46.3°F7.9°C 99% 3.0 mph N4.8 kmh N 4.4 mph7.1 kmh 29.71 in1006.1 mb 0.06 in1.5 mm 0.00 in0.0 mm 0.12 in3.0 mm
06:46 AM 46.4°F8.0°C 46.1°F7.8°C 99% 3.1 mph N5.0 kmh N 4.4 mph7.1 kmh 29.71 in1006.1 mb 0.06 in1.5 mm 0.00 in0.0 mm 0.12 in3.0 mm
06:45 AM 46.2°F7.9°C 45.4°F7.4°C 97% 3.1 mph N5.0 kmh N 4.4 mph7.1 kmh 29.72 in1006.4 mb 0.07 in1.8 mm 0.00 in0.0 mm 0.12 in3.0 mm
06:44 AM 46.4°F8.0°C 46.1°F7.8°C 99% 3.2 mph N5.1 kmh N 4.4 mph7.1 kmh 29.71 in1006.1 mb 0.07 in1.8 mm 0.00 in0.0 mm 0.12 in3.0 mm
06:43 AM 46.4°F8.0°C 46.1°F7.8°C 99% 3.3 mph N5.3 kmh N 4.4 mph7.1 kmh 29.71 in1006.1 mb 0.07 in1.8 mm 0.00 in0.0 mm 0.12 in3.0 mm
06:42 AM 46.2°F7.9°C 45.4°F7.4°C 97% 3.5 mph N5.6 kmh N 4.4 mph7.1 kmh 29.70 in1005.8 mb 0.07 in1.8 mm 0.00 in0.0 mm 0.12 in3.0 mm
06:41 AM 46.2°F7.9°C 45.4°F7.4°C 97% 3.6 mph N5.8 kmh N 4.4 mph7.1 kmh 29.71 in1006.1 mb 0.07 in1.8 mm 0.00 in0.0 mm 0.12 in3.0 mm
06:40 AM 46.2°F7.9°C 45.4°F7.4°C 97% 3.8 mph N6.1 kmh N 4.4 mph7.1 kmh 29.70 in1005.8 mb 0.07 in1.8 mm 0.00 in0.0 mm 0.12 in3.0 mm
06:39 AM 46.2°F7.9°C 45.4°F7.4°C 97% 3.9 mph N6.3 kmh N 4.4 mph7.1 kmh 29.70 in1005.8 mb 0.07 in1.8 mm 0.00 in0.0 mm 0.12 in3.0 mm
06:38 AM 46.2°F7.9°C 45.4°F7.4°C 97% 4.0 mph N6.4 kmh N 4.4 mph7.1 kmh 29.70 in1005.8 mb 0.08 in2.0 mm 0.00 in0.0 mm 0.12 in3.0 mm
06:37 AM 46.2°F7.9°C 45.4°F7.4°C 97% 4.1 mph N6.6 kmh N 4.4 mph7.1 kmh 29.70 in1005.8 mb 0.08 in2.0 mm 0.00 in0.0 mm 0.12 in3.0 mm
06:36 AM 46.2°F7.9°C 45.4°F7.4°C 97% 4.2 mph N6.8 kmh N 4.4 mph7.1 kmh 29.70 in1005.8 mb 0.08 in2.0 mm 0.00 in0.0 mm 0.12 in3.0 mm
06:35 AM 46.2°F7.9°C 45.4°F7.4°C 97% 4.3 mph N6.9 kmh N 4.4 mph7.1 kmh 29.70 in1005.8 mb 0.08 in2.0 mm 0.60 in15.2 mm 0.12 in3.0 mm
06:34 AM 46.2°F7.9°C 45.4°F7.4°C 97% 4.3 mph N6.9 kmh N 4.4 mph7.1 kmh 29.70 in1005.8 mb 0.07 in1.8 mm 0.00 in0.0 mm 0.11 in2.8 mm
06:33 AM 46.2°F7.9°C 45.4°F7.4°C 97% 4.3 mph N6.9 kmh N 4.4 mph7.1 kmh 29.70 in1005.8 mb 0.07 in1.8 mm 0.00 in0.0 mm 0.11 in2.8 mm
06:32 AM 46.2°F7.9°C 45.4°F7.4°C 97% 4.2 mph N6.8 kmh N 4.4 mph7.1 kmh 29.70 in1005.8 mb 0.07 in1.8 mm 0.60 in15.2 mm 0.11 in2.8 mm
06:31 AM 46.2°F7.9°C 45.4°F7.4°C 97% 4.3 mph N6.9 kmh N 5.2 mph8.4 kmh 29.70 in1005.8 mb 0.06 in1.5 mm 0.00 in0.0 mm 0.09 in2.3 mm
06:30 AM 46.2°F7.9°C 45.4°F7.4°C 97% 4.3 mph N6.9 kmh N 5.2 mph8.4 kmh 29.70 in1005.8 mb 0.07 in1.8 mm 0.00 in0.0 mm 0.09 in2.3 mm
06:29 AM 46.2°F7.9°C 45.4°F7.4°C 97% 4.3 mph N6.9 kmh N 5.2 mph8.4 kmh 29.69 in1005.4 mb 0.07 in1.8 mm 0.60 in15.2 mm 0.09 in2.3 mm
06:28 AM 46.0°F7.8°C 45.2°F7.3°C 97% 4.2 mph N6.8 kmh N 5.2 mph8.4 kmh 29.69 in1005.4 mb 0.06 in1.5 mm 0.00 in0.0 mm 0.08 in2.0 mm
06:27 AM 46.2°F7.9°C 45.4°F7.4°C 97% 4.1 mph N6.6 kmh N 5.2 mph8.4 kmh 29.70 in1005.8 mb 0.06 in1.5 mm 0.00 in0.0 mm 0.08 in2.0 mm
06:26 AM 46.2°F7.9°C 45.4°F7.4°C 97% 4.0 mph N6.4 kmh N 5.2 mph8.4 kmh 29.70 in1005.8 mb 0.06 in1.5 mm 0.00 in0.0 mm 0.08 in2.0 mm
06:25 AM 46.2°F7.9°C 45.4°F7.4°C 97% 4.0 mph N6.4 kmh N 5.2 mph8.4 kmh 29.69 in1005.4 mb 0.06 in1.5 mm 0.00 in0.0 mm 0.08 in2.0 mm
06:24 AM 46.0°F7.8°C 45.2°F7.3°C 97% 3.9 mph N6.3 kmh N 5.2 mph8.4 kmh 29.70 in1005.8 mb 0.06 in1.5 mm 0.00 in0.0 mm 0.08 in2.0 mm
06:23 AM 46.0°F7.8°C 45.2°F7.3°C 97% 3.8 mph N6.1 kmh N 5.2 mph8.4 kmh 29.70 in1005.8 mb 0.06 in1.5 mm 0.00 in0.0 mm 0.08 in2.0 mm
06:22 AM 46.2°F7.9°C 45.4°F7.4°C 97% 3.8 mph N6.1 kmh N 5.2 mph8.4 kmh 29.69 in1005.4 mb 0.06 in1.5 mm 0.00 in0.0 mm 0.08 in2.0 mm
06:21 AM 46.2°F7.9°C 45.4°F7.4°C 97% 3.7 mph N6.0 kmh N 5.2 mph8.4 kmh 29.70 in1005.8 mb 0.06 in1.5 mm 0.60 in15.2 mm 0.08 in2.0 mm
06:20 AM 46.0°F7.8°C 45.2°F7.3°C 97% 3.6 mph N5.8 kmh N 4.4 mph7.1 kmh 29.70 in1005.8 mb 0.05 in1.3 mm 0.00 in0.0 mm 0.07 in1.8 mm
06:19 AM 46.2°F7.9°C 45.4°F7.4°C 97% 3.6 mph N5.8 kmh N 4.4 mph7.1 kmh 29.69 in1005.4 mb 0.05 in1.3 mm 0.00 in0.0 mm 0.07 in1.8 mm
06:18 AM 46.0°F7.8°C 45.2°F7.3°C 97% 3.6 mph N5.8 kmh N 4.4 mph7.1 kmh 29.69 in1005.4 mb 0.05 in1.3 mm 0.00 in0.0 mm 0.07 in1.8 mm
06:17 AM 46.0°F7.8°C 45.2°F7.3°C 97% 3.6 mph N5.8 kmh N 4.4 mph7.1 kmh 29.69 in1005.4 mb 0.06 in1.5 mm 0.00 in0.0 mm 0.07 in1.8 mm
06:16 AM 46.2°F7.9°C 45.4°F7.4°C 97% 3.5 mph N5.6 kmh N 4.4 mph7.1 kmh 29.69 in1005.4 mb 0.06 in1.5 mm 0.00 in0.0 mm 0.07 in1.8 mm
06:15 AM 46.2°F7.9°C 45.4°F7.4°C 97% 3.4 mph N5.5 kmh N 4.4 mph7.1 kmh 29.69 in1005.4 mb 0.06 in1.5 mm 0.00 in0.0 mm 0.07 in1.8 mm
06:14 AM 46.0°F7.8°C 45.2°F7.3°C 97% 3.3 mph N5.3 kmh N 4.4 mph7.1 kmh 29.69 in1005.4 mb 0.06 in1.5 mm 0.00 in0.0 mm 0.07 in1.8 mm
06:13 AM 46.0°F7.8°C 45.2°F7.3°C 97% 3.2 mph N5.1 kmh N 4.4 mph7.1 kmh 29.69 in1005.4 mb 0.06 in1.5 mm 0.00 in0.0 mm 0.07 in1.8 mm
06:12 AM 46.0°F7.8°C 45.2°F7.3°C 97% 3.1 mph N5.0 kmh N 4.4 mph7.1 kmh 29.69 in1005.4 mb 0.06 in1.5 mm 0.00 in0.0 mm 0.07 in1.8 mm
06:11 AM 46.0°F7.8°C 45.2°F7.3°C 97% 3.0 mph N4.8 kmh N 4.4 mph7.1 kmh 29.69 in1005.4 mb 0.06 in1.5 mm 0.00 in0.0 mm 0.07 in1.8 mm
06:10 AM 46.0°F7.8°C 45.2°F7.3°C 97% 2.9 mph N4.7 kmh N 4.4 mph7.1 kmh 29.69 in1005.4 mb 0.06 in1.5 mm 0.00 in0.0 mm 0.07 in1.8 mm
06:09 AM 46.0°F7.8°C 45.2°F7.3°C 97% 2.8 mph N4.5 kmh N 4.4 mph7.1 kmh 29.69 in1005.4 mb 0.06 in1.5 mm 0.00 in0.0 mm 0.07 in1.8 mm
06:08 AM 46.0°F7.8°C 45.2°F7.3°C 97% 2.7 mph N4.3 kmh N 3.5 mph5.6 kmh 29.69 in1005.4 mb 0.07 in1.8 mm 0.00 in0.0 mm 0.07 in1.8 mm
06:07 AM 46.0°F7.8°C 45.2°F7.3°C 97% 2.9 mph N4.7 kmh N 4.4 mph7.1 kmh 29.70 in1005.8 mb 0.07 in1.8 mm 0.00 in0.0 mm 0.07 in1.8 mm
06:06 AM 46.0°F7.8°C 45.2°F7.3°C 97% 2.9 mph N4.7 kmh N 4.4 mph7.1 kmh 29.69 in1005.4 mb 0.07 in1.8 mm 0.60 in15.2 mm 0.07 in1.8 mm
06:05 AM 46.2°F7.9°C 45.4°F7.4°C 97% 3.0 mph N4.8 kmh N 4.4 mph7.1 kmh 29.70 in1005.8 mb 0.06 in1.5 mm 0.00 in0.0 mm 0.06 in1.5 mm
06:04 AM 46.2°F7.9°C 45.4°F7.4°C 97% 3.1 mph N5.0 kmh N 4.4 mph7.1 kmh 29.70 in1005.8 mb 0.06 in1.5 mm 0.00 in0.0 mm 0.06 in1.5 mm
06:03 AM 46.2°F7.9°C 45.4°F7.4°C 97% 3.2 mph N5.1 kmh N 4.4 mph7.1 kmh 29.69 in1005.4 mb 0.06 in1.5 mm 0.00 in0.0 mm 0.06 in1.5 mm
06:02 AM 46.2°F7.9°C 45.4°F7.4°C 97% 3.3 mph N5.3 kmh N 4.4 mph7.1 kmh 29.69 in1005.4 mb 0.06 in1.5 mm 0.00 in0.0 mm 0.06 in1.5 mm
06:01 AM 46.2°F7.9°C 45.4°F7.4°C 97% 3.4 mph N5.5 kmh N 4.4 mph7.1 kmh 29.70 in1005.8 mb 0.06 in1.5 mm 0.00 in0.0 mm 0.06 in1.5 mm
06:00 AM 46.2°F7.9°C 45.4°F7.4°C 97% 3.5 mph N5.6 kmh N 4.4 mph7.1 kmh 29.69 in1005.4 mb 0.06 in1.5 mm 0.00 in0.0 mm 0.06 in1.5 mm
05:59 AM 46.0°F7.8°C 45.2°F7.3°C 97% 3.5 mph N5.6 kmh N 4.4 mph7.1 kmh 29.69 in1005.4 mb 0.06 in1.5 mm 0.00 in0.0 mm 0.06 in1.5 mm
05:58 AM 46.0°F7.8°C 45.2°F7.3°C 97% 3.6 mph N5.8 kmh N 4.4 mph7.1 kmh 29.69 in1005.4 mb 0.06 in1.5 mm 0.00 in0.0 mm 0.06 in1.5 mm
05:57 AM 46.0°F7.8°C 45.2°F7.3°C 97% 3.3 mph N5.3 kmh N 4.4 mph7.1 kmh 29.69 in1005.4 mb 0.06 in1.5 mm 0.00 in0.0 mm 0.06 in1.5 mm
05:56 AM 46.0°F7.8°C 45.2°F7.3°C 97% 3.2 mph N5.1 kmh N 4.4 mph7.1 kmh 29.69 in1005.4 mb 0.06 in1.5 mm 0.00 in0.0 mm 0.06 in1.5 mm
05:55 AM 46.0°F7.8°C 45.2°F7.3°C 97% 3.1 mph N5.0 kmh N 4.4 mph7.1 kmh 29.68 in1005.1 mb 0.06 in1.5 mm 0.00 in0.0 mm 0.06 in1.5 mm
05:54 AM 46.0°F7.8°C 45.2°F7.3°C 97% 3.0 mph N4.8 kmh N 4.4 mph7.1 kmh 29.68 in1005.1 mb 0.06 in1.5 mm 0.00 in0.0 mm 0.06 in1.5 mm
05:53 AM 46.0°F7.8°C 45.2°F7.3°C 97% 2.8 mph N4.5 kmh N 3.5 mph5.6 kmh 29.68 in1005.1 mb 0.06 in1.5 mm 0.00 in0.0 mm 0.06 in1.5 mm
05:52 AM 46.0°F7.8°C 45.2°F7.3°C 97% 2.7 mph N4.3 kmh N 3.5 mph5.6 kmh 29.69 in1005.4 mb 0.06 in1.5 mm 0.00 in0.0 mm 0.06 in1.5 mm
05:51 AM 46.0°F7.8°C 45.2°F7.3°C 97% 2.7 mph N4.3 kmh N 3.5 mph5.6 kmh 29.68 in1005.1 mb 0.06 in1.5 mm 0.00 in0.0 mm 0.06 in1.5 mm
05:50 AM 46.0°F7.8°C 45.2°F7.3°C 97% 2.6 mph N4.2 kmh N 3.5 mph5.6 kmh 29.69 in1005.4 mb 0.06 in1.5 mm 0.00 in0.0 mm 0.06 in1.5 mm
05:49 AM 46.0°F7.8°C 45.2°F7.3°C 97% 2.6 mph N4.2 kmh N 3.5 mph5.6 kmh 29.69 in1005.4 mb 0.06 in1.5 mm 0.00 in0.0 mm 0.06 in1.5 mm
05:48 AM 46.0°F7.8°C 45.2°F7.3°C 97% 2.5 mph N4.0 kmh N 3.5 mph5.6 kmh 29.69 in1005.4 mb 0.06 in1.5 mm 0.00 in0.0 mm 0.06 in1.5 mm
05:47 AM 46.2°F7.9°C 45.4°F7.4°C 97% 2.6 mph N4.2 kmh N 3.5 mph5.6 kmh 29.68 in1005.1 mb 0.06 in1.5 mm 0.60 in15.2 mm 0.06 in1.5 mm
05:46 AM 46.2°F7.9°C 45.4°F7.4°C 97% 2.6 mph N4.2 kmh N 3.5 mph5.6 kmh 29.68 in1005.1 mb 0.05 in1.3 mm 0.00 in0.0 mm 0.05 in1.3 mm
05:45 AM 46.2°F7.9°C 45.4°F7.4°C 97% 2.7 mph N4.3 kmh N 3.5 mph5.6 kmh 29.68 in1005.1 mb 0.05 in1.3 mm 0.00 in0.0 mm 0.05 in1.3 mm
05:44 AM 46.0°F7.8°C 45.2°F7.3°C 97% 2.7 mph N4.3 kmh N 3.5 mph5.6 kmh 29.68 in1005.1 mb 0.05 in1.3 mm 0.00 in0.0 mm 0.05 in1.3 mm
05:43 AM 46.2°F7.9°C 45.4°F7.4°C 97% 2.8 mph N4.5 kmh N 3.5 mph5.6 kmh 29.68 in1005.1 mb 0.05 in1.3 mm 0.00 in0.0 mm 0.05 in1.3 mm
05:42 AM 46.0°F7.8°C 45.2°F7.3°C 97% 2.9 mph N4.7 kmh N 3.5 mph5.6 kmh 29.68 in1005.1 mb 0.05 in1.3 mm 0.00 in0.0 mm 0.05 in1.3 mm
05:41 AM 46.2°F7.9°C 45.4°F7.4°C 97% 2.9 mph N4.7 kmh N 3.5 mph5.6 kmh 29.68 in1005.1 mb 0.05 in1.3 mm 0.00 in0.0 mm 0.05 in1.3 mm
05:40 AM 46.2°F7.9°C 45.4°F7.4°C 97% 2.9 mph N4.7 kmh N 3.5 mph5.6 kmh 29.68 in1005.1 mb 0.05 in1.3 mm 0.60 in15.2 mm 0.05 in1.3 mm
05:39 AM 46.2°F7.9°C 45.4°F7.4°C 97% 3.0 mph NNW4.8 kmh NNW 3.5 mph5.6 kmh 29.68 in1005.1 mb 0.04 in1.0 mm 0.00 in0.0 mm 0.04 in1.0 mm
05:38 AM 46.2°F7.9°C 45.4°F7.4°C 97% 3.1 mph NNW5.0 kmh NNW 3.5 mph5.6 kmh 29.68 in1005.1 mb 0.04 in1.0 mm 0.00 in0.0 mm 0.04 in1.0 mm
05:37 AM 46.2°F7.9°C 45.4°F7.4°C 97% 3.2 mph NNW5.1 kmh NNW 3.5 mph5.6 kmh 29.68 in1005.1 mb 0.04 in1.0 mm 0.00 in0.0 mm 0.04 in1.0 mm
05:36 AM 46.2°F7.9°C 45.4°F7.4°C 97% 3.2 mph NNW5.1 kmh NNW 3.5 mph5.6 kmh 29.68 in1005.1 mb 0.04 in1.0 mm 0.00 in0.0 mm 0.04 in1.0 mm
05:35 AM 46.2°F7.9°C 45.4°F7.4°C 97% 3.2 mph NNW5.1 kmh NNW 3.5 mph5.6 kmh 29.68 in1005.1 mb 0.04 in1.0 mm 0.00 in0.0 mm 0.04 in1.0 mm
05:34 AM 46.2°F7.9°C 45.4°F7.4°C 97% 3.2 mph NNW5.1 kmh NNW 3.5 mph5.6 kmh 29.68 in1005.1 mb 0.04 in1.0 mm 0.00 in0.0 mm 0.04 in1.0 mm
05:33 AM 46.2°F7.9°C 45.4°F7.4°C 97% 3.2 mph NNW5.1 kmh NNW 3.5 mph5.6 kmh 29.68 in1005.1 mb 0.04 in1.0 mm 0.00 in0.0 mm 0.04 in1.0 mm
05:32 AM 46.2°F7.9°C 45.4°F7.4°C 97% 3.1 mph N5.0 kmh N 3.5 mph5.6 kmh 29.67 in1004.7 mb 0.04 in1.0 mm 1.20 in30.5 mm 0.04 in1.0 mm
05:31 AM 46.2°F7.9°C 45.4°F7.4°C 97% 3.0 mph N4.8 kmh N 3.5 mph5.6 kmh 29.68 in1005.1 mb 0.02 in0.5 mm 0.00 in0.0 mm 0.02 in0.5 mm
05:30 AM 46.2°F7.9°C 45.4°F7.4°C 97% 3.0 mph N4.8 kmh N 3.5 mph5.6 kmh 29.68 in1005.1 mb 0.02 in0.5 mm 0.00 in0.0 mm 0.02 in0.5 mm
05:29 AM 46.2°F7.9°C 45.4°F7.4°C 97% 2.9 mph N4.7 kmh N 3.5 mph5.6 kmh 29.68 in1005.1 mb 0.02 in0.5 mm 0.00 in0.0 mm 0.02 in0.5 mm
05:28 AM 46.4°F8.0°C 45.6°F7.6°C 97% 2.9 mph N4.7 kmh N 3.5 mph5.6 kmh 29.68 in1005.1 mb 0.02 in0.5 mm 0.00 in0.0 mm 0.02 in0.5 mm
05:27 AM 46.4°F8.0°C 45.6°F7.6°C 97% 2.9 mph N4.7 kmh N 3.5 mph5.6 kmh 29.68 in1005.1 mb 0.02 in0.5 mm 0.00 in0.0 mm 0.02 in0.5 mm
05:26 AM 46.4°F8.0°C 45.6°F7.6°C 97% 2.8 mph N4.5 kmh N 3.5 mph5.6 kmh 29.68 in1005.1 mb 0.02 in0.5 mm 0.00 in0.0 mm 0.02 in0.5 mm
05:25 AM 46.4°F8.0°C 45.6°F7.6°C 97% 2.8 mph N4.5 kmh N 3.5 mph5.6 kmh 29.68 in1005.1 mb 0.02 in0.5 mm 0.00 in0.0 mm 0.02 in0.5 mm
05:24 AM 46.4°F8.0°C 45.3°F7.4°C 96% 2.8 mph N4.5 kmh N 3.5 mph5.6 kmh 29.68 in1005.1 mb 0.02 in0.5 mm 0.00 in0.0 mm 0.02 in0.5 mm
05:23 AM 46.4°F8.0°C 45.3°F7.4°C 96% 2.7 mph N4.3 kmh N 3.5 mph5.6 kmh 29.69 in1005.4 mb 0.02 in0.5 mm 0.00 in0.0 mm 0.02 in0.5 mm
05:22 AM 46.6°F8.1°C 45.5°F7.5°C 96% 2.7 mph N4.3 kmh N 3.5 mph5.6 kmh 29.69 in1005.4 mb 0.02 in0.5 mm 0.00 in0.0 mm 0.02 in0.5 mm
05:21 AM 46.6°F8.1°C 45.2°F7.3°C 95% 2.7 mph N4.3 kmh N 3.5 mph5.6 kmh 29.68 in1005.1 mb 0.02 in0.5 mm 0.00 in0.0 mm 0.02 in0.5 mm
05:20 AM 46.6°F8.1°C 45.2°F7.3°C 95% 2.7 mph N4.3 kmh N 3.5 mph5.6 kmh 29.69 in1005.4 mb 0.02 in0.5 mm 0.00 in0.0 mm 0.02 in0.5 mm
05:19 AM 46.6°F8.1°C 44.9°F7.2°C 94% 2.7 mph N4.3 kmh N 3.5 mph5.6 kmh 29.68 in1005.1 mb 0.02 in0.5 mm 0.60 in15.2 mm 0.02 in0.5 mm
05:18 AM 46.8°F8.2°C 45.1°F7.3°C 94% 2.7 mph N4.3 kmh N 3.5 mph5.6 kmh 29.68 in1005.1 mb 0.01 in0.3 mm 0.00 in0.0 mm 0.01 in0.3 mm
05:17 AM 46.8°F8.2°C 45.1°F7.3°C 94% 2.9 mph N4.7 kmh N 5.2 mph8.4 kmh 29.69 in1005.4 mb 0.01 in0.3 mm 0.00 in0.0 mm 0.01 in0.3 mm
05:16 AM 46.9°F8.3°C 45.0°F7.2°C 93% 3.1 mph N5.0 kmh N 5.2 mph8.4 kmh 29.69 in1005.4 mb 0.01 in0.3 mm 0.00 in0.0 mm 0.01 in0.3 mm
05:15 AM 46.9°F8.3°C 45.0°F7.2°C 93% 3.1 mph N5.0 kmh N 5.2 mph8.4 kmh 29.69 in1005.4 mb 0.01 in0.3 mm 0.00 in0.0 mm 0.01 in0.3 mm
05:14 AM 46.9°F8.3°C 45.0°F7.2°C 93% 3.1 mph N5.0 kmh N 5.2 mph8.4 kmh 29.68 in1005.1 mb 0.01 in0.3 mm 0.00 in0.0 mm 0.01 in0.3 mm
05:13 AM 47.1°F8.4°C 44.9°F7.2°C 92% 3.0 mph N4.8 kmh N 5.2 mph8.4 kmh 29.69 in1005.4 mb 0.01 in0.3 mm 0.00 in0.0 mm 0.01 in0.3 mm
05:12 AM 47.3°F8.5°C 45.1°F7.3°C 92% 2.9 mph N4.7 kmh N 5.2 mph8.4 kmh 29.68 in1005.1 mb 0.01 in0.3 mm 0.00 in0.0 mm 0.01 in0.3 mm
05:11 AM 47.3°F8.5°C 45.1°F7.3°C 92% 2.8 mph N4.5 kmh N 5.2 mph8.4 kmh 29.68 in1005.1 mb 0.01 in0.3 mm 0.00 in0.0 mm 0.01 in0.3 mm
05:10 AM 47.3°F8.5°C 45.1°F7.3°C 92% 2.7 mph N4.3 kmh N 5.2 mph8.4 kmh 29.68 in1005.1 mb 0.01 in0.3 mm 0.60 in15.2 mm 0.01 in0.3 mm
05:09 AM 47.5°F8.6°C 45.3°F7.4°C 92% 2.6 mph N4.2 kmh N 5.2 mph8.4 kmh 29.68 in1005.1 mb 0.00 in0.0 mm 0.00 in0.0 mm 0.00 in0.0 mm
05:08 AM 47.3°F8.5°C 44.8°F7.1°C 91% 2.5 mph N4.0 kmh N 5.2 mph8.4 kmh 29.69 in1005.4 mb 0.00 in0.0 mm 0.00 in0.0 mm 0.00 in0.0 mm
05:07 AM 47.1°F8.4°C 44.6°F7.0°C 91% 2.2 mph N3.5 kmh N 5.2 mph8.4 kmh 29.69 in1005.4 mb 0.00 in0.0 mm 0.00 in0.0 mm 0.00 in0.0 mm
05:06 AM 47.3°F8.5°C 44.8°F7.1°C 91% 2.0 mph N3.2 kmh N 4.4 mph7.1 kmh 29.69 in1005.4 mb 0.00 in0.0 mm 0.00 in0.0 mm 0.00 in0.0 mm
05:05 AM 47.5°F8.6°C 44.7°F7.1°C 90% 1.9 mph N3.1 kmh N 2.6 mph4.2 kmh 29.69 in1005.4 mb 0.00 in0.0 mm 0.00 in0.0 mm 0.00 in0.0 mm
05:04 AM 47.7°F8.7°C 44.6°F7.0°C 89% 1.9 mph N3.1 kmh N 2.6 mph4.2 kmh 29.69 in1005.4 mb 0.00 in0.0 mm 0.00 in0.0 mm 0.00 in0.0 mm
05:03 AM 47.8°F8.8°C 44.5°F6.9°C 88% 1.9 mph N3.1 kmh N 2.6 mph4.2 kmh 29.69 in1005.4 mb 0.00 in0.0 mm 0.00 in0.0 mm 0.00 in0.0 mm
05:02 AM 47.8°F8.8°C 44.5°F6.9°C 88% 1.9 mph N3.1 kmh N 2.6 mph4.2 kmh 29.68 in1005.1 mb 0.00 in0.0 mm 0.00 in0.0 mm 0.00 in0.0 mm
05:01 AM 47.8°F8.8°C 44.5°F6.9°C 88% 2.0 mph N3.2 kmh N 2.6 mph4.2 kmh 29.68 in1005.1 mb 0.00 in0.0 mm 0.00 in0.0 mm 0.00 in0.0 mm
05:00 AM 48.0°F8.9°C 44.3°F6.8°C 87% 2.1 mph N3.4 kmh N 2.6 mph4.2 kmh 29.69 in1005.4 mb 0.00 in0.0 mm 0.00 in0.0 mm 0.00 in0.0 mm
04:59 AM 48.0°F8.9°C 44.3°F6.8°C 87% 2.1 mph N3.4 kmh N 2.6 mph4.2 kmh 29.68 in1005.1 mb 0.00 in0.0 mm 0.00 in0.0 mm 0.00 in0.0 mm
04:58 AM 48.0°F8.9°C 44.3°F6.8°C 87% 2.1 mph N3.4 kmh N 2.6 mph4.2 kmh 29.69 in1005.4 mb 0.00 in0.0 mm 0.00 in0.0 mm 0.00 in0.0 mm
04:57 AM 48.0°F8.9°C 44.3°F6.8°C 87% 2.2 mph N3.5 kmh N 2.6 mph4.2 kmh 29.68 in1005.1 mb 0.00 in0.0 mm 0.00 in0.0 mm 0.00 in0.0 mm
04:56 AM 48.0°F8.9°C 44.0°F6.7°C 86% 2.3 mph N3.7 kmh N 4.4 mph7.1 kmh 29.68 in1005.1 mb 0.00 in0.0 mm 0.00 in0.0 mm 0.00 in0.0 mm
04:55 AM 48.2°F9.0°C 43.9°F6.6°C 85% 2.5 mph N4.0 kmh N 4.4 mph7.1 kmh 29.68 in1005.1 mb 0.00 in0.0 mm 0.00 in0.0 mm 0.00 in0.0 mm
04:54 AM 48.2°F9.0°C 43.9°F6.6°C 85% 2.7 mph N4.3 kmh N 4.4 mph7.1 kmh 29.69 in1005.4 mb 0.00 in0.0 mm 0.00 in0.0 mm 0.00 in0.0 mm
04:53 AM 48.4°F9.1°C 43.8°F6.6°C 84% 2.8 mph N4.5 kmh N 5.2 mph8.4 kmh 29.68 in1005.1 mb 0.00 in0.0 mm 0.00 in0.0 mm 0.00 in0.0 mm
04:52 AM 48.6°F9.2°C 43.9°F6.6°C 84% 3.2 mph N5.1 kmh N 5.2 mph8.4 kmh 29.68 in1005.1 mb 0.00 in0.0 mm 0.00 in0.0 mm 0.00 in0.0 mm
04:51 AM 48.6°F9.2°C 43.6°F6.4°C 83% 3.3 mph N5.3 kmh N 5.2 mph8.4 kmh 29.68 in1005.1 mb 0.00 in0.0 mm 0.00 in0.0 mm 0.00 in0.0 mm
04:50 AM 48.6°F9.2°C 43.6°F6.4°C 83% 3.3 mph N5.3 kmh N 5.2 mph8.4 kmh 29.68 in1005.1 mb 0.00 in0.0 mm 0.00 in0.0 mm 0.00 in0.0 mm
04:49 AM 48.7°F9.3°C 43.8°F6.6°C 83% 3.3 mph N5.3 kmh N 5.2 mph8.4 kmh 29.68 in1005.1 mb 0.00 in0.0 mm 0.00 in0.0 mm 0.00 in0.0 mm
04:48 AM 48.7°F9.3°C 43.8°F6.6°C 83% 3.3 mph N5.3 kmh N 5.2 mph8.4 kmh 29.69 in1005.4 mb 0.00 in0.0 mm 0.00 in0.0 mm 0.00 in0.0 mm
04:47 AM 48.9°F9.4°C 44.0°F6.7°C 83% 3.5 mph N5.6 kmh N 5.2 mph8.4 kmh 29.68 in1005.1 mb 0.00 in0.0 mm 0.00 in0.0 mm 0.00 in0.0 mm
04:46 AM 48.9°F9.4°C 44.0°F6.7°C 83% 3.4 mph NNE5.5 kmh NNE 5.2 mph8.4 kmh 29.68 in1005.1 mb 0.00 in0.0 mm 0.00 in0.0 mm 0.00 in0.0 mm
04:45 AM 48.9°F9.4°C 44.0°F6.7°C 83% 3.2 mph NNE5.1 kmh NNE 5.2 mph8.4 kmh 29.68 in1005.1 mb 0.00 in0.0 mm 0.00 in0.0 mm 0.00 in0.0 mm
04:44 AM 48.9°F9.4°C 44.0°F6.7°C 83% 3.2 mph NNE5.1 kmh NNE 5.2 mph8.4 kmh 29.68 in1005.1 mb 0.00 in0.0 mm 0.00 in0.0 mm 0.00 in0.0 mm
04:43 AM 48.9°F9.4°C 44.0°F6.7°C 83% 3.1 mph NNE5.0 kmh NNE 5.2 mph8.4 kmh 29.68 in1005.1 mb 0.00 in0.0 mm 0.00 in0.0 mm 0.00 in0.0 mm
04:42 AM 48.9°F9.4°C 43.7°F6.5°C 82% 3.0 mph NNE4.8 kmh NNE 4.4 mph7.1 kmh 29.68 in1005.1 mb 0.00 in0.0 mm 0.00 in0.0 mm 0.00 in0.0 mm
04:41 AM 48.9°F9.4°C 43.7°F6.5°C 82% 3.0 mph NNE4.8 kmh NNE 5.2 mph8.4 kmh 29.68 in1005.1 mb 0.00 in0.0 mm 0.00 in0.0 mm 0.00 in0.0 mm
04:40 AM 48.9°F9.4°C 43.7°F6.5°C 82% 3.2 mph NNE5.1 kmh NNE 5.2 mph8.4 kmh 29.68 in1005.1 mb 0.00 in0.0 mm 0.00 in0.0 mm 0.00 in0.0 mm
04:39 AM 49.1°F9.5°C 43.8°F6.6°C 82% 3.3 mph N5.3 kmh N 5.2 mph8.4 kmh 29.68 in1005.1 mb 0.00 in0.0 mm 0.00 in0.0 mm 0.00 in0.0 mm
04:38 AM 49.1°F9.5°C 43.8°F6.6°C 82% 3.4 mph N5.5 kmh N 5.2 mph8.4 kmh 29.69 in1005.4 mb 0.00 in0.0 mm 0.00 in0.0 mm 0.00 in0.0 mm
04:37 AM 49.1°F9.5°C 43.8°F6.6°C 82% 3.3 mph N5.3 kmh N 5.2 mph8.4 kmh 29.68 in1005.1 mb 0.00 in0.0 mm 0.00 in0.0 mm 0.00 in0.0 mm
04:36 AM 49.1°F9.5°C 43.8°F6.6°C 82% 3.4 mph N5.5 kmh N 5.2 mph8.4 kmh 29.68 in1005.1 mb 0.00 in0.0 mm 0.00 in0.0 mm 0.00 in0.0 mm
04:35 AM 49.1°F9.5°C 43.8°F6.6°C 82% 3.3 mph N5.3 kmh N 5.2 mph8.4 kmh 29.69 in1005.4 mb 0.00 in0.0 mm 0.00 in0.0 mm 0.00 in0.0 mm
04:34 AM 49.1°F9.5°C 43.8°F6.6°C 82% 3.4 mph N5.5 kmh N 5.2 mph8.4 kmh 29.68 in1005.1 mb 0.00 in0.0 mm 0.00 in0.0 mm 0.00 in0.0 mm
04:33 AM 49.1°F9.5°C 43.8°F6.6°C 82% 3.4 mph N5.5 kmh N 5.2 mph8.4 kmh 29.68 in1005.1 mb 0.00 in0.0 mm 0.00 in0.0 mm 0.00 in0.0 mm
04:32 AM 48.9°F9.4°C 43.7°F6.5°C 82% 3.4 mph N5.5 kmh N 5.2 mph8.4 kmh 29.68 in1005.1 mb 0.00 in0.0 mm 0.00 in0.0 mm 0.00 in0.0 mm
04:31 AM 49.1°F9.5°C 43.8°F6.6°C 82% 3.3 mph N5.3 kmh N 5.2 mph8.4 kmh 29.68 in1005.1 mb 0.00 in0.0 mm 0.00 in0.0 mm 0.00 in0.0 mm
04:30 AM 49.1°F9.5°C 43.8°F6.6°C 82% 3.1 mph N5.0 kmh N 4.4 mph7.1 kmh 29.68 in1005.1 mb 0.00 in0.0 mm 0.00 in0.0 mm 0.00 in0.0 mm
04:29 AM 49.1°F9.5°C 43.8°F6.6°C 82% 3.1 mph N5.0 kmh N 4.4 mph7.1 kmh 29.68 in1005.1 mb 0.00 in0.0 mm 0.00 in0.0 mm 0.00 in0.0 mm
04:28 AM 49.1°F9.5°C 43.8°F6.6°C 82% 3.1 mph N5.0 kmh N 4.4 mph7.1 kmh 29.68 in1005.1 mb 0.00 in0.0 mm 0.00 in0.0 mm 0.00 in0.0 mm
04:27 AM 49.1°F9.5°C 43.8°F6.6°C 82% 3.1 mph N5.0 kmh N 4.4 mph7.1 kmh 29.67 in1004.7 mb 0.00 in0.0 mm 0.00 in0.0 mm 0.00 in0.0 mm
04:26 AM 49.1°F9.5°C 43.8°F6.6°C 82% 3.2 mph N5.1 kmh N 4.4 mph7.1 kmh 29.68 in1005.1 mb 0.00 in0.0 mm 0.00 in0.0 mm 0.00 in0.0 mm
04:25 AM 49.1°F9.5°C 43.8°F6.6°C 82% 3.3 mph N5.3 kmh N 4.4 mph7.1 kmh 29.68 in1005.1 mb 0.00 in0.0 mm 0.00 in0.0 mm 0.00 in0.0 mm
04:24 AM 49.3°F9.6°C 43.7°F6.5°C 81% 3.4 mph N5.5 kmh N 4.4 mph7.1 kmh 29.67 in1004.7 mb 0.00 in0.0 mm 0.00 in0.0 mm 0.00 in0.0 mm
04:23 AM 49.3°F9.6°C 43.7°F6.5°C 81% 3.7 mph N6.0 kmh N 5.2 mph8.4 kmh 29.68 in1005.1 mb 0.00 in0.0 mm 0.00 in0.0 mm 0.00 in0.0 mm
04:22 AM 49.3°F9.6°C 43.7°F6.5°C 81% 3.7 mph N6.0 kmh N 5.2 mph8.4 kmh 29.67 in1004.7 mb 0.00 in0.0 mm 0.00 in0.0 mm 0.00 in0.0 mm
04:21 AM 49.3°F9.6°C 43.7°F6.5°C 81% 3.7 mph N6.0 kmh N 5.2 mph8.4 kmh 29.67 in1004.7 mb 0.00 in0.0 mm 0.00 in0.0 mm 0.00 in0.0 mm
04:20 AM 49.3°F9.6°C 43.7°F6.5°C 81% 3.8 mph N6.1 kmh N 5.2 mph8.4 kmh 29.67 in1004.7 mb 0.00 in0.0 mm 0.00 in0.0 mm 0.00 in0.0 mm
04:19 AM 49.3°F9.6°C 43.7°F6.5°C 81% 3.7 mph N6.0 kmh N 5.2 mph8.4 kmh 29.67 in1004.7 mb 0.00 in0.0 mm 0.00 in0.0 mm 0.00 in0.0 mm
04:18 AM 49.3°F9.6°C 43.7°F6.5°C 81% 3.8 mph N6.1 kmh N 5.2 mph8.4 kmh 29.67 in1004.7 mb 0.00 in0.0 mm 0.00 in0.0 mm 0.00 in0.0 mm
04:17 AM 49.3°F9.6°C 44.0°F6.7°C 82% 4.0 mph N6.4 kmh N 5.2 mph8.4 kmh 29.67 in1004.7 mb 0.00 in0.0 mm 0.00 in0.0 mm 0.00 in0.0 mm
04:16 AM 49.3°F9.6°C 43.7°F6.5°C 81% 4.0 mph N6.4 kmh N 5.2 mph8.4 kmh 29.66 in1004.4 mb 0.00 in0.0 mm 0.00 in0.0 mm 0.00 in0.0 mm
04:15 AM 49.1°F9.5°C 43.5°F6.4°C 81% 3.8 mph N6.1 kmh N 5.2 mph8.4 kmh 29.66 in1004.4 mb 0.00 in0.0 mm 0.00 in0.0 mm 0.00 in0.0 mm
04:14 AM 49.1°F9.5°C 43.5°F6.4°C 81% 3.6 mph N5.8 kmh N 5.2 mph8.4 kmh 29.66 in1004.4 mb 0.00 in0.0 mm 0.00 in0.0 mm 0.00 in0.0 mm
04:13 AM 49.1°F9.5°C 43.5°F6.4°C 81% 3.3 mph N5.3 kmh N 5.2 mph8.4 kmh 29.66 in1004.4 mb 0.00 in0.0 mm 0.00 in0.0 mm 0.00 in0.0 mm
04:12 AM 49.3°F9.6°C 43.7°F6.5°C 81% 3.1 mph N5.0 kmh N 5.2 mph8.4 kmh 29.66 in1004.4 mb 0.00 in0.0 mm 0.00 in0.0 mm 0.00 in0.0 mm
04:11 AM 49.3°F9.6°C 43.7°F6.5°C 81% 2.9 mph N4.7 kmh N 5.2 mph8.4 kmh 29.66 in1004.4 mb 0.00 in0.0 mm 0.00 in0.0 mm 0.00 in0.0 mm
04:10 AM 49.3°F9.6°C 43.7°F6.5°C 81% 2.8 mph N4.5 kmh N 5.2 mph8.4 kmh 29.66 in1004.4 mb 0.00 in0.0 mm 0.00 in0.0 mm 0.00 in0.0 mm
04:09 AM 49.3°F9.6°C 43.7°F6.5°C 81% 2.6 mph N4.2 kmh N 5.2 mph8.4 kmh 29.66 in1004.4 mb 0.00 in0.0 mm 0.00 in0.0 mm 0.00 in0.0 mm
04:08 AM 49.1°F9.5°C 43.5°F6.4°C 81% 2.4 mph N3.9 kmh N 5.2 mph8.4 kmh 29.66 in1004.4 mb 0.00 in0.0 mm 0.00 in0.0 mm 0.00 in0.0 mm
04:07 AM 48.9°F9.4°C 43.3°F6.3°C 81% 2.2 mph N3.5 kmh N 4.4 mph7.1 kmh 29.66 in1004.4 mb 0.00 in0.0 mm 0.00 in0.0 mm 0.00 in0.0 mm
04:06 AM 49.3°F9.6°C 43.7°F6.5°C 81% 2.2 mph N3.5 kmh N 4.4 mph7.1 kmh 29.66 in1004.4 mb 0.00 in0.0 mm 0.00 in0.0 mm 0.00 in0.0 mm
04:05 AM 49.3°F9.6°C 43.7°F6.5°C 81% 2.4 mph N3.9 kmh N 5.2 mph8.4 kmh 29.66 in1004.4 mb 0.00 in0.0 mm 0.00 in0.0 mm 0.00 in0.0 mm
04:04 AM 49.3°F9.6°C 43.7°F6.5°C 81% 2.7 mph N4.3 kmh N 5.2 mph8.4 kmh 29.67 in1004.7 mb 0.00 in0.0 mm 0.00 in0.0 mm 0.00 in0.0 mm
04:03 AM 49.3°F9.6°C 43.7°F6.5°C 81% 3.0 mph N4.8 kmh N 5.2 mph8.4 kmh 29.66 in1004.4 mb 0.00 in0.0 mm 0.00 in0.0 mm 0.00 in0.0 mm
04:02 AM 49.3°F9.6°C 43.7°F6.5°C 81% 3.1 mph N5.0 kmh N 5.2 mph8.4 kmh 29.66 in1004.4 mb 0.00 in0.0 mm 0.00 in0.0 mm 0.00 in0.0 mm
04:01 AM 49.3°F9.6°C 43.7°F6.5°C 81% 3.4 mph N5.5 kmh N 5.2 mph8.4 kmh 29.66 in1004.4 mb 0.00 in0.0 mm 0.00 in0.0 mm 0.00 in0.0 mm
04:00 AM 49.3°F9.6°C 43.7°F6.5°C 81% 3.5 mph N5.6 kmh N 5.2 mph8.4 kmh 29.66 in1004.4 mb 0.00 in0.0 mm 0.00 in0.0 mm 0.00 in0.0 mm
03:59 AM 49.3°F9.6°C 43.7°F6.5°C 81% 3.6 mph N5.8 kmh N 5.2 mph8.4 kmh 29.66 in1004.4 mb 0.00 in0.0 mm 0.00 in0.0 mm 0.00 in0.0 mm
03:58 AM 49.5°F9.7°C 43.9°F6.6°C 81% 3.8 mph N6.1 kmh N 5.2 mph8.4 kmh 29.66 in1004.4 mb 0.00 in0.0 mm 0.00 in0.0 mm 0.00 in0.0 mm
03:57 AM 49.5°F9.7°C 43.9°F6.6°C 81% 3.9 mph N6.3 kmh N 5.2 mph8.4 kmh 29.66 in1004.4 mb 0.00 in0.0 mm 0.00 in0.0 mm 0.00 in0.0 mm
03:56 AM 49.3°F9.6°C 43.7°F6.5°C 81% 3.8 mph N6.1 kmh N 5.2 mph8.4 kmh 29.66 in1004.4 mb 0.00 in0.0 mm 0.00 in0.0 mm 0.00 in0.0 mm
03:55 AM 49.3°F9.6°C 43.7°F6.5°C 81% 4.1 mph N6.6 kmh N 9.6 mph15.4 kmh 29.66 in1004.4 mb 0.00 in0.0 mm 0.00 in0.0 mm 0.00 in0.0 mm
03:54 AM 49.3°F9.6°C 43.7°F6.5°C 81% 4.5 mph N7.2 kmh N 9.6 mph15.4 kmh 29.66 in1004.4 mb 0.00 in0.0 mm 0.00 in0.0 mm 0.00 in0.0 mm
03:53 AM 49.5°F9.7°C 43.9°F6.6°C 81% 4.6 mph N7.4 kmh N 9.6 mph15.4 kmh 29.66 in1004.4 mb 0.00 in0.0 mm 0.00 in0.0 mm 0.00 in0.0 mm
03:52 AM 49.5°F9.7°C 43.9°F6.6°C 81% 5.0 mph N8.0 kmh N 9.6 mph15.4 kmh 29.66 in1004.4 mb 0.00 in0.0 mm 0.00 in0.0 mm 0.00 in0.0 mm
03:51 AM 49.3°F9.6°C 43.7°F6.5°C 81% 5.1 mph N8.2 kmh N 9.6 mph15.4 kmh 29.66 in1004.4 mb 0.00 in0.0 mm 0.00 in0.0 mm 0.00 in0.0 mm
03:50 AM 49.3°F9.6°C 43.7°F6.5°C 81% 5.2 mph N8.4 kmh N 9.6 mph15.4 kmh 29.66 in1004.4 mb 0.00 in0.0 mm 0.00 in0.0 mm 0.00 in0.0 mm
03:49 AM 49.5°F9.7°C 43.9°F6.6°C 81% 5.4 mph N8.7 kmh N 9.6 mph15.4 kmh 29.66 in1004.4 mb 0.00 in0.0 mm 0.00 in0.0 mm 0.00 in0.0 mm
03:48 AM 49.5°F9.7°C 43.9°F6.6°C 81% 5.4 mph N8.7 kmh N 9.6 mph15.4 kmh 29.66 in1004.4 mb 0.00 in0.0 mm 0.00 in0.0 mm 0.00 in0.0 mm
03:47 AM 49.5°F9.7°C 43.9°F6.6°C 81% 5.4 mph N8.7 kmh N 9.6 mph15.4 kmh 29.66 in1004.4 mb 0.00 in0.0 mm 0.00 in0.0 mm 0.00 in0.0 mm
03:46 AM 49.5°F9.7°C 43.9°F6.6°C 81% 5.3 mph N8.5 kmh N 9.6 mph15.4 kmh 29.66 in1004.4 mb 0.00 in0.0 mm 0.00 in0.0 mm 0.00 in0.0 mm
03:45 AM 49.5°F9.7°C 43.9°F6.6°C 81% 5.0 mph N8.0 kmh N 9.6 mph15.4 kmh 29.66 in1004.4 mb 0.00 in0.0 mm 0.00 in0.0 mm 0.00 in0.0 mm
03:44 AM 49.5°F9.7°C 43.9°F6.6°C 81% 4.5 mph NNE7.2 kmh NNE 7.9 mph12.7 kmh 29.66 in1004.4 mb 0.00 in0.0 mm 0.00 in0.0 mm 0.00 in0.0 mm
03:43 AM 49.5°F9.7°C 43.9°F6.6°C 81% 4.4 mph N7.1 kmh N 7.9 mph12.7 kmh 29.66 in1004.4 mb 0.00 in0.0 mm 0.00 in0.0 mm 0.00 in0.0 mm
03:42 AM 49.5°F9.7°C 43.9°F6.6°C 81% 4.2 mph N6.8 kmh N 5.2 mph8.4 kmh 29.65 in1004.1 mb 0.00 in0.0 mm 0.00 in0.0 mm 0.00 in0.0 mm
03:41 AM 49.5°F9.7°C 43.9°F6.6°C 81% 4.2 mph N6.8 kmh N 5.2 mph8.4 kmh 29.65 in1004.1 mb 0.00 in0.0 mm 0.00 in0.0 mm 0.00 in0.0 mm
03:40 AM 49.3°F9.6°C 43.7°F6.5°C 81% 4.1 mph N6.6 kmh N 5.2 mph8.4 kmh 29.65 in1004.1 mb 0.00 in0.0 mm 0.00 in0.0 mm 0.00 in0.0 mm
03:39 AM 49.3°F9.6°C 43.7°F6.5°C 81% 4.3 mph N6.9 kmh N 6.1 mph9.8 kmh 29.65 in1004.1 mb 0.00 in0.0 mm 0.00 in0.0 mm 0.00 in0.0 mm
03:38 AM 49.3°F9.6°C 43.7°F6.5°C 81% 4.5 mph N7.2 kmh N 6.1 mph9.8 kmh 29.65 in1004.1 mb 0.00 in0.0 mm 0.00 in0.0 mm 0.00 in0.0 mm
03:37 AM 49.3°F9.6°C 43.7°F6.5°C 81% 4.9 mph N7.9 kmh N 8.7 mph14.0 kmh 29.65 in1004.1 mb 0.00 in0.0 mm 0.00 in0.0 mm 0.00 in0.0 mm
03:36 AM 49.3°F9.6°C 43.7°F6.5°C 81% 5.3 mph N8.5 kmh N 8.7 mph14.0 kmh 29.65 in1004.1 mb 0.00 in0.0 mm 0.00 in0.0 mm 0.00 in0.0 mm
03:35 AM 49.3°F9.6°C 43.7°F6.5°C 81% 5.2 mph N8.4 kmh N 8.7 mph14.0 kmh 29.65 in1004.1 mb 0.00 in0.0 mm 0.00 in0.0 mm 0.00 in0.0 mm
03:34 AM 49.3°F9.6°C 43.7°F6.5°C 81% 5.3 mph N8.5 kmh N 8.7 mph14.0 kmh 29.65 in1004.1 mb 0.00 in0.0 mm 0.00 in0.0 mm 0.00 in0.0 mm
03:33 AM 49.3°F9.6°C 43.7°F6.5°C 81% 5.4 mph N8.7 kmh N 8.7 mph14.0 kmh 29.64 in1003.7 mb 0.00 in0.0 mm 0.00 in0.0 mm 0.00 in0.0 mm
03:32 AM 49.3°F9.6°C 43.7°F6.5°C 81% 5.4 mph N8.7 kmh N 8.7 mph14.0 kmh 29.65 in1004.1 mb 0.00 in0.0 mm 0.00 in0.0 mm 0.00 in0.0 mm
03:31 AM 49.5°F9.7°C 43.9°F6.6°C 81% 5.4 mph N8.7 kmh N 8.7 mph14.0 kmh 29.65 in1004.1 mb 0.00 in0.0 mm 0.00 in0.0 mm 0.00 in0.0 mm
03:30 AM 49.5°F9.7°C 43.9°F6.6°C 81% 5.9 mph N9.5 kmh N 9.6 mph15.4 kmh 29.65 in1004.1 mb 0.00 in0.0 mm 0.00 in0.0 mm 0.00 in0.0 mm
03:29 AM 49.5°F9.7°C 43.9°F6.6°C 81% 6.0 mph N9.7 kmh N 9.6 mph15.4 kmh 29.65 in1004.1 mb 0.00 in0.0 mm 0.00 in0.0 mm 0.00 in0.0 mm
03:28 AM 49.5°F9.7°C 43.9°F6.6°C 81% 5.9 mph N9.5 kmh N 9.6 mph15.4 kmh 29.64 in1003.7 mb 0.00 in0.0 mm 0.00 in0.0 mm 0.00 in0.0 mm
03:27 AM 49.3°F9.6°C 43.7°F6.5°C 81% 5.7 mph N9.2 kmh N 9.6 mph15.4 kmh 29.64 in1003.7 mb 0.00 in0.0 mm 0.00 in0.0 mm 0.00 in0.0 mm
03:26 AM 49.3°F9.6°C 43.7°F6.5°C 81% 5.5 mph N8.9 kmh N 9.6 mph15.4 kmh 29.64 in1003.7 mb 0.00 in0.0 mm 0.00 in0.0 mm 0.00 in0.0 mm
03:25 AM 49.3°F9.6°C 43.7°F6.5°C 81% 5.6 mph N9.0 kmh N 9.6 mph15.4 kmh 29.64 in1003.7 mb 0.00 in0.0 mm 0.00 in0.0 mm 0.00 in0.0 mm
03:24 AM 49.3°F9.6°C 43.7°F6.5°C 81% 5.6 mph N9.0 kmh N 9.6 mph15.4 kmh 29.64 in1003.7 mb 0.00 in0.0 mm 0.00 in0.0 mm 0.00 in0.0 mm
03:23 AM 49.3°F9.6°C 43.7°F6.5°C 81% 5.6 mph N9.0 kmh N 9.6 mph15.4 kmh 29.63 in1003.4 mb 0.00 in0.0 mm 0.00 in0.0 mm 0.00 in0.0 mm
03:22 AM 49.5°F9.7°C 43.9°F6.6°C 81% 5.6 mph N9.0 kmh N 9.6 mph15.4 kmh 29.64 in1003.7 mb 0.00 in0.0 mm 0.00 in0.0 mm 0.00 in0.0 mm
03:21 AM 49.5°F9.7°C 43.9°F6.6°C 81% 5.7 mph N9.2 kmh N 9.6 mph15.4 kmh 29.63 in1003.4 mb 0.00 in0.0 mm 0.00 in0.0 mm 0.00 in0.0 mm
03:20 AM 49.3°F9.6°C 43.7°F6.5°C 81% 5.4 mph N8.7 kmh N 7.9 mph12.7 kmh 29.63 in1003.4 mb 0.00 in0.0 mm 0.00 in0.0 mm 0.00 in0.0 mm
03:19 AM 49.1°F9.5°C 43.5°F6.4°C 81% 5.3 mph N8.5 kmh N 7.0 mph11.3 kmh 29.63 in1003.4 mb 0.00 in0.0 mm 0.00 in0.0 mm 0.00 in0.0 mm
03:18 AM 49.1°F9.5°C 43.5°F6.4°C 81% 5.5 mph N8.9 kmh N 7.0 mph11.3 kmh 29.63 in1003.4 mb 0.00 in0.0 mm 0.00 in0.0 mm 0.00 in0.0 mm
03:17 AM 49.1°F9.5°C 43.5°F6.4°C 81% 5.5 mph N8.9 kmh N 7.0 mph11.3 kmh 29.63 in1003.4 mb 0.00 in0.0 mm 0.00 in0.0 mm 0.00 in0.0 mm
03:16 AM 49.3°F9.6°C 43.7°F6.5°C 81% 5.4 mph N8.7 kmh N 7.0 mph11.3 kmh 29.64 in1003.7 mb 0.00 in0.0 mm 0.00 in0.0 mm 0.00 in0.0 mm
03:15 AM 49.3°F9.6°C 43.7°F6.5°C 81% 5.1 mph N8.2 kmh N 7.0 mph11.3 kmh 29.64 in1003.7 mb 0.00 in0.0 mm 0.00 in0.0 mm 0.00 in0.0 mm
03:14 AM 49.3°F9.6°C 43.7°F6.5°C 81% 5.0 mph N8.0 kmh N 7.0 mph11.3 kmh 29.64 in1003.7 mb 0.00 in0.0 mm 0.00 in0.0 mm 0.00 in0.0 mm
03:13 AM 49.5°F9.7°C 43.9°F6.6°C 81% 5.0 mph N8.0 kmh N 7.0 mph11.3 kmh 29.64 in1003.7 mb 0.00 in0.0 mm 0.00 in0.0 mm 0.00 in0.0 mm
03:12 AM 49.5°F9.7°C 43.9°F6.6°C 81% 5.0 mph N8.0 kmh N 7.0 mph11.3 kmh 29.64 in1003.7 mb 0.00 in0.0 mm 0.00 in0.0 mm 0.00 in0.0 mm
03:11 AM 49.5°F9.7°C 43.9°F6.6°C 81% 4.8 mph N7.7 kmh N 7.0 mph11.3 kmh 29.65 in1004.1 mb 0.00 in0.0 mm 0.00 in0.0 mm 0.00 in0.0 mm
03:10 AM 49.3°F9.6°C 43.7°F6.5°C 81% 4.6 mph N7.4 kmh N 7.0 mph11.3 kmh 29.64 in1003.7 mb 0.00 in0.0 mm 0.00 in0.0 mm 0.00 in0.0 mm
03:09 AM 49.3°F9.6°C 43.7°F6.5°C 81% 4.5 mph N7.2 kmh N 7.0 mph11.3 kmh 29.64 in1003.7 mb 0.00 in0.0 mm 0.00 in0.0 mm 0.00 in0.0 mm
03:08 AM 49.3°F9.6°C 43.7°F6.5°C 81% 4.5 mph N7.2 kmh N 7.9 mph12.7 kmh 29.64 in1003.7 mb 0.00 in0.0 mm 0.00 in0.0 mm 0.00 in0.0 mm
03:07 AM 49.3°F9.6°C 43.7°F6.5°C 81% 4.6 mph N7.4 kmh N 7.9 mph12.7 kmh 29.64 in1003.7 mb 0.00 in0.0 mm 0.00 in0.0 mm 0.00 in0.0 mm
03:06 AM 49.3°F9.6°C 43.7°F6.5°C 81% 4.8 mph N7.7 kmh N 7.9 mph12.7 kmh 29.64 in1003.7 mb 0.00 in0.0 mm 0.00 in0.0 mm 0.00 in0.0 mm
03:05 AM 49.3°F9.6°C 43.7°F6.5°C 81% 4.9 mph N7.9 kmh N 7.9 mph12.7 kmh 29.64 in1003.7 mb 0.00 in0.0 mm 0.00 in0.0 mm 0.00 in0.0 mm
03:04 AM 49.3°F9.6°C 43.7°F6.5°C 81% 4.9 mph N7.9 kmh N 7.9 mph12.7 kmh 29.64 in1003.7 mb 0.00 in0.0 mm 0.00 in0.0 mm 0.00 in0.0 mm
03:03 AM 49.3°F9.6°C 43.7°F6.5°C 81% 4.9 mph N7.9 kmh N 7.9 mph12.7 kmh 29.64 in1003.7 mb 0.00 in0.0 mm 0.00 in0.0 mm 0.00 in0.0 mm
03:02 AM 49.3°F9.6°C 43.7°F6.5°C 81% 4.7 mph N7.6 kmh N 7.9 mph12.7 kmh 29.65 in1004.1 mb 0.00 in0.0 mm 0.00 in0.0 mm 0.00 in0.0 mm
03:01 AM 49.3°F9.6°C 43.7°F6.5°C 81% 4.6 mph N7.4 kmh N 7.9 mph12.7 kmh 29.64 in1003.7 mb 0.00 in0.0 mm 0.00 in0.0 mm 0.00 in0.0 mm
03:00 AM 49.3°F9.6°C 43.7°F6.5°C 81% 4.4 mph N7.1 kmh N 7.9 mph12.7 kmh 29.65 in1004.1 mb 0.00 in0.0 mm 0.00 in0.0 mm 0.00 in0.0 mm
02:59 AM 49.3°F9.6°C 43.7°F6.5°C 81% 3.9 mph N6.3 kmh N 7.9 mph12.7 kmh 29.65 in1004.1 mb 0.00 in0.0 mm 0.00 in0.0 mm 0.00 in0.0 mm
02:58 AM 49.3°F9.6°C 43.7°F6.5°C 81% 3.4 mph N5.5 kmh N 7.9 mph12.7 kmh 29.65 in1004.1 mb 0.00 in0.0 mm 0.00 in0.0 mm 0.00 in0.0 mm
02:57 AM 49.3°F9.6°C 43.7°F6.5°C 81% 3.1 mph N5.0 kmh N 5.2 mph8.4 kmh 29.65 in1004.1 mb 0.00 in0.0 mm 0.00 in0.0 mm 0.00 in0.0 mm
02:56 AM 49.3°F9.6°C 43.7°F6.5°C 81% 2.8 mph N4.5 kmh N 4.4 mph7.1 kmh 29.65 in1004.1 mb 0.00 in0.0 mm 0.00 in0.0 mm 0.00 in0.0 mm
02:55 AM 49.3°F9.6°C 43.7°F6.5°C 81% 2.7 mph N4.3 kmh N 4.4 mph7.1 kmh 29.65 in1004.1 mb 0.00 in0.0 mm 0.00 in0.0 mm 0.00 in0.0 mm
02:54 AM 49.3°F9.6°C 43.7°F6.5°C 81% 2.6 mph N4.2 kmh N 4.4 mph7.1 kmh 29.65 in1004.1 mb 0.00 in0.0 mm 0.00 in0.0 mm 0.00 in0.0 mm
02:53 AM 49.3°F9.6°C 43.7°F6.5°C 81% 2.6 mph N4.2 kmh N 4.4 mph7.1 kmh 29.65 in1004.1 mb 0.00 in0.0 mm 0.00 in0.0 mm 0.00 in0.0 mm
02:52 AM 49.3°F9.6°C 43.7°F6.5°C 81% 2.6 mph N4.2 kmh N 4.4 mph7.1 kmh 29.65 in1004.1 mb 0.00 in0.0 mm 0.00 in0.0 mm 0.00 in0.0 mm
02:51 AM 49.3°F9.6°C 43.7°F6.5°C 81% 2.7 mph N4.3 kmh N 4.4 mph7.1 kmh 29.65 in1004.1 mb 0.00 in0.0 mm 0.00 in0.0 mm 0.00 in0.0 mm
02:50 AM 49.3°F9.6°C 43.7°F6.5°C 81% 2.8 mph N4.5 kmh N 4.4 mph7.1 kmh 29.65 in1004.1 mb 0.00 in0.0 mm 0.00 in0.0 mm 0.00 in0.0 mm
02:49 AM 49.3°F9.6°C 43.7°F6.5°C 81% 3.1 mph N5.0 kmh N 4.4 mph7.1 kmh 29.65 in1004.1 mb 0.00 in0.0 mm 0.00 in0.0 mm 0.00 in0.0 mm
02:48 AM 49.3°F9.6°C 43.7°F6.5°C 81% 3.1 mph N5.0 kmh N 4.4 mph7.1 kmh 29.65 in1004.1 mb 0.00 in0.0 mm 0.00 in0.0 mm 0.00 in0.0 mm
02:47 AM 49.3°F9.6°C 43.7°F6.5°C 81% 3.1 mph N5.0 kmh N 4.4 mph7.1 kmh 29.65 in1004.1 mb 0.00 in0.0 mm 0.00 in0.0 mm 0.00 in0.0 mm
02:46 AM 49.3°F9.6°C 43.7°F6.5°C 81% 3.1 mph N5.0 kmh N 4.4 mph7.1 kmh 29.65 in1004.1 mb 0.00 in0.0 mm 0.00 in0.0 mm 0.00 in0.0 mm
02:45 AM 49.3°F9.6°C 43.7°F6.5°C 81% 3.1 mph N5.0 kmh N 4.4 mph7.1 kmh 29.65 in1004.1 mb 0.00 in0.0 mm 0.00 in0.0 mm 0.00 in0.0 mm
02:44 AM 49.3°F9.6°C 43.4°F6.3°C 80% 3.0 mph N4.8 kmh N 4.4 mph7.1 kmh 29.65 in1004.1 mb 0.00 in0.0 mm 0.00 in0.0 mm 0.00 in0.0 mm
02:43 AM 49.5°F9.7°C 43.5°F6.4°C 80% 2.9 mph N4.7 kmh N 4.4 mph7.1 kmh 29.65 in1004.1 mb 0.00 in0.0 mm 0.00 in0.0 mm 0.00 in0.0 mm
02:42 AM 49.5°F9.7°C 43.5°F6.4°C 80% 2.8 mph N4.5 kmh N 4.4 mph7.1 kmh 29.65 in1004.1 mb 0.00 in0.0 mm 0.00 in0.0 mm 0.00 in0.0 mm
02:41 AM 49.5°F9.7°C 43.5°F6.4°C 80% 2.7 mph N4.3 kmh N 4.4 mph7.1 kmh 29.65 in1004.1 mb 0.00 in0.0 mm 0.00 in0.0 mm 0.00 in0.0 mm
02:40 AM 49.3°F9.6°C 43.4°F6.3°C 80% 2.7 mph N4.3 kmh N 4.4 mph7.1 kmh 29.65 in1004.1 mb 0.00 in0.0 mm 0.00 in0.0 mm 0.00 in0.0 mm
02:39 AM 49.3°F9.6°C 43.4°F6.3°C 80% 2.7 mph N4.3 kmh N 4.4 mph7.1 kmh 29.65 in1004.1 mb 0.00 in0.0 mm 0.00 in0.0 mm 0.00 in0.0 mm
02:38 AM 49.3°F9.6°C 43.4°F6.3°C 80% 2.9 mph N4.7 kmh N 4.4 mph7.1 kmh 29.65 in1004.1 mb 0.00 in0.0 mm 0.00 in0.0 mm 0.00 in0.0 mm
02:37 AM 49.3°F9.6°C 43.4°F6.3°C 80% 2.9 mph N4.7 kmh N 4.4 mph7.1 kmh 29.65 in1004.1 mb 0.00 in0.0 mm 0.00 in0.0 mm 0.00 in0.0 mm
02:36 AM 49.3°F9.6°C 43.4°F6.3°C 80% 2.9 mph N4.7 kmh N 4.4 mph7.1 kmh 29.65 in1004.1 mb 0.00 in0.0 mm 0.00 in0.0 mm 0.00 in0.0 mm
02:35 AM 49.3°F9.6°C 43.4°F6.3°C 80% 3.0 mph N4.8 kmh N 4.4 mph7.1 kmh 29.65 in1004.1 mb 0.00 in0.0 mm 0.00 in0.0 mm 0.00 in0.0 mm
02:34 AM 49.3°F9.6°C 43.4°F6.3°C 80% 2.9 mph N4.7 kmh N 4.4 mph7.1 kmh 29.65 in1004.1 mb 0.00 in0.0 mm 0.00 in0.0 mm 0.00 in0.0 mm
02:33 AM 49.3°F9.6°C 43.4°F6.3°C 80% 2.9 mph N4.7 kmh N 4.4 mph7.1 kmh 29.65 in1004.1 mb 0.00 in0.0 mm 0.00 in0.0 mm 0.00 in0.0 mm
02:32 AM 49.3°F9.6°C 43.4°F6.3°C 80% 2.8 mph N4.5 kmh N 4.4 mph7.1 kmh 29.65 in1004.1 mb 0.00 in0.0 mm 0.00 in0.0 mm 0.00 in0.0 mm
02:31 AM 49.3°F9.6°C 43.4°F6.3°C 80% 2.6 mph N4.2 kmh N 4.4 mph7.1 kmh 29.65 in1004.1 mb 0.00 in0.0 mm 0.00 in0.0 mm 0.00 in0.0 mm
02:30 AM 49.3°F9.6°C 43.4°F6.3°C 80% 2.3 mph N3.7 kmh N 4.4 mph7.1 kmh 29.65 in1004.1 mb 0.00 in0.0 mm 0.00 in0.0 mm 0.00 in0.0 mm
02:29 AM 49.3°F9.6°C 43.4°F6.3°C 80% 2.1 mph N3.4 kmh N 4.4 mph7.1 kmh 29.65 in1004.1 mb 0.00 in0.0 mm 0.00 in0.0 mm 0.00 in0.0 mm
02:28 AM 49.3°F9.6°C 43.4°F6.3°C 80% 1.9 mph N3.1 kmh N 3.5 mph5.6 kmh 29.65 in1004.1 mb 0.00 in0.0 mm 0.00 in0.0 mm 0.00 in0.0 mm
02:27 AM 49.3°F9.6°C 43.4°F6.3°C 80% 1.8 mph N2.9 kmh N 3.5 mph5.6 kmh 29.65 in1004.1 mb 0.00 in0.0 mm 0.00 in0.0 mm 0.00 in0.0 mm
02:26 AM 49.3°F9.6°C 43.4°F6.3°C 80% 1.9 mph N3.1 kmh N 3.5 mph5.6 kmh 29.65 in1004.1 mb 0.00 in0.0 mm 0.00 in0.0 mm 0.00 in0.0 mm
02:25 AM 49.3°F9.6°C 43.4°F6.3°C 80% 1.8 mph N2.9 kmh N 4.4 mph7.1 kmh 29.65 in1004.1 mb 0.00 in0.0 mm 0.00 in0.0 mm 0.00 in0.0 mm
02:24 AM 49.3°F9.6°C 43.4°F6.3°C 80% 2.0 mph N3.2 kmh N 4.4 mph7.1 kmh 29.65 in1004.1 mb 0.00 in0.0 mm 0.00 in0.0 mm 0.00 in0.0 mm
02:23 AM 49.3°F9.6°C 43.4°F6.3°C 80% 2.3 mph N3.7 kmh N 4.4 mph7.1 kmh 29.65 in1004.1 mb 0.00 in0.0 mm 0.00 in0.0 mm 0.00 in0.0 mm
02:22 AM 49.1°F9.5°C 43.2°F6.2°C 80% 2.7 mph N4.3 kmh N 6.1 mph9.8 kmh 29.65 in1004.1 mb 0.00 in0.0 mm 0.00 in0.0 mm 0.00 in0.0 mm
02:21 AM 49.1°F9.5°C 43.2°F6.2°C 80% 3.0 mph N4.8 kmh N 6.1 mph9.8 kmh 29.65 in1004.1 mb 0.00 in0.0 mm 0.00 in0.0 mm 0.00 in0.0 mm
02:20 AM 49.3°F9.6°C 43.4°F6.3°C 80% 3.4 mph N5.5 kmh N 6.1 mph9.8 kmh 29.65 in1004.1 mb 0.00 in0.0 mm 0.00 in0.0 mm 0.00 in0.0 mm
02:19 AM 49.3°F9.6°C 43.4°F6.3°C 80% 3.7 mph N6.0 kmh N 6.1 mph9.8 kmh 29.65 in1004.1 mb 0.00 in0.0 mm 0.00 in0.0 mm 0.00 in0.0 mm
02:18 AM 49.3°F9.6°C 43.4°F6.3°C 80% 4.0 mph N6.4 kmh N 6.1 mph9.8 kmh 29.64 in1003.7 mb 0.00 in0.0 mm 0.00 in0.0 mm 0.00 in0.0 mm
02:17 AM 49.3°F9.6°C 43.4°F6.3°C 80% 4.4 mph N7.1 kmh N 6.1 mph9.8 kmh 29.64 in1003.7 mb 0.00 in0.0 mm 0.00 in0.0 mm 0.00 in0.0 mm
02:16 AM 49.3°F9.6°C 43.4°F6.3°C 80% 4.6 mph N7.4 kmh N 6.1 mph9.8 kmh 29.63 in1003.4 mb 0.00 in0.0 mm 0.00 in0.0 mm 0.00 in0.0 mm
02:15 AM 49.3°F9.6°C 43.4°F6.3°C 80% 4.7 mph N7.6 kmh N 6.1 mph9.8 kmh 29.64 in1003.7 mb 0.00 in0.0 mm 0.00 in0.0 mm 0.00 in0.0 mm
02:14 AM 49.3°F9.6°C 43.4°F6.3°C 80% 5.1 mph N8.2 kmh N 7.9 mph12.7 kmh 29.63 in1003.4 mb 0.00 in0.0 mm 0.00 in0.0 mm 0.00 in0.0 mm
02:13 AM 49.3°F9.6°C 43.0°F6.1°C 79% 5.3 mph N8.5 kmh N 7.9 mph12.7 kmh 29.64 in1003.7 mb 0.00 in0.0 mm 0.00 in0.0 mm 0.00 in0.0 mm
02:12 AM 49.3°F9.6°C 43.0°F6.1°C 79% 5.2 mph N8.4 kmh N 7.9 mph12.7 kmh 29.63 in1003.4 mb 0.00 in0.0 mm 0.00 in0.0 mm 0.00 in0.0 mm
02:11 AM 49.5°F9.7°C 43.2°F6.2°C 79% 5.3 mph N8.5 kmh N 7.9 mph12.7 kmh 29.64 in1003.7 mb 0.00 in0.0 mm 0.00 in0.0 mm 0.00 in0.0 mm
02:10 AM 49.3°F9.6°C 43.0°F6.1°C 79% 5.4 mph N8.7 kmh N 7.9 mph12.7 kmh 29.63 in1003.4 mb 0.00 in0.0 mm 0.00 in0.0 mm 0.00 in0.0 mm
02:09 AM 49.3°F9.6°C 43.4°F6.3°C 80% 5.4 mph N8.7 kmh N 7.9 mph12.7 kmh 29.63 in1003.4 mb 0.00 in0.0 mm 0.00 in0.0 mm 0.00 in0.0 mm
02:08 AM 49.5°F9.7°C 43.5°F6.4°C 80% 5.3 mph N8.5 kmh N 7.9 mph12.7 kmh 29.63 in1003.4 mb 0.00 in0.0 mm 0.00 in0.0 mm 0.00 in0.0 mm
02:07 AM 49.3°F9.6°C 43.4°F6.3°C 80% 5.1 mph N8.2 kmh N 7.9 mph12.7 kmh 29.63 in1003.4 mb 0.00 in0.0 mm 0.00 in0.0 mm 0.00 in0.0 mm
02:06 AM 49.3°F9.6°C 43.4°F6.3°C 80% 5.1 mph N8.2 kmh N 7.9 mph12.7 kmh 29.63 in1003.4 mb 0.00 in0.0 mm 0.00 in0.0 mm 0.00 in0.0 mm
02:05 AM 49.3°F9.6°C 43.4°F6.3°C 80% 5.2 mph N8.4 kmh N 9.6 mph15.4 kmh 29.63 in1003.4 mb 0.00 in0.0 mm 0.00 in0.0 mm 0.00 in0.0 mm
02:04 AM 49.3°F9.6°C 43.4°F6.3°C 80% 5.4 mph N8.7 kmh N 9.6 mph15.4 kmh 29.63 in1003.4 mb 0.00 in0.0 mm 0.00 in0.0 mm 0.00 in0.0 mm
02:03 AM 49.3°F9.6°C 43.4°F6.3°C 80% 5.5 mph N8.9 kmh N 9.6 mph15.4 kmh 29.63 in1003.4 mb 0.00 in0.0 mm 0.00 in0.0 mm 0.00 in0.0 mm
02:02 AM 49.3°F9.6°C 43.4°F6.3°C 80% 5.7 mph N9.2 kmh N 9.6 mph15.4 kmh 29.63 in1003.4 mb 0.00 in0.0 mm 0.00 in0.0 mm 0.00 in0.0 mm
02:01 AM 49.3°F9.6°C 43.4°F6.3°C 80% 5.7 mph N9.2 kmh N 9.6 mph15.4 kmh 29.63 in1003.4 mb 0.00 in0.0 mm 0.00 in0.0 mm 0.00 in0.0 mm
02:00 AM 49.3°F9.6°C 43.0°F6.1°C 79% 5.7 mph N9.2 kmh N 9.6 mph15.4 kmh 29.62 in1003.0 mb 0.00 in0.0 mm 0.00 in0.0 mm 0.00 in0.0 mm
01:59 AM 49.3°F9.6°C 43.0°F6.1°C 79% 5.8 mph N9.3 kmh N 9.6 mph15.4 kmh 29.63 in1003.4 mb 0.00 in0.0 mm 0.00 in0.0 mm 0.00 in0.0 mm
01:58 AM 49.5°F9.7°C 43.2°F6.2°C 79% 5.8 mph N9.3 kmh N 9.6 mph15.4 kmh 29.63 in1003.4 mb 0.00 in0.0 mm 0.00 in0.0 mm 0.00 in0.0 mm
01:57 AM 49.5°F9.7°C 43.2°F6.2°C 79% 6.2 mph N10.0 kmh N 9.6 mph15.4 kmh 29.63 in1003.4 mb 0.00 in0.0 mm 0.00 in0.0 mm 0.00 in0.0 mm
01:56 AM 49.5°F9.7°C 43.2°F6.2°C 79% 6.4 mph N10.3 kmh N 9.6 mph15.4 kmh 29.63 in1003.4 mb 0.00 in0.0 mm 0.00 in0.0 mm 0.00 in0.0 mm
01:55 AM 49.5°F9.7°C 43.2°F6.2°C 79% 6.2 mph N10.0 kmh N 9.6 mph15.4 kmh 29.63 in1003.4 mb 0.00 in0.0 mm 0.00 in0.0 mm 0.00 in0.0 mm
01:54 AM 49.5°F9.7°C 43.2°F6.2°C 79% 5.7 mph N9.2 kmh N 9.6 mph15.4 kmh 29.64 in1003.7 mb 0.00 in0.0 mm 0.00 in0.0 mm 0.00 in0.0 mm
01:53 AM 49.5°F9.7°C 43.5°F6.4°C 80% 5.6 mph N9.0 kmh N 8.7 mph14.0 kmh 29.64 in1003.7 mb 0.00 in0.0 mm 0.00 in0.0 mm 0.00 in0.0 mm
01:52 AM 49.3°F9.6°C 43.4°F6.3°C 80% 5.5 mph N8.9 kmh N 8.7 mph14.0 kmh 29.64 in1003.7 mb 0.00 in0.0 mm 0.00 in0.0 mm 0.00 in0.0 mm
01:51 AM 49.5°F9.7°C 43.5°F6.4°C 80% 5.7 mph N9.2 kmh N 8.7 mph14.0 kmh 29.64 in1003.7 mb 0.00 in0.0 mm 0.00 in0.0 mm 0.00 in0.0 mm
01:50 AM 49.5°F9.7°C 43.5°F6.4°C 80% 5.9 mph N9.5 kmh N 8.7 mph14.0 kmh 29.64 in1003.7 mb 0.00 in0.0 mm 0.00 in0.0 mm 0.00 in0.0 mm
01:49 AM 49.5°F9.7°C 43.5°F6.4°C 80% 5.9 mph N9.5 kmh N 8.7 mph14.0 kmh 29.64 in1003.7 mb 0.00 in0.0 mm 0.00 in0.0 mm 0.00 in0.0 mm
01:48 AM 49.5°F9.7°C 43.5°F6.4°C 80% 6.1 mph N9.8 kmh N 8.7 mph14.0 kmh 29.63 in1003.4 mb 0.00 in0.0 mm 0.00 in0.0 mm 0.00 in0.0 mm
01:47 AM 49.3°F9.6°C 43.4°F6.3°C 80% 5.7 mph N9.2 kmh N 7.9 mph12.7 kmh 29.64 in1003.7 mb 0.00 in0.0 mm 0.00 in0.0 mm 0.00 in0.0 mm
01:46 AM 49.3°F9.6°C 43.4°F6.3°C 80% 5.6 mph N9.0 kmh N 7.9 mph12.7 kmh 29.64 in1003.7 mb 0.00 in0.0 mm 0.00 in0.0 mm 0.00 in0.0 mm
01:45 AM 49.3°F9.6°C 43.4°F6.3°C 80% 5.6 mph N9.0 kmh N 7.9 mph12.7 kmh 29.64 in1003.7 mb 0.00 in0.0 mm 0.00 in0.0 mm 0.00 in0.0 mm
01:44 AM 49.5°F9.7°C 43.5°F6.4°C 80% 5.8 mph N9.3 kmh N 7.9 mph12.7 kmh 29.64 in1003.7 mb 0.00 in0.0 mm 0.00 in0.0 mm 0.00 in0.0 mm
01:43 AM 49.5°F9.7°C 43.5°F6.4°C 80% 5.4 mph N8.7 kmh N 7.9 mph12.7 kmh 29.63 in1003.4 mb 0.00 in0.0 mm 0.00 in0.0 mm 0.00 in0.0 mm
01:42 AM 49.5°F9.7°C 43.5°F6.4°C 80% 5.3 mph N8.5 kmh N 7.0 mph11.3 kmh 29.65 in1004.1 mb 0.00 in0.0 mm 0.00 in0.0 mm 0.00 in0.0 mm
01:41 AM 49.5°F9.7°C 43.5°F6.4°C 80% 5.4 mph N8.7 kmh N 7.0 mph11.3 kmh 29.63 in1003.4 mb 0.00 in0.0 mm 0.00 in0.0 mm 0.00 in0.0 mm
01:40 AM 49.5°F9.7°C 43.5°F6.4°C 80% 5.2 mph N8.4 kmh N 7.0 mph11.3 kmh 29.64 in1003.7 mb 0.00 in0.0 mm 0.00 in0.0 mm 0.00 in0.0 mm
01:39 AM 49.5°F9.7°C 43.9°F6.6°C 81% 5.2 mph N8.4 kmh N 7.0 mph11.3 kmh 29.65 in1004.1 mb 0.00 in0.0 mm 0.00 in0.0 mm 0.00 in0.0 mm
01:38 AM 49.3°F9.6°C 43.7°F6.5°C 81% 5.1 mph N8.2 kmh N 7.0 mph11.3 kmh 29.65 in1004.1 mb 0.00 in0.0 mm 0.00 in0.0 mm 0.00 in0.0 mm
01:37 AM 49.3°F9.6°C 43.7°F6.5°C 81% 5.0 mph N8.0 kmh N 7.0 mph11.3 kmh 29.64 in1003.7 mb 0.00 in0.0 mm 0.00 in0.0 mm 0.00 in0.0 mm
01:36 AM 49.3°F9.6°C 43.7°F6.5°C 81% 5.1 mph N8.2 kmh N 7.0 mph11.3 kmh 29.63 in1003.4 mb 0.00 in0.0 mm 0.00 in0.0 mm 0.00 in0.0 mm
01:35 AM 49.3°F9.6°C 43.7°F6.5°C 81% 5.0 mph N8.0 kmh N 7.0 mph11.3 kmh 29.64 in1003.7 mb 0.00 in0.0 mm 0.00 in0.0 mm 0.00 in0.0 mm
01:34 AM 49.3°F9.6°C 43.7°F6.5°C 81% 5.1 mph N8.2 kmh N 7.0 mph11.3 kmh 29.63 in1003.4 mb 0.00 in0.0 mm 0.00 in0.0 mm 0.00 in0.0 mm
01:33 AM 49.3°F9.6°C 43.7°F6.5°C 81% 5.4 mph N8.7 kmh N 7.9 mph12.7 kmh 29.64 in1003.7 mb 0.00 in0.0 mm 0.00 in0.0 mm 0.00 in0.0 mm
01:32 AM 49.3°F9.6°C 43.7°F6.5°C 81% 5.3 mph N8.5 kmh N 7.9 mph12.7 kmh 29.64 in1003.7 mb 0.00 in0.0 mm 0.00 in0.0 mm 0.00 in0.0 mm
01:31 AM 49.3°F9.6°C 43.7°F6.5°C 81% 4.8 mph N7.7 kmh N 7.9 mph12.7 kmh 29.64 in1003.7 mb 0.00 in0.0 mm 0.00 in0.0 mm 0.00 in0.0 mm
01:30 AM 49.3°F9.6°C 43.7°F6.5°C 81% 4.5 mph N7.2 kmh N 7.9 mph12.7 kmh 29.64 in1003.7 mb 0.00 in0.0 mm 0.00 in0.0 mm 0.00 in0.0 mm
01:29 AM 49.3°F9.6°C 43.7°F6.5°C 81% 4.4 mph N7.1 kmh N 7.9 mph12.7 kmh 29.64 in1003.7 mb 0.00 in0.0 mm 0.00 in0.0 mm 0.00 in0.0 mm
01:28 AM 49.3°F9.6°C 43.7°F6.5°C 81% 4.5 mph N7.2 kmh N 7.9 mph12.7 kmh 29.65 in1004.1 mb 0.00 in0.0 mm 0.00 in0.0 mm 0.00 in0.0 mm
01:27 AM 49.3°F9.6°C 43.7°F6.5°C 81% 4.4 mph N7.1 kmh N 7.9 mph12.7 kmh 29.64 in1003.7 mb 0.00 in0.0 mm 0.00 in0.0 mm 0.00 in0.0 mm
01:26 AM 49.3°F9.6°C 43.7°F6.5°C 81% 4.3 mph N6.9 kmh N 7.9 mph12.7 kmh 29.65 in1004.1 mb 0.00 in0.0 mm 0.00 in0.0 mm 0.00 in0.0 mm
01:25 AM 49.3°F9.6°C 43.7°F6.5°C 81% 4.2 mph N6.8 kmh N 7.9 mph12.7 kmh 29.65 in1004.1 mb 0.00 in0.0 mm 0.00 in0.0 mm 0.00 in0.0 mm
01:24 AM 49.1°F9.5°C 43.5°F6.4°C 81% 3.9 mph N6.3 kmh N 7.9 mph12.7 kmh 29.65 in1004.1 mb 0.00 in0.0 mm 0.00 in0.0 mm 0.00 in0.0 mm
01:23 AM 49.3°F9.6°C 43.7°F6.5°C 81% 3.7 mph N6.0 kmh N 5.2 mph8.4 kmh 29.65 in1004.1 mb 0.00 in0.0 mm 0.00 in0.0 mm 0.00 in0.0 mm
01:22 AM 49.3°F9.6°C 43.7°F6.5°C 81% 3.9 mph N6.3 kmh N 5.2 mph8.4 kmh 29.65 in1004.1 mb 0.00 in0.0 mm 0.00 in0.0 mm 0.00 in0.0 mm
01:21 AM 49.3°F9.6°C 43.7°F6.5°C 81% 4.0 mph N6.4 kmh N 5.2 mph8.4 kmh 29.65 in1004.1 mb 0.00 in0.0 mm 0.00 in0.0 mm 0.00 in0.0 mm
01:20 AM 49.3°F9.6°C 43.7°F6.5°C 81% 4.0 mph N6.4 kmh N 5.2 mph8.4 kmh 29.65 in1004.1 mb 0.00 in0.0 mm 0.00 in0.0 mm 0.00 in0.0 mm
01:19 AM 49.3°F9.6°C 43.7°F6.5°C 81% 3.8 mph N6.1 kmh N 5.2 mph8.4 kmh 29.65 in1004.1 mb 0.00 in0.0 mm 0.00 in0.0 mm 0.00 in0.0 mm
01:18 AM 49.3°F9.6°C 43.7°F6.5°C 81% 3.7 mph N6.0 kmh N 5.2 mph8.4 kmh 29.65 in1004.1 mb 0.00 in0.0 mm 0.00 in0.0 mm 0.00 in0.0 mm
01:17 AM 49.3°F9.6°C 43.7°F6.5°C 81% 3.7 mph N6.0 kmh N 5.2 mph8.4 kmh 29.65 in1004.1 mb 0.00 in0.0 mm 0.00 in0.0 mm 0.00 in0.0 mm
01:16 AM 49.1°F9.5°C 43.5°F6.4°C 81% 3.6 mph N5.8 kmh N 5.2 mph8.4 kmh 29.65 in1004.1 mb 0.00 in0.0 mm 0.00 in0.0 mm 0.00 in0.0 mm
01:15 AM 49.3°F9.6°C 43.7°F6.5°C 81% 3.6 mph N5.8 kmh N 5.2 mph8.4 kmh 29.66 in1004.4 mb 0.00 in0.0 mm 0.00 in0.0 mm 0.00 in0.0 mm
01:14 AM 49.3°F9.6°C 43.7°F6.5°C 81% 3.8 mph N6.1 kmh N 5.2 mph8.4 kmh 29.65 in1004.1 mb 0.00 in0.0 mm 0.00 in0.0 mm 0.00 in0.0 mm
01:13 AM 49.3°F9.6°C 43.7°F6.5°C 81% 3.9 mph N6.3 kmh N 6.1 mph9.8 kmh 29.65 in1004.1 mb 0.00 in0.0 mm 0.00 in0.0 mm 0.00 in0.0 mm
01:12 AM 49.1°F9.5°C 43.5°F6.4°C 81% 3.8 mph N6.1 kmh N 6.1 mph9.8 kmh 29.65 in1004.1 mb 0.00 in0.0 mm 0.00 in0.0 mm 0.00 in0.0 mm
01:11 AM 49.3°F9.6°C 43.7°F6.5°C 81% 3.8 mph N6.1 kmh N 6.1 mph9.8 kmh 29.65 in1004.1 mb 0.00 in0.0 mm 0.00 in0.0 mm 0.00 in0.0 mm
01:10 AM 49.3°F9.6°C 43.7°F6.5°C 81% 3.7 mph N6.0 kmh N 6.1 mph9.8 kmh 29.65 in1004.1 mb 0.00 in0.0 mm 0.00 in0.0 mm 0.00 in0.0 mm
01:09 AM 49.3°F9.6°C 44.0°F6.7°C 82% 3.8 mph N6.1 kmh N 6.1 mph9.8 kmh 29.65 in1004.1 mb 0.00 in0.0 mm 0.00 in0.0 mm 0.00 in0.0 mm
01:08 AM 49.1°F9.5°C 43.8°F6.6°C 82% 3.9 mph N6.3 kmh N 6.1 mph9.8 kmh 29.65 in1004.1 mb 0.00 in0.0 mm 0.00 in0.0 mm 0.00 in0.0 mm
01:07 AM 49.1°F9.5°C 43.8°F6.6°C 82% 3.8 mph N6.1 kmh N 6.1 mph9.8 kmh 29.65 in1004.1 mb 0.00 in0.0 mm 0.00 in0.0 mm 0.00 in0.0 mm
01:06 AM 49.3°F9.6°C 44.0°F6.7°C 82% 3.8 mph N6.1 kmh N 6.1 mph9.8 kmh 29.65 in1004.1 mb 0.00 in0.0 mm 0.00 in0.0 mm 0.00 in0.0 mm
01:05 AM 49.3°F9.6°C 44.0°F6.7°C 82% 3.8 mph N6.1 kmh N 6.1 mph9.8 kmh 29.65 in1004.1 mb 0.00 in0.0 mm 0.00 in0.0 mm 0.00 in0.0 mm
01:04 AM 49.3°F9.6°C 44.0°F6.7°C 82% 3.7 mph N6.0 kmh N 6.1 mph9.8 kmh 29.65 in1004.1 mb 0.00 in0.0 mm 0.00 in0.0 mm 0.00 in0.0 mm
01:03 AM 48.9°F9.4°C 43.7°F6.5°C 82% 3.5 mph N5.6 kmh N 5.2 mph8.4 kmh 29.65 in1004.1 mb 0.00 in0.0 mm 0.00 in0.0 mm 0.00 in0.0 mm
01:02 AM 48.9°F9.4°C 43.7°F6.5°C 82% 3.3 mph N5.3 kmh N 5.2 mph8.4 kmh 29.66 in1004.4 mb 0.00 in0.0 mm 0.00 in0.0 mm 0.00 in0.0 mm
01:01 AM 49.1°F9.5°C 43.8°F6.6°C 82% 3.4 mph N5.5 kmh N 5.2 mph8.4 kmh 29.65 in1004.1 mb 0.00 in0.0 mm 0.00 in0.0 mm 0.00 in0.0 mm
01:00 AM 49.3°F9.6°C 43.7°F6.5°C 81% 3.5 mph N5.6 kmh N 5.2 mph8.4 kmh 29.65 in1004.1 mb 0.00 in0.0 mm 0.00 in0.0 mm 0.00 in0.0 mm
12:59 AM 49.5°F9.7°C 43.9°F6.6°C 81% 3.4 mph N5.5 kmh N 5.2 mph8.4 kmh 29.65 in1004.1 mb 0.00 in0.0 mm 0.00 in0.0 mm 0.00 in0.0 mm
12:58 AM 49.3°F9.6°C 43.7°F6.5°C 81% 3.2 mph N5.1 kmh N 5.2 mph8.4 kmh 29.65 in1004.1 mb 0.00 in0.0 mm 0.00 in0.0 mm 0.00 in0.0 mm
12:57 AM 49.3°F9.6°C 43.7°F6.5°C 81% 3.1 mph N5.0 kmh N 4.4 mph7.1 kmh 29.65 in1004.1 mb 0.00 in0.0 mm 0.00 in0.0 mm 0.00 in0.0 mm
12:56 AM 49.3°F9.6°C 43.7°F6.5°C 81% 3.1 mph N5.0 kmh N 4.4 mph7.1 kmh 29.65 in1004.1 mb 0.00 in0.0 mm 0.00 in0.0 mm 0.00 in0.0 mm
12:55 AM 49.3°F9.6°C 43.7°F6.5°C 81% 3.1 mph N5.0 kmh N 4.4 mph7.1 kmh 29.65 in1004.1 mb 0.00 in0.0 mm 0.00 in0.0 mm 0.00 in0.0 mm
12:54 AM 49.3°F9.6°C 43.7°F6.5°C 81% 2.8 mph N4.5 kmh N 4.4 mph7.1 kmh 29.65 in1004.1 mb 0.00 in0.0 mm 0.00 in0.0 mm 0.00 in0.0 mm
12:53 AM 49.3°F9.6°C 43.7°F6.5°C 81% 2.5 mph N4.0 kmh N 4.4 mph7.1 kmh 29.65 in1004.1 mb 0.00 in0.0 mm 0.00 in0.0 mm 0.00 in0.0 mm
12:52 AM 49.3°F9.6°C 44.0°F6.7°C 82% 2.2 mph N3.5 kmh N 4.4 mph7.1 kmh 29.65 in1004.1 mb 0.00 in0.0 mm 0.00 in0.0 mm 0.00 in0.0 mm
12:51 AM 49.3°F9.6°C 44.0°F6.7°C 82% 2.0 mph N3.2 kmh N 4.4 mph7.1 kmh 29.65 in1004.1 mb 0.00 in0.0 mm 0.00 in0.0 mm 0.00 in0.0 mm
12:50 AM 49.3°F9.6°C 44.0°F6.7°C 82% 1.8 mph N2.9 kmh N 4.4 mph7.1 kmh 29.66 in1004.4 mb 0.00 in0.0 mm 0.00 in0.0 mm 0.00 in0.0 mm
12:49 AM 49.3°F9.6°C 44.0°F6.7°C 82% 1.8 mph N2.9 kmh N 4.4 mph7.1 kmh 29.66 in1004.4 mb 0.00 in0.0 mm 0.00 in0.0 mm 0.00 in0.0 mm
12:48 AM 49.3°F9.6°C 44.0°F6.7°C 82% 1.7 mph N2.7 kmh N 4.4 mph7.1 kmh 29.66 in1004.4 mb 0.00 in0.0 mm 0.00 in0.0 mm 0.00 in0.0 mm
12:47 AM 49.3°F9.6°C 44.0°F6.7°C 82% 1.7 mph N2.7 kmh N 4.4 mph7.1 kmh 29.66 in1004.4 mb 0.00 in0.0 mm 0.00 in0.0 mm 0.00 in0.0 mm
12:46 AM 49.3°F9.6°C 44.0°F6.7°C 82% 1.7 mph N2.7 kmh N 4.4 mph7.1 kmh 29.65 in1004.1 mb 0.00 in0.0 mm 0.00 in0.0 mm 0.00 in0.0 mm
12:45 AM 49.1°F9.5°C 43.8°F6.6°C 82% 1.7 mph N2.7 kmh N 4.4 mph7.1 kmh 29.66 in1004.4 mb 0.00 in0.0 mm 0.00 in0.0 mm 0.00 in0.0 mm
12:44 AM 49.1°F9.5°C 43.8°F6.6°C 82% 2.0 mph N3.2 kmh N 3.5 mph5.6 kmh 29.65 in1004.1 mb 0.00 in0.0 mm 0.00 in0.0 mm 0.00 in0.0 mm
12:43 AM 49.3°F9.6°C 44.0°F6.7°C 82% 2.5 mph N4.0 kmh N 6.1 mph9.8 kmh 29.65 in1004.1 mb 0.00 in0.0 mm 0.00 in0.0 mm 0.00 in0.0 mm
12:42 AM 49.3°F9.6°C 44.0°F6.7°C 82% 2.9 mph N4.7 kmh N 6.1 mph9.8 kmh 29.65 in1004.1 mb 0.00 in0.0 mm 0.00 in0.0 mm 0.00 in0.0 mm
12:41 AM 49.3°F9.6°C 44.0°F6.7°C 82% 3.0 mph N4.8 kmh N 6.1 mph9.8 kmh 29.65 in1004.1 mb 0.00 in0.0 mm 0.00 in0.0 mm 0.00 in0.0 mm
12:40 AM 49.3°F9.6°C 44.0°F6.7°C 82% 3.2 mph N5.1 kmh N 6.1 mph9.8 kmh 29.65 in1004.1 mb 0.00 in0.0 mm 0.00 in0.0 mm 0.00 in0.0 mm
12:39 AM 49.3°F9.6°C 44.0°F6.7°C 82% 3.3 mph N5.3 kmh N 6.1 mph9.8 kmh 29.65 in1004.1 mb 0.00 in0.0 mm 0.00 in0.0 mm 0.00 in0.0 mm
12:38 AM 49.3°F9.6°C 44.0°F6.7°C 82% 3.5 mph N5.6 kmh N 6.1 mph9.8 kmh 29.65 in1004.1 mb 0.00 in0.0 mm 0.00 in0.0 mm 0.00 in0.0 mm
12:37 AM 49.3°F9.6°C 44.0°F6.7°C 82% 3.7 mph N6.0 kmh N 6.1 mph9.8 kmh 29.65 in1004.1 mb 0.00 in0.0 mm 0.00 in0.0 mm 0.00 in0.0 mm
12:36 AM 49.3°F9.6°C 44.0°F6.7°C 82% 4.0 mph N6.4 kmh N 6.1 mph9.8 kmh 29.64 in1003.7 mb 0.00 in0.0 mm 0.00 in0.0 mm 0.00 in0.0 mm
12:35 AM 49.3°F9.6°C 43.7°F6.5°C 81% 4.0 mph N6.4 kmh N 6.1 mph9.8 kmh 29.64 in1003.7 mb 0.00 in0.0 mm 0.00 in0.0 mm 0.00 in0.0 mm
12:34 AM 49.3°F9.6°C 44.0°F6.7°C 82% 4.0 mph N6.4 kmh N 6.1 mph9.8 kmh 29.64 in1003.7 mb 0.00 in0.0 mm 0.00 in0.0 mm 0.00 in0.0 mm
12:33 AM 49.3°F9.6°C 44.0°F6.7°C 82% 4.2 mph N6.8 kmh N 7.9 mph12.7 kmh 29.64 in1003.7 mb 0.00 in0.0 mm 0.00 in0.0 mm 0.00 in0.0 mm
12:32 AM 49.3°F9.6°C 43.7°F6.5°C 81% 4.4 mph N7.1 kmh N 7.9 mph12.7 kmh 29.64 in1003.7 mb 0.00 in0.0 mm 0.00 in0.0 mm 0.00 in0.0 mm
12:31 AM 49.3°F9.6°C 43.7°F6.5°C 81% 4.7 mph N7.6 kmh N 7.9 mph12.7 kmh 29.64 in1003.7 mb 0.00 in0.0 mm 0.00 in0.0 mm 0.00 in0.0 mm
12:30 AM 49.3°F9.6°C 43.7°F6.5°C 81% 5.1 mph N8.2 kmh N 7.9 mph12.7 kmh 29.63 in1003.4 mb 0.00 in0.0 mm 0.00 in0.0 mm 0.00 in0.0 mm
12:29 AM 49.3°F9.6°C 43.7°F6.5°C 81% 5.5 mph N8.9 kmh N 7.9 mph12.7 kmh 29.64 in1003.7 mb 0.00 in0.0 mm 0.00 in0.0 mm 0.00 in0.0 mm
12:28 AM 49.3°F9.6°C 43.7°F6.5°C 81% 5.7 mph N9.2 kmh N 7.9 mph12.7 kmh 29.63 in1003.4 mb 0.00 in0.0 mm 0.00 in0.0 mm 0.00 in0.0 mm
12:27 AM 49.3°F9.6°C 43.7°F6.5°C 81% 5.6 mph N9.0 kmh N 7.9 mph12.7 kmh 29.63 in1003.4 mb 0.00 in0.0 mm 0.00 in0.0 mm 0.00 in0.0 mm
12:26 AM 49.3°F9.6°C 43.7°F6.5°C 81% 5.7 mph N9.2 kmh N 7.9 mph12.7 kmh 29.63 in1003.4 mb 0.00 in0.0 mm 0.00 in0.0 mm 0.00 in0.0 mm
12:25 AM 49.5°F9.7°C 43.9°F6.6°C 81% 6.1 mph N9.8 kmh N 7.9 mph12.7 kmh 29.63 in1003.4 mb 0.00 in0.0 mm 0.00 in0.0 mm 0.00 in0.0 mm
12:24 AM 49.5°F9.7°C 43.9°F6.6°C 81% 6.3 mph N10.1 kmh N 7.9 mph12.7 kmh 29.63 in1003.4 mb 0.00 in0.0 mm 0.00 in0.0 mm 0.00 in0.0 mm
12:23 AM 49.3°F9.6°C 43.7°F6.5°C 81% 6.3 mph N10.1 kmh N 7.9 mph12.7 kmh 29.63 in1003.4 mb 0.00 in0.0 mm 0.00 in0.0 mm 0.00 in0.0 mm
12:22 AM 49.5°F9.7°C 43.9°F6.6°C 81% 6.0 mph N9.7 kmh N 7.9 mph12.7 kmh 29.63 in1003.4 mb 0.00 in0.0 mm 0.00 in0.0 mm 0.00 in0.0 mm
12:21 AM 49.5°F9.7°C 43.9°F6.6°C 81% 5.9 mph N9.5 kmh N 7.9 mph12.7 kmh 29.63 in1003.4 mb 0.00 in0.0 mm 0.00 in0.0 mm 0.00 in0.0 mm
12:20 AM 49.3°F9.6°C 43.7°F6.5°C 81% 5.6 mph N9.0 kmh N 7.9 mph12.7 kmh 29.64 in1003.7 mb 0.00 in0.0 mm 0.00 in0.0 mm 0.00 in0.0 mm
12:19 AM 49.5°F9.7°C 43.9°F6.6°C 81% 5.8 mph N9.3 kmh N 9.6 mph15.4 kmh 29.64 in1003.7 mb 0.00 in0.0 mm 0.00 in0.0 mm 0.00 in0.0 mm
12:18 AM 49.5°F9.7°C 43.9°F6.6°C 81% 6.1 mph N9.8 kmh N 9.6 mph15.4 kmh 29.64 in1003.7 mb 0.00 in0.0 mm 0.00 in0.0 mm 0.00 in0.0 mm
12:17 AM 49.5°F9.7°C 43.9°F6.6°C 81% 6.2 mph N10.0 kmh N 9.6 mph15.4 kmh 29.64 in1003.7 mb 0.00 in0.0 mm 0.00 in0.0 mm 0.00 in0.0 mm
12:16 AM 49.5°F9.7°C 44.2°F6.8°C 82% 6.4 mph N10.3 kmh N 9.6 mph15.4 kmh 29.64 in1003.7 mb 0.00 in0.0 mm 0.00 in0.0 mm 0.00 in0.0 mm
12:15 AM 49.3°F9.6°C 44.0°F6.7°C 82% 6.3 mph N10.1 kmh N 9.6 mph15.4 kmh 29.64 in1003.7 mb 0.00 in0.0 mm 0.00 in0.0 mm 0.00 in0.0 mm
12:14 AM 49.3°F9.6°C 44.0°F6.7°C 82% 6.2 mph N10.0 kmh N 9.6 mph15.4 kmh 29.64 in1003.7 mb 0.00 in0.0 mm 0.00 in0.0 mm 0.00 in0.0 mm
12:13 AM 49.3°F9.6°C 43.7°F6.5°C 81% 6.1 mph N9.8 kmh N 9.6 mph15.4 kmh 29.63 in1003.4 mb 0.00 in0.0 mm 0.00 in0.0 mm 0.00 in0.0 mm
12:12 AM 49.5°F9.7°C 43.9°F6.6°C 81% 6.2 mph N10.0 kmh N 9.6 mph15.4 kmh 29.64 in1003.7 mb 0.00 in0.0 mm 0.00 in0.0 mm 0.00 in0.0 mm
12:11 AM 49.5°F9.7°C 44.2°F6.8°C 82% 6.2 mph N10.0 kmh N 9.6 mph15.4 kmh 29.64 in1003.7 mb 0.00 in0.0 mm 0.00 in0.0 mm 0.00 in0.0 mm
12:10 AM 49.5°F9.7°C 44.2°F6.8°C 82% 6.3 mph N10.1 kmh N 9.6 mph15.4 kmh 29.64 in1003.7 mb 0.00 in0.0 mm 0.00 in0.0 mm 0.00 in0.0 mm
12:09 AM 49.3°F9.6°C 44.0°F6.7°C 82% 6.0 mph N9.7 kmh N 9.6 mph15.4 kmh 29.63 in1003.4 mb 0.00 in0.0 mm 0.00 in0.0 mm 0.00 in0.0 mm
12:08 AM 49.3°F9.6°C 44.0°F6.7°C 82% 5.6 mph N9.0 kmh N 7.9 mph12.7 kmh 29.64 in1003.7 mb 0.00 in0.0 mm 0.00 in0.0 mm 0.00 in0.0 mm
12:07 AM 49.5°F9.7°C 44.2°F6.8°C 82% 5.2 mph N8.4 kmh N 7.9 mph12.7 kmh 29.64 in1003.7 mb 0.00 in0.0 mm 0.00 in0.0 mm 0.00 in0.0 mm
12:06 AM 49.3°F9.6°C 44.0°F6.7°C 82% 4.7 mph N7.6 kmh N 7.9 mph12.7 kmh 29.64 in1003.7 mb 0.00 in0.0 mm 0.00 in0.0 mm 0.00 in0.0 mm
12:05 AM 49.3°F9.6°C 44.0°F6.7°C 82% 4.3 mph N6.9 kmh N 6.1 mph9.8 kmh 29.64 in1003.7 mb 0.00 in0.0 mm 0.00 in0.0 mm 0.00 in0.0 mm
12:04 AM 49.3°F9.6°C 44.0°F6.7°C 82% 4.2 mph N6.8 kmh N 6.1 mph9.8 kmh 29.65 in1004.1 mb 0.00 in0.0 mm 0.00 in0.0 mm 0.00 in0.0 mm
12:03 AM 49.5°F9.7°C 44.2°F6.8°C 82% 4.0 mph N6.4 kmh N 6.1 mph9.8 kmh 29.65 in1004.1 mb 0.00 in0.0 mm 0.00 in0.0 mm 0.00 in0.0 mm
12:02 AM 49.5°F9.7°C 44.2°F6.8°C 82% 4.1 mph N6.6 kmh N 6.1 mph9.8 kmh 29.65 in1004.1 mb 0.00 in0.0 mm 0.00 in0.0 mm 0.00 in0.0 mm
12:01 AM 49.5°F9.7°C 44.2°F6.8°C 82% 3.9 mph N6.3 kmh N 6.1 mph9.8 kmh 29.65 in1004.1 mb 0.00 in0.0 mm 0.00 in0.0 mm 0.00 in0.0 mm
12:00 AM 49.3°F9.6°C 44.0°F6.7°C 82% 3.8 mph N6.1 kmh N 6.1 mph9.8 kmh 29.65 in1004.1 mb 0.00 in0.0 mm 0.00 in0.0 mm 0.00 in0.0 mm